<?xml version="1.0" encoding="UTF-8" standalone="no" ?>
<gpx xmlns="http://www.topografix.com/GPX/1/1" xmlns:xsi="http://www.w3.org/2001/XMLSchema-instance" xsi:schemaLocation="http://www.topografix.com/GPX/1/1 http://www.topografix.com/GPX/1/1/gpx.xsd" version="1.1" creator="VisuGPX - https://www.visugpx.com">
  <metadata>
    <name>Arçais</name>
    <desc><![CDATA[Départ & retour (lien Maps):
[url]https://goo.gl/maps/pLpHzaQNz6ujrcMq7[/url]]]></desc>
  </metadata>
  <wpt lat="46.283" lon="-0.71512">
    <ele>2</ele>
  </wpt>
  <wpt lat="46.28655" lon="-0.7189">
    <ele>2</ele>
  </wpt>
  <wpt lat="46.29048" lon="-0.72171">
    <ele>2.6</ele>
  </wpt>
  <wpt lat="46.29601" lon="-0.72231">
    <ele>2.6</ele>
  </wpt>
  <wpt lat="46.29514" lon="-0.72093">
    <ele>2.5</ele>
  </wpt>
  <trk>
    <name><![CDATA[Arçais_1]]></name>
    <trkseg>
      <trkpt lat="46.29873" lon="-0.69531">
        <ele>4</ele>
        <time>2012-09-18T13:58:15Z</time>
      </trkpt>
      <trkpt lat="46.29873" lon="-0.69531">
        <ele>4</ele>
        <time>2012-09-18T13:58:20Z</time>
      </trkpt>
      <trkpt lat="46.29874" lon="-0.69532">
        <ele>4</ele>
        <time>2012-09-18T13:58:25Z</time>
      </trkpt>
      <trkpt lat="46.29874" lon="-0.69531">
        <ele>4</ele>
        <time>2012-09-18T13:58:30Z</time>
      </trkpt>
      <trkpt lat="46.29874" lon="-0.69532">
        <ele>4</ele>
        <time>2012-09-18T13:58:35Z</time>
      </trkpt>
      <trkpt lat="46.29874" lon="-0.69534">
        <ele>4</ele>
        <time>2012-09-18T13:58:40Z</time>
      </trkpt>
      <trkpt lat="46.29874" lon="-0.69533">
        <ele>4</ele>
        <time>2012-09-18T13:58:45Z</time>
      </trkpt>
      <trkpt lat="46.29874" lon="-0.69533">
        <ele>4</ele>
        <time>2012-09-18T13:58:50Z</time>
      </trkpt>
      <trkpt lat="46.29873" lon="-0.69535">
        <ele>4</ele>
        <time>2012-09-18T13:58:55Z</time>
      </trkpt>
      <trkpt lat="46.29875" lon="-0.69531">
        <ele>5</ele>
        <time>2012-09-18T13:59:00Z</time>
      </trkpt>
      <trkpt lat="46.29874" lon="-0.69533">
        <ele>4</ele>
        <time>2012-09-18T13:59:05Z</time>
      </trkpt>
      <trkpt lat="46.29873" lon="-0.69532">
        <ele>4</ele>
        <time>2012-09-18T13:59:25Z</time>
      </trkpt>
      <trkpt lat="46.29873" lon="-0.69533">
        <ele>4</ele>
        <time>2012-09-18T13:59:30Z</time>
      </trkpt>
      <trkpt lat="46.29874" lon="-0.69533">
        <ele>4</ele>
        <time>2012-09-18T13:59:35Z</time>
      </trkpt>
      <trkpt lat="46.29874" lon="-0.69533">
        <ele>4</ele>
        <time>2012-09-18T14:00:05Z</time>
      </trkpt>
      <trkpt lat="46.29874" lon="-0.69533">
        <ele>4</ele>
        <time>2012-09-18T14:00:15Z</time>
      </trkpt>
      <trkpt lat="46.29873" lon="-0.69533">
        <ele>4</ele>
        <time>2012-09-18T14:00:30Z</time>
      </trkpt>
      <trkpt lat="46.29874" lon="-0.69533">
        <ele>4</ele>
        <time>2012-09-18T14:00:35Z</time>
      </trkpt>
      <trkpt lat="46.29873" lon="-0.69533">
        <ele>4</ele>
        <time>2012-09-18T14:00:40Z</time>
      </trkpt>
      <trkpt lat="46.29874" lon="-0.69533">
        <ele>4</ele>
        <time>2012-09-18T14:00:45Z</time>
      </trkpt>
      <trkpt lat="46.29873" lon="-0.69533">
        <ele>4</ele>
        <time>2012-09-18T14:00:50Z</time>
      </trkpt>
      <trkpt lat="46.29871" lon="-0.69529">
        <ele>4</ele>
        <time>2012-09-18T14:01:00Z</time>
      </trkpt>
      <trkpt lat="46.29873" lon="-0.69524">
        <ele>4</ele>
        <time>2012-09-18T14:01:05Z</time>
      </trkpt>
      <trkpt lat="46.29871" lon="-0.6952">
        <ele>4</ele>
        <time>2012-09-18T14:01:10Z</time>
      </trkpt>
      <trkpt lat="46.29869" lon="-0.6952">
        <ele>4</ele>
        <time>2012-09-18T14:01:15Z</time>
      </trkpt>
      <trkpt lat="46.29868" lon="-0.69519">
        <ele>4</ele>
        <time>2012-09-18T14:01:20Z</time>
      </trkpt>
      <trkpt lat="46.29871" lon="-0.69512">
        <ele>4</ele>
        <time>2012-09-18T14:01:25Z</time>
      </trkpt>
      <trkpt lat="46.29871" lon="-0.69502">
        <ele>4</ele>
        <time>2012-09-18T14:01:30Z</time>
      </trkpt>
      <trkpt lat="46.2987" lon="-0.69496">
        <ele>4</ele>
        <time>2012-09-18T14:01:35Z</time>
      </trkpt>
      <trkpt lat="46.29867" lon="-0.69492">
        <ele>4</ele>
        <time>2012-09-18T14:01:40Z</time>
      </trkpt>
      <trkpt lat="46.29863" lon="-0.69484">
        <ele>4</ele>
        <time>2012-09-18T14:01:45Z</time>
      </trkpt>
      <trkpt lat="46.29865" lon="-0.69483">
        <ele>4</ele>
        <time>2012-09-18T14:01:50Z</time>
      </trkpt>
      <trkpt lat="46.29863" lon="-0.69485">
        <ele>4</ele>
        <time>2012-09-18T14:01:55Z</time>
      </trkpt>
      <trkpt lat="46.29866" lon="-0.69475">
        <ele>4</ele>
        <time>2012-09-18T14:02:00Z</time>
      </trkpt>
      <trkpt lat="46.29865" lon="-0.69467">
        <ele>4</ele>
        <time>2012-09-18T14:02:05Z</time>
      </trkpt>
      <trkpt lat="46.29863" lon="-0.69459">
        <ele>4</ele>
        <time>2012-09-18T14:02:10Z</time>
      </trkpt>
      <trkpt lat="46.2986" lon="-0.69452">
        <ele>4</ele>
        <time>2012-09-18T14:02:15Z</time>
      </trkpt>
      <trkpt lat="46.29856" lon="-0.69443">
        <ele>4</ele>
        <time>2012-09-18T14:02:20Z</time>
      </trkpt>
      <trkpt lat="46.29853" lon="-0.69439">
        <ele>4</ele>
        <time>2012-09-18T14:02:25Z</time>
      </trkpt>
      <trkpt lat="46.29852" lon="-0.69438">
        <ele>4</ele>
        <time>2012-09-18T14:02:30Z</time>
      </trkpt>
      <trkpt lat="46.29846" lon="-0.69439">
        <ele>4</ele>
        <time>2012-09-18T14:02:35Z</time>
      </trkpt>
      <trkpt lat="46.2984" lon="-0.69439">
        <ele>4</ele>
        <time>2012-09-18T14:02:40Z</time>
      </trkpt>
      <trkpt lat="46.29834" lon="-0.69438">
        <ele>4</ele>
        <time>2012-09-18T14:02:45Z</time>
      </trkpt>
      <trkpt lat="46.29829" lon="-0.69436">
        <ele>4</ele>
        <time>2012-09-18T14:02:50Z</time>
      </trkpt>
      <trkpt lat="46.29822" lon="-0.69436">
        <ele>4</ele>
        <time>2012-09-18T14:02:55Z</time>
      </trkpt>
      <trkpt lat="46.29817" lon="-0.69438">
        <ele>4</ele>
        <time>2012-09-18T14:03:00Z</time>
      </trkpt>
      <trkpt lat="46.29814" lon="-0.69442">
        <ele>4</ele>
        <time>2012-09-18T14:03:05Z</time>
      </trkpt>
      <trkpt lat="46.29811" lon="-0.69449">
        <ele>4</ele>
        <time>2012-09-18T14:03:10Z</time>
      </trkpt>
      <trkpt lat="46.29807" lon="-0.69453">
        <ele>4</ele>
        <time>2012-09-18T14:03:15Z</time>
      </trkpt>
      <trkpt lat="46.29802" lon="-0.69457">
        <ele>4</ele>
        <time>2012-09-18T14:03:20Z</time>
      </trkpt>
      <trkpt lat="46.29797" lon="-0.69461">
        <ele>4</ele>
        <time>2012-09-18T14:03:25Z</time>
      </trkpt>
      <trkpt lat="46.29791" lon="-0.69464">
        <ele>5</ele>
        <time>2012-09-18T14:03:30Z</time>
      </trkpt>
      <trkpt lat="46.29786" lon="-0.69465">
        <ele>5</ele>
        <time>2012-09-18T14:03:35Z</time>
      </trkpt>
      <trkpt lat="46.2978" lon="-0.6947">
        <ele>5</ele>
        <time>2012-09-18T14:03:40Z</time>
      </trkpt>
      <trkpt lat="46.29776" lon="-0.69474">
        <ele>5</ele>
        <time>2012-09-18T14:03:45Z</time>
      </trkpt>
      <trkpt lat="46.29773" lon="-0.6948">
        <ele>5</ele>
        <time>2012-09-18T14:03:50Z</time>
      </trkpt>
      <trkpt lat="46.29768" lon="-0.69484">
        <ele>5</ele>
        <time>2012-09-18T14:03:55Z</time>
      </trkpt>
      <trkpt lat="46.29765" lon="-0.6949">
        <ele>5</ele>
        <time>2012-09-18T14:04:00Z</time>
      </trkpt>
      <trkpt lat="46.29759" lon="-0.69492">
        <ele>5</ele>
        <time>2012-09-18T14:04:05Z</time>
      </trkpt>
      <trkpt lat="46.29756" lon="-0.69498">
        <ele>5</ele>
        <time>2012-09-18T14:04:10Z</time>
      </trkpt>
      <trkpt lat="46.29752" lon="-0.69505">
        <ele>5</ele>
        <time>2012-09-18T14:04:15Z</time>
      </trkpt>
      <trkpt lat="46.2975" lon="-0.69509">
        <ele>5</ele>
        <time>2012-09-18T14:04:20Z</time>
      </trkpt>
      <trkpt lat="46.29746" lon="-0.69515">
        <ele>5</ele>
        <time>2012-09-18T14:04:25Z</time>
      </trkpt>
      <trkpt lat="46.29743" lon="-0.69523">
        <ele>5</ele>
        <time>2012-09-18T14:04:30Z</time>
      </trkpt>
      <trkpt lat="46.2974" lon="-0.69531">
        <ele>5</ele>
        <time>2012-09-18T14:04:35Z</time>
      </trkpt>
      <trkpt lat="46.29738" lon="-0.69538">
        <ele>5</ele>
        <time>2012-09-18T14:04:40Z</time>
      </trkpt>
      <trkpt lat="46.29735" lon="-0.69545">
        <ele>5</ele>
        <time>2012-09-18T14:04:45Z</time>
      </trkpt>
      <trkpt lat="46.29734" lon="-0.69553">
        <ele>5</ele>
        <time>2012-09-18T14:04:50Z</time>
      </trkpt>
      <trkpt lat="46.29734" lon="-0.69561">
        <ele>5</ele>
        <time>2012-09-18T14:04:55Z</time>
      </trkpt>
      <trkpt lat="46.29733" lon="-0.69569">
        <ele>5</ele>
        <time>2012-09-18T14:05:00Z</time>
      </trkpt>
      <trkpt lat="46.29733" lon="-0.69575">
        <ele>5</ele>
        <time>2012-09-18T14:05:05Z</time>
      </trkpt>
      <trkpt lat="46.29732" lon="-0.69583">
        <ele>5</ele>
        <time>2012-09-18T14:05:10Z</time>
      </trkpt>
      <trkpt lat="46.29733" lon="-0.69592">
        <ele>5</ele>
        <time>2012-09-18T14:05:15Z</time>
      </trkpt>
      <trkpt lat="46.29736" lon="-0.69596">
        <ele>5</ele>
        <time>2012-09-18T14:05:20Z</time>
      </trkpt>
      <trkpt lat="46.29736" lon="-0.69604">
        <ele>5</ele>
        <time>2012-09-18T14:05:25Z</time>
      </trkpt>
      <trkpt lat="46.29736" lon="-0.69612">
        <ele>5</ele>
        <time>2012-09-18T14:05:30Z</time>
      </trkpt>
      <trkpt lat="46.29735" lon="-0.69618">
        <ele>5</ele>
        <time>2012-09-18T14:05:35Z</time>
      </trkpt>
      <trkpt lat="46.29732" lon="-0.69625">
        <ele>5</ele>
        <time>2012-09-18T14:05:40Z</time>
      </trkpt>
      <trkpt lat="46.29729" lon="-0.69632">
        <ele>6</ele>
        <time>2012-09-18T14:05:45Z</time>
      </trkpt>
      <trkpt lat="46.29726" lon="-0.69638">
        <ele>6</ele>
        <time>2012-09-18T14:05:50Z</time>
      </trkpt>
      <trkpt lat="46.29723" lon="-0.69644">
        <ele>6</ele>
        <time>2012-09-18T14:05:55Z</time>
      </trkpt>
      <trkpt lat="46.29721" lon="-0.69651">
        <ele>6</ele>
        <time>2012-09-18T14:06:00Z</time>
      </trkpt>
      <trkpt lat="46.29716" lon="-0.69657">
        <ele>6</ele>
        <time>2012-09-18T14:06:05Z</time>
      </trkpt>
      <trkpt lat="46.29715" lon="-0.69654">
        <ele>6</ele>
        <time>2012-09-18T14:06:10Z</time>
      </trkpt>
      <trkpt lat="46.29712" lon="-0.69655">
        <ele>6</ele>
        <time>2012-09-18T14:06:15Z</time>
      </trkpt>
      <trkpt lat="46.29706" lon="-0.69654">
        <ele>6</ele>
        <time>2012-09-18T14:06:20Z</time>
      </trkpt>
      <trkpt lat="46.29702" lon="-0.69651">
        <ele>6</ele>
        <time>2012-09-18T14:06:25Z</time>
      </trkpt>
      <trkpt lat="46.29701" lon="-0.69651">
        <ele>6</ele>
        <time>2012-09-18T14:06:30Z</time>
      </trkpt>
      <trkpt lat="46.29701" lon="-0.69652">
        <ele>6</ele>
        <time>2012-09-18T14:06:35Z</time>
      </trkpt>
      <trkpt lat="46.297" lon="-0.69648">
        <ele>6</ele>
        <time>2012-09-18T14:06:45Z</time>
      </trkpt>
      <trkpt lat="46.29703" lon="-0.69644">
        <ele>6</ele>
        <time>2012-09-18T14:06:50Z</time>
      </trkpt>
      <trkpt lat="46.29702" lon="-0.69637">
        <ele>6</ele>
        <time>2012-09-18T14:06:55Z</time>
      </trkpt>
      <trkpt lat="46.297" lon="-0.6963">
        <ele>6</ele>
        <time>2012-09-18T14:07:00Z</time>
      </trkpt>
      <trkpt lat="46.29698" lon="-0.69623">
        <ele>6</ele>
        <time>2012-09-18T14:07:05Z</time>
      </trkpt>
      <trkpt lat="46.29694" lon="-0.69617">
        <ele>6</ele>
        <time>2012-09-18T14:07:10Z</time>
      </trkpt>
      <trkpt lat="46.29691" lon="-0.69608">
        <ele>6</ele>
        <time>2012-09-18T14:07:15Z</time>
      </trkpt>
      <trkpt lat="46.29687" lon="-0.69601">
        <ele>6</ele>
        <time>2012-09-18T14:07:20Z</time>
      </trkpt>
      <trkpt lat="46.29686" lon="-0.69591">
        <ele>6</ele>
        <time>2012-09-18T14:07:25Z</time>
      </trkpt>
      <trkpt lat="46.29684" lon="-0.69584">
        <ele>6</ele>
        <time>2012-09-18T14:07:30Z</time>
      </trkpt>
      <trkpt lat="46.29681" lon="-0.69578">
        <ele>6</ele>
        <time>2012-09-18T14:07:35Z</time>
      </trkpt>
      <trkpt lat="46.29677" lon="-0.69572">
        <ele>6</ele>
        <time>2012-09-18T14:07:40Z</time>
      </trkpt>
      <trkpt lat="46.29674" lon="-0.69565">
        <ele>6</ele>
        <time>2012-09-18T14:07:45Z</time>
      </trkpt>
      <trkpt lat="46.2967" lon="-0.69556">
        <ele>6</ele>
        <time>2012-09-18T14:07:50Z</time>
      </trkpt>
      <trkpt lat="46.29667" lon="-0.69547">
        <ele>6</ele>
        <time>2012-09-18T14:07:55Z</time>
      </trkpt>
      <trkpt lat="46.29664" lon="-0.69541">
        <ele>6</ele>
        <time>2012-09-18T14:08:00Z</time>
      </trkpt>
      <trkpt lat="46.29661" lon="-0.69533">
        <ele>6</ele>
        <time>2012-09-18T14:08:05Z</time>
      </trkpt>
      <trkpt lat="46.29658" lon="-0.69525">
        <ele>6</ele>
        <time>2012-09-18T14:08:10Z</time>
      </trkpt>
      <trkpt lat="46.29655" lon="-0.69519">
        <ele>6</ele>
        <time>2012-09-18T14:08:15Z</time>
      </trkpt>
      <trkpt lat="46.29654" lon="-0.69511">
        <ele>6</ele>
        <time>2012-09-18T14:08:20Z</time>
      </trkpt>
      <trkpt lat="46.29651" lon="-0.69504">
        <ele>6</ele>
        <time>2012-09-18T14:08:25Z</time>
      </trkpt>
      <trkpt lat="46.29649" lon="-0.69498">
        <ele>6</ele>
        <time>2012-09-18T14:08:30Z</time>
      </trkpt>
      <trkpt lat="46.29646" lon="-0.69491">
        <ele>6</ele>
        <time>2012-09-18T14:08:35Z</time>
      </trkpt>
      <trkpt lat="46.29642" lon="-0.69485">
        <ele>6</ele>
        <time>2012-09-18T14:08:40Z</time>
      </trkpt>
      <trkpt lat="46.2964" lon="-0.69479">
        <ele>6</ele>
        <time>2012-09-18T14:08:45Z</time>
      </trkpt>
      <trkpt lat="46.29636" lon="-0.69474">
        <ele>6</ele>
        <time>2012-09-18T14:08:50Z</time>
      </trkpt>
      <trkpt lat="46.29636" lon="-0.69464">
        <ele>6</ele>
        <time>2012-09-18T14:08:55Z</time>
      </trkpt>
      <trkpt lat="46.29634" lon="-0.69458">
        <ele>5</ele>
        <time>2012-09-18T14:09:00Z</time>
      </trkpt>
      <trkpt lat="46.29632" lon="-0.69452">
        <ele>5</ele>
        <time>2012-09-18T14:09:05Z</time>
      </trkpt>
      <trkpt lat="46.29626" lon="-0.69447">
        <ele>5</ele>
        <time>2012-09-18T14:09:10Z</time>
      </trkpt>
      <trkpt lat="46.29622" lon="-0.69444">
        <ele>4</ele>
        <time>2012-09-18T14:09:15Z</time>
      </trkpt>
      <trkpt lat="46.29615" lon="-0.69438">
        <ele>4</ele>
        <time>2012-09-18T14:09:20Z</time>
      </trkpt>
      <trkpt lat="46.2961" lon="-0.69432">
        <ele>4</ele>
        <time>2012-09-18T14:09:25Z</time>
      </trkpt>
      <trkpt lat="46.29605" lon="-0.69427">
        <ele>4</ele>
        <time>2012-09-18T14:09:30Z</time>
      </trkpt>
      <trkpt lat="46.29602" lon="-0.69422">
        <ele>4</ele>
        <time>2012-09-18T14:09:35Z</time>
      </trkpt>
      <trkpt lat="46.29596" lon="-0.69415">
        <ele>4</ele>
        <time>2012-09-18T14:09:40Z</time>
      </trkpt>
      <trkpt lat="46.29592" lon="-0.69409">
        <ele>4</ele>
        <time>2012-09-18T14:09:45Z</time>
      </trkpt>
      <trkpt lat="46.29587" lon="-0.69403">
        <ele>4</ele>
        <time>2012-09-18T14:09:50Z</time>
      </trkpt>
      <trkpt lat="46.29581" lon="-0.69402">
        <ele>4</ele>
        <time>2012-09-18T14:09:55Z</time>
      </trkpt>
      <trkpt lat="46.29574" lon="-0.694">
        <ele>4</ele>
        <time>2012-09-18T14:10:00Z</time>
      </trkpt>
      <trkpt lat="46.2957" lon="-0.69397">
        <ele>4</ele>
        <time>2012-09-18T14:10:05Z</time>
      </trkpt>
      <trkpt lat="46.29565" lon="-0.69392">
        <ele>4</ele>
        <time>2012-09-18T14:10:10Z</time>
      </trkpt>
      <trkpt lat="46.29562" lon="-0.69385">
        <ele>4</ele>
        <time>2012-09-18T14:10:15Z</time>
      </trkpt>
      <trkpt lat="46.29557" lon="-0.69381">
        <ele>4</ele>
        <time>2012-09-18T14:10:20Z</time>
      </trkpt>
      <trkpt lat="46.29552" lon="-0.69375">
        <ele>4</ele>
        <time>2012-09-18T14:10:25Z</time>
      </trkpt>
      <trkpt lat="46.29547" lon="-0.69368">
        <ele>5</ele>
        <time>2012-09-18T14:10:30Z</time>
      </trkpt>
      <trkpt lat="46.29542" lon="-0.69364">
        <ele>4</ele>
        <time>2012-09-18T14:10:35Z</time>
      </trkpt>
      <trkpt lat="46.29536" lon="-0.6936">
        <ele>4</ele>
        <time>2012-09-18T14:10:40Z</time>
      </trkpt>
      <trkpt lat="46.29531" lon="-0.69355">
        <ele>4</ele>
        <time>2012-09-18T14:10:45Z</time>
      </trkpt>
      <trkpt lat="46.29525" lon="-0.69349">
        <ele>4</ele>
        <time>2012-09-18T14:10:50Z</time>
      </trkpt>
      <trkpt lat="46.2952" lon="-0.69344">
        <ele>4</ele>
        <time>2012-09-18T14:10:55Z</time>
      </trkpt>
      <trkpt lat="46.29515" lon="-0.69338">
        <ele>4</ele>
        <time>2012-09-18T14:11:00Z</time>
      </trkpt>
      <trkpt lat="46.2951" lon="-0.69333">
        <ele>4</ele>
        <time>2012-09-18T14:11:05Z</time>
      </trkpt>
      <trkpt lat="46.29506" lon="-0.6933">
        <ele>4</ele>
        <time>2012-09-18T14:11:10Z</time>
      </trkpt>
      <trkpt lat="46.295" lon="-0.69326">
        <ele>4</ele>
        <time>2012-09-18T14:11:15Z</time>
      </trkpt>
      <trkpt lat="46.29494" lon="-0.69323">
        <ele>4</ele>
        <time>2012-09-18T14:11:20Z</time>
      </trkpt>
      <trkpt lat="46.29487" lon="-0.69317">
        <ele>4</ele>
        <time>2012-09-18T14:11:25Z</time>
      </trkpt>
      <trkpt lat="46.29483" lon="-0.69313">
        <ele>4</ele>
        <time>2012-09-18T14:11:30Z</time>
      </trkpt>
      <trkpt lat="46.29479" lon="-0.69309">
        <ele>4</ele>
        <time>2012-09-18T14:11:35Z</time>
      </trkpt>
      <trkpt lat="46.29475" lon="-0.69304">
        <ele>4</ele>
        <time>2012-09-18T14:11:40Z</time>
      </trkpt>
      <trkpt lat="46.29471" lon="-0.69301">
        <ele>4</ele>
        <time>2012-09-18T14:11:45Z</time>
      </trkpt>
      <trkpt lat="46.29468" lon="-0.69294">
        <ele>4</ele>
        <time>2012-09-18T14:11:50Z</time>
      </trkpt>
      <trkpt lat="46.29464" lon="-0.69289">
        <ele>7</ele>
        <time>2012-09-18T14:11:55Z</time>
      </trkpt>
      <trkpt lat="46.29462" lon="-0.69285">
        <ele>7</ele>
        <time>2012-09-18T14:12:00Z</time>
      </trkpt>
      <trkpt lat="46.2946" lon="-0.69283">
        <ele>7</ele>
        <time>2012-09-18T14:12:05Z</time>
      </trkpt>
      <trkpt lat="46.29459" lon="-0.69282">
        <ele>7</ele>
        <time>2012-09-18T14:12:10Z</time>
      </trkpt>
      <trkpt lat="46.29459" lon="-0.69284">
        <ele>7</ele>
        <time>2012-09-18T14:12:15Z</time>
      </trkpt>
      <trkpt lat="46.29458" lon="-0.69283">
        <ele>7</ele>
        <time>2012-09-18T14:12:20Z</time>
      </trkpt>
      <trkpt lat="46.29455" lon="-0.69278">
        <ele>8</ele>
        <time>2012-09-18T14:12:25Z</time>
      </trkpt>
      <trkpt lat="46.29451" lon="-0.69274">
        <ele>8</ele>
        <time>2012-09-18T14:12:30Z</time>
      </trkpt>
      <trkpt lat="46.29446" lon="-0.69268">
        <ele>8</ele>
        <time>2012-09-18T14:12:35Z</time>
      </trkpt>
      <trkpt lat="46.2944" lon="-0.69264">
        <ele>8</ele>
        <time>2012-09-18T14:12:40Z</time>
      </trkpt>
      <trkpt lat="46.29436" lon="-0.69258">
        <ele>8</ele>
        <time>2012-09-18T14:12:45Z</time>
      </trkpt>
      <trkpt lat="46.29434" lon="-0.69251">
        <ele>8</ele>
        <time>2012-09-18T14:12:50Z</time>
      </trkpt>
      <trkpt lat="46.29431" lon="-0.69246">
        <ele>8</ele>
        <time>2012-09-18T14:12:55Z</time>
      </trkpt>
      <trkpt lat="46.29429" lon="-0.69239">
        <ele>8</ele>
        <time>2012-09-18T14:13:00Z</time>
      </trkpt>
      <trkpt lat="46.29426" lon="-0.69232">
        <ele>8</ele>
        <time>2012-09-18T14:13:05Z</time>
      </trkpt>
      <trkpt lat="46.29422" lon="-0.69226">
        <ele>8</ele>
        <time>2012-09-18T14:13:10Z</time>
      </trkpt>
      <trkpt lat="46.2942" lon="-0.69219">
        <ele>8</ele>
        <time>2012-09-18T14:13:15Z</time>
      </trkpt>
      <trkpt lat="46.29417" lon="-0.69211">
        <ele>8</ele>
        <time>2012-09-18T14:13:20Z</time>
      </trkpt>
      <trkpt lat="46.29416" lon="-0.69203">
        <ele>11</ele>
        <time>2012-09-18T14:13:25Z</time>
      </trkpt>
      <trkpt lat="46.29413" lon="-0.69197">
        <ele>11</ele>
        <time>2012-09-18T14:13:30Z</time>
      </trkpt>
      <trkpt lat="46.2941" lon="-0.69192">
        <ele>11</ele>
        <time>2012-09-18T14:13:35Z</time>
      </trkpt>
      <trkpt lat="46.29409" lon="-0.69187">
        <ele>11</ele>
        <time>2012-09-18T14:13:40Z</time>
      </trkpt>
      <trkpt lat="46.29409" lon="-0.69184">
        <ele>11</ele>
        <time>2012-09-18T14:13:45Z</time>
      </trkpt>
      <trkpt lat="46.2941" lon="-0.69179">
        <ele>11</ele>
        <time>2012-09-18T14:13:50Z</time>
      </trkpt>
      <trkpt lat="46.29407" lon="-0.69174">
        <ele>11</ele>
        <time>2012-09-18T14:13:55Z</time>
      </trkpt>
      <trkpt lat="46.29404" lon="-0.69165">
        <ele>11</ele>
        <time>2012-09-18T14:14:00Z</time>
      </trkpt>
      <trkpt lat="46.294" lon="-0.69159">
        <ele>11</ele>
        <time>2012-09-18T14:14:05Z</time>
      </trkpt>
      <trkpt lat="46.29398" lon="-0.69153">
        <ele>11</ele>
        <time>2012-09-18T14:14:10Z</time>
      </trkpt>
      <trkpt lat="46.29397" lon="-0.69146">
        <ele>11</ele>
        <time>2012-09-18T14:14:15Z</time>
      </trkpt>
      <trkpt lat="46.29399" lon="-0.69136">
        <ele>11</ele>
        <time>2012-09-18T14:14:20Z</time>
      </trkpt>
      <trkpt lat="46.29398" lon="-0.69129">
        <ele>11</ele>
        <time>2012-09-18T14:14:25Z</time>
      </trkpt>
      <trkpt lat="46.29397" lon="-0.69121">
        <ele>11</ele>
        <time>2012-09-18T14:14:30Z</time>
      </trkpt>
      <trkpt lat="46.29397" lon="-0.69114">
        <ele>11</ele>
        <time>2012-09-18T14:14:35Z</time>
      </trkpt>
      <trkpt lat="46.29398" lon="-0.69106">
        <ele>11</ele>
        <time>2012-09-18T14:14:40Z</time>
      </trkpt>
      <trkpt lat="46.29399" lon="-0.69098">
        <ele>11</ele>
        <time>2012-09-18T14:14:45Z</time>
      </trkpt>
      <trkpt lat="46.29398" lon="-0.6909">
        <ele>11</ele>
        <time>2012-09-18T14:14:50Z</time>
      </trkpt>
      <trkpt lat="46.29397" lon="-0.69084">
        <ele>11</ele>
        <time>2012-09-18T14:14:55Z</time>
      </trkpt>
      <trkpt lat="46.29396" lon="-0.69081">
        <ele>11</ele>
        <time>2012-09-18T14:15:00Z</time>
      </trkpt>
      <trkpt lat="46.29396" lon="-0.6908">
        <ele>11</ele>
        <time>2012-09-18T14:15:05Z</time>
      </trkpt>
      <trkpt lat="46.29396" lon="-0.69081">
        <ele>11</ele>
        <time>2012-09-18T14:15:10Z</time>
      </trkpt>
      <trkpt lat="46.29396" lon="-0.6908">
        <ele>11</ele>
        <time>2012-09-18T14:15:15Z</time>
      </trkpt>
      <trkpt lat="46.29391" lon="-0.6908">
        <ele>11</ele>
        <time>2012-09-18T14:15:20Z</time>
      </trkpt>
      <trkpt lat="46.29384" lon="-0.69078">
        <ele>11</ele>
        <time>2012-09-18T14:15:25Z</time>
      </trkpt>
      <trkpt lat="46.29377" lon="-0.69075">
        <ele>11</ele>
        <time>2012-09-18T14:15:30Z</time>
      </trkpt>
      <trkpt lat="46.29367" lon="-0.69071">
        <ele>10</ele>
        <time>2012-09-18T14:15:35Z</time>
      </trkpt>
      <trkpt lat="46.29362" lon="-0.6907">
        <ele>10</ele>
        <time>2012-09-18T14:15:40Z</time>
      </trkpt>
      <trkpt lat="46.29355" lon="-0.69069">
        <ele>10</ele>
        <time>2012-09-18T14:15:45Z</time>
      </trkpt>
      <trkpt lat="46.2935" lon="-0.69068">
        <ele>10</ele>
        <time>2012-09-18T14:15:50Z</time>
      </trkpt>
      <trkpt lat="46.29344" lon="-0.69067">
        <ele>10</ele>
        <time>2012-09-18T14:15:55Z</time>
      </trkpt>
      <trkpt lat="46.29338" lon="-0.69069">
        <ele>10</ele>
        <time>2012-09-18T14:16:00Z</time>
      </trkpt>
      <trkpt lat="46.29334" lon="-0.69069">
        <ele>10</ele>
        <time>2012-09-18T14:16:05Z</time>
      </trkpt>
      <trkpt lat="46.29329" lon="-0.69068">
        <ele>10</ele>
        <time>2012-09-18T14:16:10Z</time>
      </trkpt>
      <trkpt lat="46.29326" lon="-0.69065">
        <ele>10</ele>
        <time>2012-09-18T14:16:15Z</time>
      </trkpt>
      <trkpt lat="46.29318" lon="-0.69065">
        <ele>10</ele>
        <time>2012-09-18T14:16:20Z</time>
      </trkpt>
      <trkpt lat="46.29313" lon="-0.69062">
        <ele>10</ele>
        <time>2012-09-18T14:16:25Z</time>
      </trkpt>
      <trkpt lat="46.2931" lon="-0.6906">
        <ele>10</ele>
        <time>2012-09-18T14:16:30Z</time>
      </trkpt>
      <trkpt lat="46.29304" lon="-0.69059">
        <ele>10</ele>
        <time>2012-09-18T14:16:35Z</time>
      </trkpt>
      <trkpt lat="46.293" lon="-0.69061">
        <ele>10</ele>
        <time>2012-09-18T14:16:40Z</time>
      </trkpt>
      <trkpt lat="46.29293" lon="-0.69058">
        <ele>10</ele>
        <time>2012-09-18T14:16:45Z</time>
      </trkpt>
      <trkpt lat="46.29287" lon="-0.69057">
        <ele>8</ele>
        <time>2012-09-18T14:16:50Z</time>
      </trkpt>
      <trkpt lat="46.29281" lon="-0.69058">
        <ele>8</ele>
        <time>2012-09-18T14:16:55Z</time>
      </trkpt>
      <trkpt lat="46.29276" lon="-0.69058">
        <ele>8</ele>
        <time>2012-09-18T14:17:00Z</time>
      </trkpt>
      <trkpt lat="46.2927" lon="-0.69056">
        <ele>8</ele>
        <time>2012-09-18T14:17:05Z</time>
      </trkpt>
      <trkpt lat="46.29264" lon="-0.69056">
        <ele>8</ele>
        <time>2012-09-18T14:17:10Z</time>
      </trkpt>
      <trkpt lat="46.29257" lon="-0.69057">
        <ele>8</ele>
        <time>2012-09-18T14:17:15Z</time>
      </trkpt>
      <trkpt lat="46.29251" lon="-0.69056">
        <ele>8</ele>
        <time>2012-09-18T14:17:20Z</time>
      </trkpt>
      <trkpt lat="46.29244" lon="-0.69055">
        <ele>8</ele>
        <time>2012-09-18T14:17:25Z</time>
      </trkpt>
      <trkpt lat="46.29237" lon="-0.69054">
        <ele>8</ele>
        <time>2012-09-18T14:17:30Z</time>
      </trkpt>
      <trkpt lat="46.29233" lon="-0.69053">
        <ele>8</ele>
        <time>2012-09-18T14:17:35Z</time>
      </trkpt>
      <trkpt lat="46.29228" lon="-0.69054">
        <ele>8</ele>
        <time>2012-09-18T14:17:40Z</time>
      </trkpt>
      <trkpt lat="46.29221" lon="-0.69054">
        <ele>8</ele>
        <time>2012-09-18T14:17:45Z</time>
      </trkpt>
      <trkpt lat="46.29216" lon="-0.69053">
        <ele>8</ele>
        <time>2012-09-18T14:17:50Z</time>
      </trkpt>
      <trkpt lat="46.2921" lon="-0.69052">
        <ele>8</ele>
        <time>2012-09-18T14:17:55Z</time>
      </trkpt>
      <trkpt lat="46.29205" lon="-0.69051">
        <ele>9</ele>
        <time>2012-09-18T14:18:00Z</time>
      </trkpt>
      <trkpt lat="46.29199" lon="-0.69049">
        <ele>9</ele>
        <time>2012-09-18T14:18:05Z</time>
      </trkpt>
      <trkpt lat="46.29194" lon="-0.69049">
        <ele>9</ele>
        <time>2012-09-18T14:18:10Z</time>
      </trkpt>
      <trkpt lat="46.29187" lon="-0.69049">
        <ele>9</ele>
        <time>2012-09-18T14:18:15Z</time>
      </trkpt>
      <trkpt lat="46.29181" lon="-0.69047">
        <ele>9</ele>
        <time>2012-09-18T14:18:20Z</time>
      </trkpt>
      <trkpt lat="46.29175" lon="-0.6905">
        <ele>9</ele>
        <time>2012-09-18T14:18:25Z</time>
      </trkpt>
      <trkpt lat="46.2917" lon="-0.6905">
        <ele>9</ele>
        <time>2012-09-18T14:18:30Z</time>
      </trkpt>
      <trkpt lat="46.29164" lon="-0.69049">
        <ele>9</ele>
        <time>2012-09-18T14:18:35Z</time>
      </trkpt>
      <trkpt lat="46.29159" lon="-0.69049">
        <ele>9</ele>
        <time>2012-09-18T14:18:40Z</time>
      </trkpt>
      <trkpt lat="46.29154" lon="-0.69047">
        <ele>9</ele>
        <time>2012-09-18T14:18:45Z</time>
      </trkpt>
      <trkpt lat="46.29147" lon="-0.69044">
        <ele>9</ele>
        <time>2012-09-18T14:18:50Z</time>
      </trkpt>
      <trkpt lat="46.29141" lon="-0.69043">
        <ele>9</ele>
        <time>2012-09-18T14:18:55Z</time>
      </trkpt>
      <trkpt lat="46.29135" lon="-0.69042">
        <ele>9</ele>
        <time>2012-09-18T14:19:00Z</time>
      </trkpt>
      <trkpt lat="46.29128" lon="-0.69044">
        <ele>9</ele>
        <time>2012-09-18T14:19:05Z</time>
      </trkpt>
      <trkpt lat="46.29125" lon="-0.69047">
        <ele>9</ele>
        <time>2012-09-18T14:19:10Z</time>
      </trkpt>
      <trkpt lat="46.2912" lon="-0.69046">
        <ele>9</ele>
        <time>2012-09-18T14:19:15Z</time>
      </trkpt>
      <trkpt lat="46.29113" lon="-0.69049">
        <ele>9</ele>
        <time>2012-09-18T14:19:20Z</time>
      </trkpt>
      <trkpt lat="46.29108" lon="-0.69051">
        <ele>9</ele>
        <time>2012-09-18T14:19:25Z</time>
      </trkpt>
      <trkpt lat="46.29102" lon="-0.6905">
        <ele>9</ele>
        <time>2012-09-18T14:19:30Z</time>
      </trkpt>
      <trkpt lat="46.29097" lon="-0.69049">
        <ele>9</ele>
        <time>2012-09-18T14:19:35Z</time>
      </trkpt>
      <trkpt lat="46.29091" lon="-0.69049">
        <ele>9</ele>
        <time>2012-09-18T14:19:40Z</time>
      </trkpt>
      <trkpt lat="46.29088" lon="-0.69052">
        <ele>9</ele>
        <time>2012-09-18T14:19:45Z</time>
      </trkpt>
      <trkpt lat="46.29081" lon="-0.69053">
        <ele>9</ele>
        <time>2012-09-18T14:19:50Z</time>
      </trkpt>
      <trkpt lat="46.29073" lon="-0.69054">
        <ele>9</ele>
        <time>2012-09-18T14:19:55Z</time>
      </trkpt>
      <trkpt lat="46.2907" lon="-0.69057">
        <ele>9</ele>
        <time>2012-09-18T14:20:00Z</time>
      </trkpt>
      <trkpt lat="46.29066" lon="-0.69058">
        <ele>9</ele>
        <time>2012-09-18T14:20:05Z</time>
      </trkpt>
      <trkpt lat="46.2906" lon="-0.69059">
        <ele>9</ele>
        <time>2012-09-18T14:20:10Z</time>
      </trkpt>
      <trkpt lat="46.29056" lon="-0.69063">
        <ele>9</ele>
        <time>2012-09-18T14:20:15Z</time>
      </trkpt>
      <trkpt lat="46.29057" lon="-0.69067">
        <ele>9</ele>
        <time>2012-09-18T14:20:20Z</time>
      </trkpt>
      <trkpt lat="46.29054" lon="-0.69071">
        <ele>9</ele>
        <time>2012-09-18T14:20:25Z</time>
      </trkpt>
      <trkpt lat="46.29053" lon="-0.69079">
        <ele>9</ele>
        <time>2012-09-18T14:20:30Z</time>
      </trkpt>
      <trkpt lat="46.29051" lon="-0.69087">
        <ele>9</ele>
        <time>2012-09-18T14:20:35Z</time>
      </trkpt>
      <trkpt lat="46.29048" lon="-0.69096">
        <ele>9</ele>
        <time>2012-09-18T14:20:40Z</time>
      </trkpt>
      <trkpt lat="46.29047" lon="-0.69105">
        <ele>9</ele>
        <time>2012-09-18T14:20:45Z</time>
      </trkpt>
      <trkpt lat="46.29047" lon="-0.69112">
        <ele>9</ele>
        <time>2012-09-18T14:20:50Z</time>
      </trkpt>
      <trkpt lat="46.29048" lon="-0.6912">
        <ele>9</ele>
        <time>2012-09-18T14:20:55Z</time>
      </trkpt>
      <trkpt lat="46.29048" lon="-0.69126">
        <ele>8</ele>
        <time>2012-09-18T14:21:00Z</time>
      </trkpt>
      <trkpt lat="46.29046" lon="-0.69134">
        <ele>8</ele>
        <time>2012-09-18T14:21:05Z</time>
      </trkpt>
      <trkpt lat="46.29045" lon="-0.69141">
        <ele>8</ele>
        <time>2012-09-18T14:21:10Z</time>
      </trkpt>
      <trkpt lat="46.29043" lon="-0.69147">
        <ele>8</ele>
        <time>2012-09-18T14:21:15Z</time>
      </trkpt>
      <trkpt lat="46.29039" lon="-0.69155">
        <ele>5</ele>
        <time>2012-09-18T14:21:20Z</time>
      </trkpt>
      <trkpt lat="46.29038" lon="-0.69164">
        <ele>5</ele>
        <time>2012-09-18T14:21:25Z</time>
      </trkpt>
      <trkpt lat="46.29036" lon="-0.69173">
        <ele>5</ele>
        <time>2012-09-18T14:21:30Z</time>
      </trkpt>
      <trkpt lat="46.29034" lon="-0.69182">
        <ele>5</ele>
        <time>2012-09-18T14:21:35Z</time>
      </trkpt>
      <trkpt lat="46.29031" lon="-0.6919">
        <ele>5</ele>
        <time>2012-09-18T14:21:40Z</time>
      </trkpt>
      <trkpt lat="46.29029" lon="-0.69198">
        <ele>5</ele>
        <time>2012-09-18T14:21:45Z</time>
      </trkpt>
      <trkpt lat="46.29027" lon="-0.69205">
        <ele>5</ele>
        <time>2012-09-18T14:21:50Z</time>
      </trkpt>
      <trkpt lat="46.29023" lon="-0.69212">
        <ele>6</ele>
        <time>2012-09-18T14:21:55Z</time>
      </trkpt>
      <trkpt lat="46.2902" lon="-0.69219">
        <ele>6</ele>
        <time>2012-09-18T14:22:00Z</time>
      </trkpt>
      <trkpt lat="46.29017" lon="-0.69228">
        <ele>6</ele>
        <time>2012-09-18T14:22:05Z</time>
      </trkpt>
      <trkpt lat="46.29015" lon="-0.69236">
        <ele>6</ele>
        <time>2012-09-18T14:22:10Z</time>
      </trkpt>
      <trkpt lat="46.29011" lon="-0.69243">
        <ele>6</ele>
        <time>2012-09-18T14:22:15Z</time>
      </trkpt>
      <trkpt lat="46.29008" lon="-0.6925">
        <ele>6</ele>
        <time>2012-09-18T14:22:20Z</time>
      </trkpt>
      <trkpt lat="46.29006" lon="-0.69256">
        <ele>6</ele>
        <time>2012-09-18T14:22:25Z</time>
      </trkpt>
      <trkpt lat="46.29002" lon="-0.69264">
        <ele>6</ele>
        <time>2012-09-18T14:22:30Z</time>
      </trkpt>
      <trkpt lat="46.28998" lon="-0.69272">
        <ele>6</ele>
        <time>2012-09-18T14:22:35Z</time>
      </trkpt>
      <trkpt lat="46.28994" lon="-0.69278">
        <ele>6</ele>
        <time>2012-09-18T14:22:40Z</time>
      </trkpt>
      <trkpt lat="46.28991" lon="-0.69286">
        <ele>6</ele>
        <time>2012-09-18T14:22:45Z</time>
      </trkpt>
      <trkpt lat="46.28988" lon="-0.69294">
        <ele>5</ele>
        <time>2012-09-18T14:22:50Z</time>
      </trkpt>
      <trkpt lat="46.28984" lon="-0.69301">
        <ele>5</ele>
        <time>2012-09-18T14:22:55Z</time>
      </trkpt>
      <trkpt lat="46.28979" lon="-0.69308">
        <ele>5</ele>
        <time>2012-09-18T14:23:00Z</time>
      </trkpt>
      <trkpt lat="46.28975" lon="-0.69316">
        <ele>5</ele>
        <time>2012-09-18T14:23:05Z</time>
      </trkpt>
      <trkpt lat="46.2897" lon="-0.69322">
        <ele>5</ele>
        <time>2012-09-18T14:23:10Z</time>
      </trkpt>
      <trkpt lat="46.28967" lon="-0.69329">
        <ele>5</ele>
        <time>2012-09-18T14:23:15Z</time>
      </trkpt>
      <trkpt lat="46.28961" lon="-0.69336">
        <ele>5</ele>
        <time>2012-09-18T14:23:20Z</time>
      </trkpt>
      <trkpt lat="46.28956" lon="-0.6934">
        <ele>5</ele>
        <time>2012-09-18T14:23:25Z</time>
      </trkpt>
      <trkpt lat="46.28953" lon="-0.69345">
        <ele>5</ele>
        <time>2012-09-18T14:23:30Z</time>
      </trkpt>
      <trkpt lat="46.28948" lon="-0.6935">
        <ele>5</ele>
        <time>2012-09-18T14:23:35Z</time>
      </trkpt>
      <trkpt lat="46.28944" lon="-0.69357">
        <ele>5</ele>
        <time>2012-09-18T14:23:40Z</time>
      </trkpt>
      <trkpt lat="46.28939" lon="-0.69362">
        <ele>5</ele>
        <time>2012-09-18T14:23:45Z</time>
      </trkpt>
      <trkpt lat="46.28933" lon="-0.69366">
        <ele>5</ele>
        <time>2012-09-18T14:23:50Z</time>
      </trkpt>
      <trkpt lat="46.28928" lon="-0.69369">
        <ele>5</ele>
        <time>2012-09-18T14:23:55Z</time>
      </trkpt>
      <trkpt lat="46.28925" lon="-0.69375">
        <ele>3</ele>
        <time>2012-09-18T14:24:00Z</time>
      </trkpt>
      <trkpt lat="46.28919" lon="-0.69381">
        <ele>3</ele>
        <time>2012-09-18T14:24:05Z</time>
      </trkpt>
      <trkpt lat="46.28912" lon="-0.69385">
        <ele>3</ele>
        <time>2012-09-18T14:24:10Z</time>
      </trkpt>
      <trkpt lat="46.28908" lon="-0.69389">
        <ele>3</ele>
        <time>2012-09-18T14:24:15Z</time>
      </trkpt>
      <trkpt lat="46.28902" lon="-0.69394">
        <ele>3</ele>
        <time>2012-09-18T14:24:20Z</time>
      </trkpt>
      <trkpt lat="46.28896" lon="-0.69399">
        <ele>3</ele>
        <time>2012-09-18T14:24:25Z</time>
      </trkpt>
      <trkpt lat="46.2889" lon="-0.69402">
        <ele>3</ele>
        <time>2012-09-18T14:24:30Z</time>
      </trkpt>
      <trkpt lat="46.28886" lon="-0.69403">
        <ele>3</ele>
        <time>2012-09-18T14:24:35Z</time>
      </trkpt>
      <trkpt lat="46.28881" lon="-0.69407">
        <ele>3</ele>
        <time>2012-09-18T14:24:40Z</time>
      </trkpt>
      <trkpt lat="46.28876" lon="-0.69411">
        <ele>3</ele>
        <time>2012-09-18T14:24:45Z</time>
      </trkpt>
      <trkpt lat="46.28869" lon="-0.69414">
        <ele>6</ele>
        <time>2012-09-18T14:24:50Z</time>
      </trkpt>
      <trkpt lat="46.28865" lon="-0.69417">
        <ele>6</ele>
        <time>2012-09-18T14:24:55Z</time>
      </trkpt>
      <trkpt lat="46.28859" lon="-0.69421">
        <ele>6</ele>
        <time>2012-09-18T14:25:00Z</time>
      </trkpt>
      <trkpt lat="46.28855" lon="-0.69424">
        <ele>6</ele>
        <time>2012-09-18T14:25:05Z</time>
      </trkpt>
      <trkpt lat="46.28851" lon="-0.69428">
        <ele>6</ele>
        <time>2012-09-18T14:25:10Z</time>
      </trkpt>
      <trkpt lat="46.28847" lon="-0.6943">
        <ele>6</ele>
        <time>2012-09-18T14:25:15Z</time>
      </trkpt>
      <trkpt lat="46.28842" lon="-0.69433">
        <ele>6</ele>
        <time>2012-09-18T14:25:20Z</time>
      </trkpt>
      <trkpt lat="46.28838" lon="-0.69435">
        <ele>6</ele>
        <time>2012-09-18T14:25:25Z</time>
      </trkpt>
      <trkpt lat="46.28832" lon="-0.69439">
        <ele>6</ele>
        <time>2012-09-18T14:25:30Z</time>
      </trkpt>
      <trkpt lat="46.28826" lon="-0.69442">
        <ele>6</ele>
        <time>2012-09-18T14:25:35Z</time>
      </trkpt>
      <trkpt lat="46.28821" lon="-0.69446">
        <ele>6</ele>
        <time>2012-09-18T14:25:40Z</time>
      </trkpt>
      <trkpt lat="46.28816" lon="-0.69449">
        <ele>6</ele>
        <time>2012-09-18T14:25:45Z</time>
      </trkpt>
      <trkpt lat="46.28811" lon="-0.69452">
        <ele>6</ele>
        <time>2012-09-18T14:25:50Z</time>
      </trkpt>
      <trkpt lat="46.28807" lon="-0.69456">
        <ele>6</ele>
        <time>2012-09-18T14:25:55Z</time>
      </trkpt>
      <trkpt lat="46.28801" lon="-0.69458">
        <ele>6</ele>
        <time>2012-09-18T14:26:00Z</time>
      </trkpt>
      <trkpt lat="46.28797" lon="-0.69461">
        <ele>4</ele>
        <time>2012-09-18T14:26:05Z</time>
      </trkpt>
      <trkpt lat="46.28792" lon="-0.69465">
        <ele>7</ele>
        <time>2012-09-18T14:26:10Z</time>
      </trkpt>
      <trkpt lat="46.28786" lon="-0.69469">
        <ele>7</ele>
        <time>2012-09-18T14:26:15Z</time>
      </trkpt>
      <trkpt lat="46.28783" lon="-0.69476">
        <ele>7</ele>
        <time>2012-09-18T14:26:20Z</time>
      </trkpt>
      <trkpt lat="46.28777" lon="-0.69478">
        <ele>7</ele>
        <time>2012-09-18T14:26:25Z</time>
      </trkpt>
      <trkpt lat="46.28771" lon="-0.69479">
        <ele>7</ele>
        <time>2012-09-18T14:26:30Z</time>
      </trkpt>
      <trkpt lat="46.28766" lon="-0.69482">
        <ele>7</ele>
        <time>2012-09-18T14:26:35Z</time>
      </trkpt>
      <trkpt lat="46.28763" lon="-0.69486">
        <ele>7</ele>
        <time>2012-09-18T14:26:40Z</time>
      </trkpt>
      <trkpt lat="46.28758" lon="-0.69489">
        <ele>7</ele>
        <time>2012-09-18T14:26:45Z</time>
      </trkpt>
      <trkpt lat="46.28753" lon="-0.69493">
        <ele>7</ele>
        <time>2012-09-18T14:26:50Z</time>
      </trkpt>
      <trkpt lat="46.28748" lon="-0.69496">
        <ele>7</ele>
        <time>2012-09-18T14:26:55Z</time>
      </trkpt>
      <trkpt lat="46.28744" lon="-0.69499">
        <ele>7</ele>
        <time>2012-09-18T14:27:00Z</time>
      </trkpt>
      <trkpt lat="46.28738" lon="-0.69502">
        <ele>7</ele>
        <time>2012-09-18T14:27:05Z</time>
      </trkpt>
      <trkpt lat="46.28733" lon="-0.69507">
        <ele>7</ele>
        <time>2012-09-18T14:27:10Z</time>
      </trkpt>
      <trkpt lat="46.28728" lon="-0.6951">
        <ele>7</ele>
        <time>2012-09-18T14:27:15Z</time>
      </trkpt>
      <trkpt lat="46.28722" lon="-0.69512">
        <ele>7</ele>
        <time>2012-09-18T14:27:20Z</time>
      </trkpt>
      <trkpt lat="46.28717" lon="-0.69512">
        <ele>7</ele>
        <time>2012-09-18T14:27:25Z</time>
      </trkpt>
      <trkpt lat="46.28712" lon="-0.69517">
        <ele>7</ele>
        <time>2012-09-18T14:27:30Z</time>
      </trkpt>
      <trkpt lat="46.28708" lon="-0.6952">
        <ele>10</ele>
        <time>2012-09-18T14:27:35Z</time>
      </trkpt>
      <trkpt lat="46.28704" lon="-0.69524">
        <ele>10</ele>
        <time>2012-09-18T14:27:40Z</time>
      </trkpt>
      <trkpt lat="46.287" lon="-0.69527">
        <ele>10</ele>
        <time>2012-09-18T14:27:45Z</time>
      </trkpt>
      <trkpt lat="46.28695" lon="-0.69533">
        <ele>10</ele>
        <time>2012-09-18T14:27:50Z</time>
      </trkpt>
      <trkpt lat="46.28689" lon="-0.69535">
        <ele>10</ele>
        <time>2012-09-18T14:27:55Z</time>
      </trkpt>
      <trkpt lat="46.28684" lon="-0.69539">
        <ele>10</ele>
        <time>2012-09-18T14:28:00Z</time>
      </trkpt>
      <trkpt lat="46.28678" lon="-0.69542">
        <ele>10</ele>
        <time>2012-09-18T14:28:05Z</time>
      </trkpt>
      <trkpt lat="46.28674" lon="-0.69545">
        <ele>8</ele>
        <time>2012-09-18T14:28:10Z</time>
      </trkpt>
      <trkpt lat="46.28668" lon="-0.69547">
        <ele>8</ele>
        <time>2012-09-18T14:28:15Z</time>
      </trkpt>
      <trkpt lat="46.28662" lon="-0.6955">
        <ele>8</ele>
        <time>2012-09-18T14:28:20Z</time>
      </trkpt>
      <trkpt lat="46.28657" lon="-0.69553">
        <ele>8</ele>
        <time>2012-09-18T14:28:25Z</time>
      </trkpt>
      <trkpt lat="46.28652" lon="-0.69557">
        <ele>8</ele>
        <time>2012-09-18T14:28:30Z</time>
      </trkpt>
      <trkpt lat="46.28647" lon="-0.6956">
        <ele>8</ele>
        <time>2012-09-18T14:28:35Z</time>
      </trkpt>
      <trkpt lat="46.28642" lon="-0.69564">
        <ele>8</ele>
        <time>2012-09-18T14:28:40Z</time>
      </trkpt>
      <trkpt lat="46.28637" lon="-0.69568">
        <ele>8</ele>
        <time>2012-09-18T14:28:45Z</time>
      </trkpt>
      <trkpt lat="46.28631" lon="-0.69572">
        <ele>8</ele>
        <time>2012-09-18T14:28:50Z</time>
      </trkpt>
      <trkpt lat="46.28627" lon="-0.69574">
        <ele>8</ele>
        <time>2012-09-18T14:28:55Z</time>
      </trkpt>
      <trkpt lat="46.28622" lon="-0.69577">
        <ele>8</ele>
        <time>2012-09-18T14:29:00Z</time>
      </trkpt>
      <trkpt lat="46.28616" lon="-0.69581">
        <ele>8</ele>
        <time>2012-09-18T14:29:05Z</time>
      </trkpt>
      <trkpt lat="46.28611" lon="-0.69585">
        <ele>8</ele>
        <time>2012-09-18T14:29:10Z</time>
      </trkpt>
      <trkpt lat="46.28606" lon="-0.6959">
        <ele>8</ele>
        <time>2012-09-18T14:29:15Z</time>
      </trkpt>
      <trkpt lat="46.28601" lon="-0.69592">
        <ele>8</ele>
        <time>2012-09-18T14:29:20Z</time>
      </trkpt>
      <trkpt lat="46.28597" lon="-0.69595">
        <ele>8</ele>
        <time>2012-09-18T14:29:25Z</time>
      </trkpt>
      <trkpt lat="46.28592" lon="-0.69596">
        <ele>8</ele>
        <time>2012-09-18T14:29:30Z</time>
      </trkpt>
      <trkpt lat="46.28587" lon="-0.696">
        <ele>8</ele>
        <time>2012-09-18T14:29:35Z</time>
      </trkpt>
      <trkpt lat="46.28582" lon="-0.69604">
        <ele>8</ele>
        <time>2012-09-18T14:29:40Z</time>
      </trkpt>
      <trkpt lat="46.28576" lon="-0.69607">
        <ele>8</ele>
        <time>2012-09-18T14:29:45Z</time>
      </trkpt>
      <trkpt lat="46.28571" lon="-0.69611">
        <ele>8</ele>
        <time>2012-09-18T14:29:50Z</time>
      </trkpt>
      <trkpt lat="46.28567" lon="-0.69614">
        <ele>8</ele>
        <time>2012-09-18T14:29:55Z</time>
      </trkpt>
      <trkpt lat="46.28563" lon="-0.69616">
        <ele>8</ele>
        <time>2012-09-18T14:30:00Z</time>
      </trkpt>
      <trkpt lat="46.28557" lon="-0.6962">
        <ele>8</ele>
        <time>2012-09-18T14:30:05Z</time>
      </trkpt>
      <trkpt lat="46.28552" lon="-0.69624">
        <ele>8</ele>
        <time>2012-09-18T14:30:10Z</time>
      </trkpt>
      <trkpt lat="46.28546" lon="-0.69627">
        <ele>8</ele>
        <time>2012-09-18T14:30:15Z</time>
      </trkpt>
      <trkpt lat="46.28542" lon="-0.69631">
        <ele>8</ele>
        <time>2012-09-18T14:30:20Z</time>
      </trkpt>
      <trkpt lat="46.28536" lon="-0.69634">
        <ele>8</ele>
        <time>2012-09-18T14:30:25Z</time>
      </trkpt>
      <trkpt lat="46.28531" lon="-0.69638">
        <ele>8</ele>
        <time>2012-09-18T14:30:30Z</time>
      </trkpt>
      <trkpt lat="46.28526" lon="-0.6964">
        <ele>8</ele>
        <time>2012-09-18T14:30:35Z</time>
      </trkpt>
      <trkpt lat="46.28521" lon="-0.69643">
        <ele>8</ele>
        <time>2012-09-18T14:30:40Z</time>
      </trkpt>
      <trkpt lat="46.28515" lon="-0.69646">
        <ele>8</ele>
        <time>2012-09-18T14:30:45Z</time>
      </trkpt>
      <trkpt lat="46.28511" lon="-0.69651">
        <ele>8</ele>
        <time>2012-09-18T14:30:50Z</time>
      </trkpt>
      <trkpt lat="46.28505" lon="-0.69654">
        <ele>8</ele>
        <time>2012-09-18T14:30:55Z</time>
      </trkpt>
      <trkpt lat="46.285" lon="-0.69657">
        <ele>8</ele>
        <time>2012-09-18T14:31:00Z</time>
      </trkpt>
      <trkpt lat="46.28496" lon="-0.6966">
        <ele>8</ele>
        <time>2012-09-18T14:31:05Z</time>
      </trkpt>
      <trkpt lat="46.28491" lon="-0.69664">
        <ele>8</ele>
        <time>2012-09-18T14:31:10Z</time>
      </trkpt>
      <trkpt lat="46.28485" lon="-0.69668">
        <ele>8</ele>
        <time>2012-09-18T14:31:15Z</time>
      </trkpt>
      <trkpt lat="46.28482" lon="-0.6967">
        <ele>8</ele>
        <time>2012-09-18T14:31:20Z</time>
      </trkpt>
      <trkpt lat="46.28483" lon="-0.69675">
        <ele>8</ele>
        <time>2012-09-18T14:31:25Z</time>
      </trkpt>
      <trkpt lat="46.28481" lon="-0.69683">
        <ele>8</ele>
        <time>2012-09-18T14:31:30Z</time>
      </trkpt>
      <trkpt lat="46.2848" lon="-0.69692">
        <ele>8</ele>
        <time>2012-09-18T14:31:35Z</time>
      </trkpt>
      <trkpt lat="46.28478" lon="-0.69699">
        <ele>8</ele>
        <time>2012-09-18T14:31:40Z</time>
      </trkpt>
      <trkpt lat="46.28476" lon="-0.69708">
        <ele>7</ele>
        <time>2012-09-18T14:31:45Z</time>
      </trkpt>
      <trkpt lat="46.28475" lon="-0.69717">
        <ele>7</ele>
        <time>2012-09-18T14:31:50Z</time>
      </trkpt>
      <trkpt lat="46.28474" lon="-0.69724">
        <ele>7</ele>
        <time>2012-09-18T14:31:55Z</time>
      </trkpt>
      <trkpt lat="46.28471" lon="-0.69733">
        <ele>7</ele>
        <time>2012-09-18T14:32:00Z</time>
      </trkpt>
      <trkpt lat="46.28471" lon="-0.6974">
        <ele>7</ele>
        <time>2012-09-18T14:32:05Z</time>
      </trkpt>
      <trkpt lat="46.2847" lon="-0.69748">
        <ele>7</ele>
        <time>2012-09-18T14:32:10Z</time>
      </trkpt>
      <trkpt lat="46.28468" lon="-0.69756">
        <ele>7</ele>
        <time>2012-09-18T14:32:15Z</time>
      </trkpt>
      <trkpt lat="46.28468" lon="-0.69764">
        <ele>7</ele>
        <time>2012-09-18T14:32:20Z</time>
      </trkpt>
      <trkpt lat="46.28465" lon="-0.69772">
        <ele>7</ele>
        <time>2012-09-18T14:32:25Z</time>
      </trkpt>
      <trkpt lat="46.28465" lon="-0.6978">
        <ele>7</ele>
        <time>2012-09-18T14:32:30Z</time>
      </trkpt>
      <trkpt lat="46.28463" lon="-0.69788">
        <ele>7</ele>
        <time>2012-09-18T14:32:35Z</time>
      </trkpt>
      <trkpt lat="46.28462" lon="-0.69796">
        <ele>6</ele>
        <time>2012-09-18T14:32:40Z</time>
      </trkpt>
      <trkpt lat="46.28461" lon="-0.69803">
        <ele>6</ele>
        <time>2012-09-18T14:32:45Z</time>
      </trkpt>
      <trkpt lat="46.2846" lon="-0.6981">
        <ele>6</ele>
        <time>2012-09-18T14:32:50Z</time>
      </trkpt>
      <trkpt lat="46.28457" lon="-0.69818">
        <ele>9</ele>
        <time>2012-09-18T14:32:55Z</time>
      </trkpt>
      <trkpt lat="46.28456" lon="-0.69826">
        <ele>9</ele>
        <time>2012-09-18T14:33:00Z</time>
      </trkpt>
      <trkpt lat="46.28454" lon="-0.6983">
        <ele>9</ele>
        <time>2012-09-18T14:33:05Z</time>
      </trkpt>
      <trkpt lat="46.28455" lon="-0.69836">
        <ele>9</ele>
        <time>2012-09-18T14:33:10Z</time>
      </trkpt>
      <trkpt lat="46.28457" lon="-0.69842">
        <ele>9</ele>
        <time>2012-09-18T14:33:15Z</time>
      </trkpt>
      <trkpt lat="46.28461" lon="-0.69847">
        <ele>6</ele>
        <time>2012-09-18T14:33:20Z</time>
      </trkpt>
      <trkpt lat="46.28464" lon="-0.69853">
        <ele>6</ele>
        <time>2012-09-18T14:33:25Z</time>
      </trkpt>
      <trkpt lat="46.28468" lon="-0.69857">
        <ele>6</ele>
        <time>2012-09-18T14:33:30Z</time>
      </trkpt>
      <trkpt lat="46.28468" lon="-0.69858">
        <ele>6</ele>
        <time>2012-09-18T14:33:35Z</time>
      </trkpt>
      <trkpt lat="46.28471" lon="-0.69864">
        <ele>6</ele>
        <time>2012-09-18T14:33:40Z</time>
      </trkpt>
      <trkpt lat="46.28475" lon="-0.69874">
        <ele>6</ele>
        <time>2012-09-18T14:33:45Z</time>
      </trkpt>
      <trkpt lat="46.28478" lon="-0.69879">
        <ele>7</ele>
        <time>2012-09-18T14:33:50Z</time>
      </trkpt>
      <trkpt lat="46.28479" lon="-0.69887">
        <ele>7</ele>
        <time>2012-09-18T14:33:55Z</time>
      </trkpt>
      <trkpt lat="46.28481" lon="-0.69896">
        <ele>7</ele>
        <time>2012-09-18T14:34:00Z</time>
      </trkpt>
      <trkpt lat="46.28483" lon="-0.69904">
        <ele>7</ele>
        <time>2012-09-18T14:34:05Z</time>
      </trkpt>
      <trkpt lat="46.28484" lon="-0.69912">
        <ele>7</ele>
        <time>2012-09-18T14:34:10Z</time>
      </trkpt>
      <trkpt lat="46.28486" lon="-0.6992">
        <ele>7</ele>
        <time>2012-09-18T14:34:15Z</time>
      </trkpt>
      <trkpt lat="46.28487" lon="-0.69927">
        <ele>7</ele>
        <time>2012-09-18T14:34:20Z</time>
      </trkpt>
      <trkpt lat="46.28488" lon="-0.69935">
        <ele>7</ele>
        <time>2012-09-18T14:34:25Z</time>
      </trkpt>
      <trkpt lat="46.28488" lon="-0.69944">
        <ele>7</ele>
        <time>2012-09-18T14:34:30Z</time>
      </trkpt>
      <trkpt lat="46.28489" lon="-0.69952">
        <ele>7</ele>
        <time>2012-09-18T14:34:35Z</time>
      </trkpt>
      <trkpt lat="46.28488" lon="-0.6996">
        <ele>7</ele>
        <time>2012-09-18T14:34:40Z</time>
      </trkpt>
      <trkpt lat="46.28487" lon="-0.69968">
        <ele>7</ele>
        <time>2012-09-18T14:34:45Z</time>
      </trkpt>
      <trkpt lat="46.28488" lon="-0.69976">
        <ele>7</ele>
        <time>2012-09-18T14:34:50Z</time>
      </trkpt>
      <trkpt lat="46.28489" lon="-0.69985">
        <ele>7</ele>
        <time>2012-09-18T14:34:55Z</time>
      </trkpt>
      <trkpt lat="46.28489" lon="-0.69992">
        <ele>7</ele>
        <time>2012-09-18T14:35:00Z</time>
      </trkpt>
      <trkpt lat="46.28489" lon="-0.69999">
        <ele>7</ele>
        <time>2012-09-18T14:35:05Z</time>
      </trkpt>
      <trkpt lat="46.28487" lon="-0.70007">
        <ele>7</ele>
        <time>2012-09-18T14:35:10Z</time>
      </trkpt>
      <trkpt lat="46.28486" lon="-0.70014">
        <ele>7</ele>
        <time>2012-09-18T14:35:15Z</time>
      </trkpt>
      <trkpt lat="46.28485" lon="-0.70022">
        <ele>7</ele>
        <time>2012-09-18T14:35:20Z</time>
      </trkpt>
      <trkpt lat="46.28485" lon="-0.7003">
        <ele>7</ele>
        <time>2012-09-18T14:35:25Z</time>
      </trkpt>
      <trkpt lat="46.28484" lon="-0.70039">
        <ele>7</ele>
        <time>2012-09-18T14:35:30Z</time>
      </trkpt>
      <trkpt lat="46.28483" lon="-0.70046">
        <ele>6</ele>
        <time>2012-09-18T14:35:35Z</time>
      </trkpt>
      <trkpt lat="46.28483" lon="-0.70054">
        <ele>6</ele>
        <time>2012-09-18T14:35:40Z</time>
      </trkpt>
      <trkpt lat="46.28482" lon="-0.70062">
        <ele>6</ele>
        <time>2012-09-18T14:35:45Z</time>
      </trkpt>
      <trkpt lat="46.28481" lon="-0.70069">
        <ele>6</ele>
        <time>2012-09-18T14:35:50Z</time>
      </trkpt>
      <trkpt lat="46.2848" lon="-0.70077">
        <ele>6</ele>
        <time>2012-09-18T14:35:55Z</time>
      </trkpt>
      <trkpt lat="46.2848" lon="-0.70084">
        <ele>6</ele>
        <time>2012-09-18T14:36:00Z</time>
      </trkpt>
      <trkpt lat="46.2848" lon="-0.70091">
        <ele>6</ele>
        <time>2012-09-18T14:36:05Z</time>
      </trkpt>
      <trkpt lat="46.28479" lon="-0.70099">
        <ele>6</ele>
        <time>2012-09-18T14:36:10Z</time>
      </trkpt>
      <trkpt lat="46.28477" lon="-0.70106">
        <ele>6</ele>
        <time>2012-09-18T14:36:15Z</time>
      </trkpt>
      <trkpt lat="46.28475" lon="-0.70113">
        <ele>6</ele>
        <time>2012-09-18T14:36:20Z</time>
      </trkpt>
      <trkpt lat="46.28472" lon="-0.70121">
        <ele>6</ele>
        <time>2012-09-18T14:36:25Z</time>
      </trkpt>
      <trkpt lat="46.2847" lon="-0.70127">
        <ele>8</ele>
        <time>2012-09-18T14:36:30Z</time>
      </trkpt>
      <trkpt lat="46.28467" lon="-0.70134">
        <ele>8</ele>
        <time>2012-09-18T14:36:35Z</time>
      </trkpt>
      <trkpt lat="46.28463" lon="-0.70141">
        <ele>8</ele>
        <time>2012-09-18T14:36:40Z</time>
      </trkpt>
      <trkpt lat="46.28461" lon="-0.70148">
        <ele>8</ele>
        <time>2012-09-18T14:36:45Z</time>
      </trkpt>
      <trkpt lat="46.28458" lon="-0.70155">
        <ele>8</ele>
        <time>2012-09-18T14:36:50Z</time>
      </trkpt>
      <trkpt lat="46.28457" lon="-0.70161">
        <ele>10</ele>
        <time>2012-09-18T14:36:55Z</time>
      </trkpt>
      <trkpt lat="46.28454" lon="-0.70169">
        <ele>10</ele>
        <time>2012-09-18T14:37:00Z</time>
      </trkpt>
      <trkpt lat="46.2845" lon="-0.70177">
        <ele>10</ele>
        <time>2012-09-18T14:37:05Z</time>
      </trkpt>
      <trkpt lat="46.28448" lon="-0.70184">
        <ele>10</ele>
        <time>2012-09-18T14:37:10Z</time>
      </trkpt>
      <trkpt lat="46.28445" lon="-0.7019">
        <ele>10</ele>
        <time>2012-09-18T14:37:15Z</time>
      </trkpt>
      <trkpt lat="46.28443" lon="-0.70198">
        <ele>10</ele>
        <time>2012-09-18T14:37:20Z</time>
      </trkpt>
      <trkpt lat="46.28441" lon="-0.70204">
        <ele>10</ele>
        <time>2012-09-18T14:37:25Z</time>
      </trkpt>
      <trkpt lat="46.28439" lon="-0.70212">
        <ele>8</ele>
        <time>2012-09-18T14:37:30Z</time>
      </trkpt>
      <trkpt lat="46.28437" lon="-0.70219">
        <ele>8</ele>
        <time>2012-09-18T14:37:35Z</time>
      </trkpt>
      <trkpt lat="46.28434" lon="-0.70227">
        <ele>8</ele>
        <time>2012-09-18T14:37:40Z</time>
      </trkpt>
      <trkpt lat="46.28432" lon="-0.70233">
        <ele>8</ele>
        <time>2012-09-18T14:37:45Z</time>
      </trkpt>
      <trkpt lat="46.28429" lon="-0.70241">
        <ele>8</ele>
        <time>2012-09-18T14:37:50Z</time>
      </trkpt>
      <trkpt lat="46.28426" lon="-0.70248">
        <ele>8</ele>
        <time>2012-09-18T14:37:55Z</time>
      </trkpt>
      <trkpt lat="46.28423" lon="-0.70254">
        <ele>8</ele>
        <time>2012-09-18T14:38:00Z</time>
      </trkpt>
      <trkpt lat="46.2842" lon="-0.70261">
        <ele>8</ele>
        <time>2012-09-18T14:38:05Z</time>
      </trkpt>
      <trkpt lat="46.28417" lon="-0.70268">
        <ele>8</ele>
        <time>2012-09-18T14:38:10Z</time>
      </trkpt>
      <trkpt lat="46.28415" lon="-0.70275">
        <ele>8</ele>
        <time>2012-09-18T14:38:15Z</time>
      </trkpt>
      <trkpt lat="46.28412" lon="-0.70282">
        <ele>8</ele>
        <time>2012-09-18T14:38:20Z</time>
      </trkpt>
      <trkpt lat="46.28409" lon="-0.7029">
        <ele>8</ele>
        <time>2012-09-18T14:38:25Z</time>
      </trkpt>
      <trkpt lat="46.28405" lon="-0.70297">
        <ele>8</ele>
        <time>2012-09-18T14:38:30Z</time>
      </trkpt>
      <trkpt lat="46.28403" lon="-0.70305">
        <ele>8</ele>
        <time>2012-09-18T14:38:35Z</time>
      </trkpt>
      <trkpt lat="46.284" lon="-0.70312">
        <ele>8</ele>
        <time>2012-09-18T14:38:40Z</time>
      </trkpt>
      <trkpt lat="46.28398" lon="-0.70319">
        <ele>8</ele>
        <time>2012-09-18T14:38:45Z</time>
      </trkpt>
      <trkpt lat="46.28395" lon="-0.70326">
        <ele>8</ele>
        <time>2012-09-18T14:38:50Z</time>
      </trkpt>
      <trkpt lat="46.28392" lon="-0.70333">
        <ele>8</ele>
        <time>2012-09-18T14:38:55Z</time>
      </trkpt>
      <trkpt lat="46.2839" lon="-0.7034">
        <ele>8</ele>
        <time>2012-09-18T14:39:00Z</time>
      </trkpt>
      <trkpt lat="46.28388" lon="-0.70348">
        <ele>8</ele>
        <time>2012-09-18T14:39:05Z</time>
      </trkpt>
      <trkpt lat="46.28386" lon="-0.70355">
        <ele>8</ele>
        <time>2012-09-18T14:39:10Z</time>
      </trkpt>
      <trkpt lat="46.28384" lon="-0.70363">
        <ele>8</ele>
        <time>2012-09-18T14:39:15Z</time>
      </trkpt>
      <trkpt lat="46.28382" lon="-0.70369">
        <ele>8</ele>
        <time>2012-09-18T14:39:20Z</time>
      </trkpt>
      <trkpt lat="46.28381" lon="-0.70371">
        <ele>8</ele>
        <time>2012-09-18T14:39:25Z</time>
      </trkpt>
      <trkpt lat="46.2838" lon="-0.70375">
        <ele>6</ele>
        <time>2012-09-18T14:39:30Z</time>
      </trkpt>
      <trkpt lat="46.2838" lon="-0.70375">
        <ele>8</ele>
        <time>2012-09-18T14:39:35Z</time>
      </trkpt>
      <trkpt lat="46.2838" lon="-0.70375">
        <ele>8</ele>
        <time>2012-09-18T14:39:40Z</time>
      </trkpt>
      <trkpt lat="46.28377" lon="-0.70382">
        <ele>6</ele>
        <time>2012-09-18T14:39:45Z</time>
      </trkpt>
      <trkpt lat="46.28375" lon="-0.70391">
        <ele>7</ele>
        <time>2012-09-18T14:39:50Z</time>
      </trkpt>
      <trkpt lat="46.28372" lon="-0.70397">
        <ele>7</ele>
        <time>2012-09-18T14:39:55Z</time>
      </trkpt>
      <trkpt lat="46.2837" lon="-0.70405">
        <ele>7</ele>
        <time>2012-09-18T14:40:00Z</time>
      </trkpt>
      <trkpt lat="46.28367" lon="-0.70413">
        <ele>7</ele>
        <time>2012-09-18T14:40:05Z</time>
      </trkpt>
      <trkpt lat="46.28364" lon="-0.70419">
        <ele>7</ele>
        <time>2012-09-18T14:40:10Z</time>
      </trkpt>
      <trkpt lat="46.28361" lon="-0.70426">
        <ele>7</ele>
        <time>2012-09-18T14:40:15Z</time>
      </trkpt>
      <trkpt lat="46.28358" lon="-0.7043">
        <ele>7</ele>
        <time>2012-09-18T14:40:20Z</time>
      </trkpt>
      <trkpt lat="46.28355" lon="-0.70438">
        <ele>7</ele>
        <time>2012-09-18T14:40:25Z</time>
      </trkpt>
      <trkpt lat="46.28352" lon="-0.70445">
        <ele>7</ele>
        <time>2012-09-18T14:40:30Z</time>
      </trkpt>
      <trkpt lat="46.28349" lon="-0.70452">
        <ele>7</ele>
        <time>2012-09-18T14:40:35Z</time>
      </trkpt>
      <trkpt lat="46.28347" lon="-0.70459">
        <ele>6</ele>
        <time>2012-09-18T14:40:40Z</time>
      </trkpt>
      <trkpt lat="46.28343" lon="-0.70466">
        <ele>6</ele>
        <time>2012-09-18T14:40:45Z</time>
      </trkpt>
      <trkpt lat="46.2834" lon="-0.70473">
        <ele>6</ele>
        <time>2012-09-18T14:40:50Z</time>
      </trkpt>
      <trkpt lat="46.28337" lon="-0.7048">
        <ele>6</ele>
        <time>2012-09-18T14:40:55Z</time>
      </trkpt>
      <trkpt lat="46.28334" lon="-0.70488">
        <ele>6</ele>
        <time>2012-09-18T14:41:00Z</time>
      </trkpt>
      <trkpt lat="46.2833" lon="-0.70493">
        <ele>6</ele>
        <time>2012-09-18T14:41:05Z</time>
      </trkpt>
      <trkpt lat="46.28325" lon="-0.70497">
        <ele>6</ele>
        <time>2012-09-18T14:41:10Z</time>
      </trkpt>
      <trkpt lat="46.2832" lon="-0.70502">
        <ele>6</ele>
        <time>2012-09-18T14:41:15Z</time>
      </trkpt>
      <trkpt lat="46.28316" lon="-0.70506">
        <ele>6</ele>
        <time>2012-09-18T14:41:20Z</time>
      </trkpt>
      <trkpt lat="46.28312" lon="-0.70511">
        <ele>6</ele>
        <time>2012-09-18T14:41:25Z</time>
      </trkpt>
      <trkpt lat="46.28307" lon="-0.70518">
        <ele>6</ele>
        <time>2012-09-18T14:41:30Z</time>
      </trkpt>
      <trkpt lat="46.28302" lon="-0.70522">
        <ele>6</ele>
        <time>2012-09-18T14:41:35Z</time>
      </trkpt>
      <trkpt lat="46.28298" lon="-0.70527">
        <ele>6</ele>
        <time>2012-09-18T14:41:40Z</time>
      </trkpt>
      <trkpt lat="46.28295" lon="-0.70534">
        <ele>6</ele>
        <time>2012-09-18T14:41:45Z</time>
      </trkpt>
      <trkpt lat="46.28292" lon="-0.70539">
        <ele>6</ele>
        <time>2012-09-18T14:41:50Z</time>
      </trkpt>
      <trkpt lat="46.2829" lon="-0.70545">
        <ele>7</ele>
        <time>2012-09-18T14:41:55Z</time>
      </trkpt>
      <trkpt lat="46.28288" lon="-0.70552">
        <ele>7</ele>
        <time>2012-09-18T14:42:00Z</time>
      </trkpt>
      <trkpt lat="46.28286" lon="-0.7056">
        <ele>7</ele>
        <time>2012-09-18T14:42:05Z</time>
      </trkpt>
      <trkpt lat="46.28284" lon="-0.70568">
        <ele>7</ele>
        <time>2012-09-18T14:42:10Z</time>
      </trkpt>
      <trkpt lat="46.28281" lon="-0.70575">
        <ele>7</ele>
        <time>2012-09-18T14:42:15Z</time>
      </trkpt>
      <trkpt lat="46.28279" lon="-0.70584">
        <ele>7</ele>
        <time>2012-09-18T14:42:20Z</time>
      </trkpt>
      <trkpt lat="46.28277" lon="-0.70591">
        <ele>7</ele>
        <time>2012-09-18T14:42:25Z</time>
      </trkpt>
      <trkpt lat="46.28275" lon="-0.70598">
        <ele>7</ele>
        <time>2012-09-18T14:42:30Z</time>
      </trkpt>
      <trkpt lat="46.28272" lon="-0.70606">
        <ele>7</ele>
        <time>2012-09-18T14:42:35Z</time>
      </trkpt>
      <trkpt lat="46.2827" lon="-0.70613">
        <ele>7</ele>
        <time>2012-09-18T14:42:40Z</time>
      </trkpt>
      <trkpt lat="46.28268" lon="-0.70621">
        <ele>7</ele>
        <time>2012-09-18T14:42:45Z</time>
      </trkpt>
      <trkpt lat="46.28265" lon="-0.70629">
        <ele>8</ele>
        <time>2012-09-18T14:42:50Z</time>
      </trkpt>
      <trkpt lat="46.28264" lon="-0.70637">
        <ele>8</ele>
        <time>2012-09-18T14:42:55Z</time>
      </trkpt>
      <trkpt lat="46.28261" lon="-0.70643">
        <ele>8</ele>
        <time>2012-09-18T14:43:00Z</time>
      </trkpt>
      <trkpt lat="46.28261" lon="-0.70651">
        <ele>8</ele>
        <time>2012-09-18T14:43:05Z</time>
      </trkpt>
      <trkpt lat="46.28258" lon="-0.70657">
        <ele>8</ele>
        <time>2012-09-18T14:43:10Z</time>
      </trkpt>
      <trkpt lat="46.28257" lon="-0.70661">
        <ele>8</ele>
        <time>2012-09-18T14:43:15Z</time>
      </trkpt>
      <trkpt lat="46.28257" lon="-0.70662">
        <ele>8</ele>
        <time>2012-09-18T14:43:20Z</time>
      </trkpt>
      <trkpt lat="46.28256" lon="-0.70664">
        <ele>8</ele>
        <time>2012-09-18T14:43:25Z</time>
      </trkpt>
      <trkpt lat="46.28256" lon="-0.70666">
        <ele>8</ele>
        <time>2012-09-18T14:43:30Z</time>
      </trkpt>
      <trkpt lat="46.28256" lon="-0.70665">
        <ele>8</ele>
        <time>2012-09-18T14:43:35Z</time>
      </trkpt>
      <trkpt lat="46.28255" lon="-0.70667">
        <ele>8</ele>
        <time>2012-09-18T14:43:40Z</time>
      </trkpt>
      <trkpt lat="46.28255" lon="-0.70666">
        <ele>8</ele>
        <time>2012-09-18T14:43:45Z</time>
      </trkpt>
      <trkpt lat="46.28255" lon="-0.70667">
        <ele>8</ele>
        <time>2012-09-18T14:43:50Z</time>
      </trkpt>
      <trkpt lat="46.28253" lon="-0.7067">
        <ele>8</ele>
        <time>2012-09-18T14:43:55Z</time>
      </trkpt>
      <trkpt lat="46.28247" lon="-0.70674">
        <ele>8</ele>
        <time>2012-09-18T14:44:00Z</time>
      </trkpt>
      <trkpt lat="46.28244" lon="-0.70679">
        <ele>8</ele>
        <time>2012-09-18T14:44:05Z</time>
      </trkpt>
      <trkpt lat="46.28242" lon="-0.70685">
        <ele>8</ele>
        <time>2012-09-18T14:44:10Z</time>
      </trkpt>
      <trkpt lat="46.28238" lon="-0.70691">
        <ele>8</ele>
        <time>2012-09-18T14:44:15Z</time>
      </trkpt>
      <trkpt lat="46.28235" lon="-0.70698">
        <ele>8</ele>
        <time>2012-09-18T14:44:20Z</time>
      </trkpt>
      <trkpt lat="46.28228" lon="-0.70701">
        <ele>8</ele>
        <time>2012-09-18T14:44:25Z</time>
      </trkpt>
      <trkpt lat="46.28224" lon="-0.70707">
        <ele>8</ele>
        <time>2012-09-18T14:44:30Z</time>
      </trkpt>
      <trkpt lat="46.28221" lon="-0.70713">
        <ele>7</ele>
        <time>2012-09-18T14:44:35Z</time>
      </trkpt>
      <trkpt lat="46.28218" lon="-0.70717">
        <ele>7</ele>
        <time>2012-09-18T14:44:40Z</time>
      </trkpt>
      <trkpt lat="46.28214" lon="-0.70725">
        <ele>7</ele>
        <time>2012-09-18T14:44:45Z</time>
      </trkpt>
      <trkpt lat="46.2821" lon="-0.70731">
        <ele>7</ele>
        <time>2012-09-18T14:44:50Z</time>
      </trkpt>
      <trkpt lat="46.28205" lon="-0.70736">
        <ele>6</ele>
        <time>2012-09-18T14:44:55Z</time>
      </trkpt>
      <trkpt lat="46.28202" lon="-0.70742">
        <ele>6</ele>
        <time>2012-09-18T14:45:00Z</time>
      </trkpt>
      <trkpt lat="46.28197" lon="-0.70748">
        <ele>6</ele>
        <time>2012-09-18T14:45:05Z</time>
      </trkpt>
      <trkpt lat="46.28192" lon="-0.70753">
        <ele>6</ele>
        <time>2012-09-18T14:45:10Z</time>
      </trkpt>
      <trkpt lat="46.28188" lon="-0.70758">
        <ele>6</ele>
        <time>2012-09-18T14:45:15Z</time>
      </trkpt>
      <trkpt lat="46.28184" lon="-0.70763">
        <ele>6</ele>
        <time>2012-09-18T14:45:20Z</time>
      </trkpt>
      <trkpt lat="46.28178" lon="-0.70766">
        <ele>6</ele>
        <time>2012-09-18T14:45:25Z</time>
      </trkpt>
      <trkpt lat="46.28174" lon="-0.7077">
        <ele>6</ele>
        <time>2012-09-18T14:45:30Z</time>
      </trkpt>
      <trkpt lat="46.28167" lon="-0.70772">
        <ele>6</ele>
        <time>2012-09-18T14:45:35Z</time>
      </trkpt>
      <trkpt lat="46.28162" lon="-0.70776">
        <ele>6</ele>
        <time>2012-09-18T14:45:40Z</time>
      </trkpt>
      <trkpt lat="46.28158" lon="-0.7078">
        <ele>6</ele>
        <time>2012-09-18T14:45:45Z</time>
      </trkpt>
      <trkpt lat="46.28153" lon="-0.70783">
        <ele>6</ele>
        <time>2012-09-18T14:45:50Z</time>
      </trkpt>
      <trkpt lat="46.28148" lon="-0.70788">
        <ele>6</ele>
        <time>2012-09-18T14:45:55Z</time>
      </trkpt>
      <trkpt lat="46.28143" lon="-0.7079">
        <ele>6</ele>
        <time>2012-09-18T14:46:00Z</time>
      </trkpt>
      <trkpt lat="46.28137" lon="-0.70794">
        <ele>4</ele>
        <time>2012-09-18T14:46:05Z</time>
      </trkpt>
      <trkpt lat="46.28132" lon="-0.70797">
        <ele>4</ele>
        <time>2012-09-18T14:46:10Z</time>
      </trkpt>
      <trkpt lat="46.28127" lon="-0.70799">
        <ele>4</ele>
        <time>2012-09-18T14:46:15Z</time>
      </trkpt>
      <trkpt lat="46.28119" lon="-0.70797">
        <ele>6</ele>
        <time>2012-09-18T14:46:20Z</time>
      </trkpt>
      <trkpt lat="46.28112" lon="-0.70797">
        <ele>6</ele>
        <time>2012-09-18T14:46:25Z</time>
      </trkpt>
      <trkpt lat="46.28108" lon="-0.70798">
        <ele>6</ele>
        <time>2012-09-18T14:46:30Z</time>
      </trkpt>
      <trkpt lat="46.28103" lon="-0.70799">
        <ele>6</ele>
        <time>2012-09-18T14:46:35Z</time>
      </trkpt>
      <trkpt lat="46.28097" lon="-0.70798">
        <ele>6</ele>
        <time>2012-09-18T14:46:40Z</time>
      </trkpt>
      <trkpt lat="46.28093" lon="-0.70799">
        <ele>6</ele>
        <time>2012-09-18T14:46:45Z</time>
      </trkpt>
      <trkpt lat="46.28086" lon="-0.70799">
        <ele>6</ele>
        <time>2012-09-18T14:46:50Z</time>
      </trkpt>
      <trkpt lat="46.28081" lon="-0.70799">
        <ele>6</ele>
        <time>2012-09-18T14:46:55Z</time>
      </trkpt>
      <trkpt lat="46.28074" lon="-0.70798">
        <ele>6</ele>
        <time>2012-09-18T14:47:00Z</time>
      </trkpt>
      <trkpt lat="46.28068" lon="-0.70796">
        <ele>6</ele>
        <time>2012-09-18T14:47:05Z</time>
      </trkpt>
      <trkpt lat="46.28061" lon="-0.70799">
        <ele>6</ele>
        <time>2012-09-18T14:47:10Z</time>
      </trkpt>
      <trkpt lat="46.28054" lon="-0.70802">
        <ele>6</ele>
        <time>2012-09-18T14:47:15Z</time>
      </trkpt>
      <trkpt lat="46.28048" lon="-0.70805">
        <ele>6</ele>
        <time>2012-09-18T14:47:20Z</time>
      </trkpt>
      <trkpt lat="46.28043" lon="-0.70811">
        <ele>6</ele>
        <time>2012-09-18T14:47:25Z</time>
      </trkpt>
      <trkpt lat="46.28039" lon="-0.70816">
        <ele>7</ele>
        <time>2012-09-18T14:47:30Z</time>
      </trkpt>
      <trkpt lat="46.28035" lon="-0.7082">
        <ele>7</ele>
        <time>2012-09-18T14:47:35Z</time>
      </trkpt>
      <trkpt lat="46.2803" lon="-0.70825">
        <ele>7</ele>
        <time>2012-09-18T14:47:40Z</time>
      </trkpt>
      <trkpt lat="46.28026" lon="-0.70831">
        <ele>7</ele>
        <time>2012-09-18T14:47:45Z</time>
      </trkpt>
      <trkpt lat="46.28021" lon="-0.70834">
        <ele>7</ele>
        <time>2012-09-18T14:47:50Z</time>
      </trkpt>
      <trkpt lat="46.28019" lon="-0.70842">
        <ele>7</ele>
        <time>2012-09-18T14:47:55Z</time>
      </trkpt>
      <trkpt lat="46.28016" lon="-0.70849">
        <ele>7</ele>
        <time>2012-09-18T14:48:00Z</time>
      </trkpt>
      <trkpt lat="46.28013" lon="-0.70856">
        <ele>7</ele>
        <time>2012-09-18T14:48:05Z</time>
      </trkpt>
      <trkpt lat="46.28012" lon="-0.70863">
        <ele>7</ele>
        <time>2012-09-18T14:48:10Z</time>
      </trkpt>
      <trkpt lat="46.28011" lon="-0.70872">
        <ele>7</ele>
        <time>2012-09-18T14:48:15Z</time>
      </trkpt>
      <trkpt lat="46.28009" lon="-0.70878">
        <ele>6</ele>
        <time>2012-09-18T14:48:20Z</time>
      </trkpt>
      <trkpt lat="46.28007" lon="-0.70885">
        <ele>6</ele>
        <time>2012-09-18T14:48:25Z</time>
      </trkpt>
      <trkpt lat="46.28007" lon="-0.70886">
        <ele>6</ele>
        <time>2012-09-18T14:48:30Z</time>
      </trkpt>
      <trkpt lat="46.28007" lon="-0.70888">
        <ele>6</ele>
        <time>2012-09-18T14:48:35Z</time>
      </trkpt>
      <trkpt lat="46.28007" lon="-0.70889">
        <ele>6</ele>
        <time>2012-09-18T14:48:40Z</time>
      </trkpt>
      <trkpt lat="46.28007" lon="-0.70889">
        <ele>6</ele>
        <time>2012-09-18T14:48:45Z</time>
      </trkpt>
      <trkpt lat="46.28008" lon="-0.70892">
        <ele>6</ele>
        <time>2012-09-18T14:48:50Z</time>
      </trkpt>
      <trkpt lat="46.2801" lon="-0.70898">
        <ele>6</ele>
        <time>2012-09-18T14:48:55Z</time>
      </trkpt>
      <trkpt lat="46.28012" lon="-0.70905">
        <ele>6</ele>
        <time>2012-09-18T14:49:00Z</time>
      </trkpt>
      <trkpt lat="46.28014" lon="-0.70911">
        <ele>6</ele>
        <time>2012-09-18T14:49:05Z</time>
      </trkpt>
      <trkpt lat="46.28016" lon="-0.70917">
        <ele>6</ele>
        <time>2012-09-18T14:49:10Z</time>
      </trkpt>
      <trkpt lat="46.2802" lon="-0.70924">
        <ele>6</ele>
        <time>2012-09-18T14:49:15Z</time>
      </trkpt>
      <trkpt lat="46.28023" lon="-0.7093">
        <ele>6</ele>
        <time>2012-09-18T14:49:20Z</time>
      </trkpt>
      <trkpt lat="46.28026" lon="-0.70937">
        <ele>6</ele>
        <time>2012-09-18T14:49:25Z</time>
      </trkpt>
      <trkpt lat="46.28028" lon="-0.70945">
        <ele>6</ele>
        <time>2012-09-18T14:49:30Z</time>
      </trkpt>
      <trkpt lat="46.28032" lon="-0.70953">
        <ele>6</ele>
        <time>2012-09-18T14:49:35Z</time>
      </trkpt>
      <trkpt lat="46.28034" lon="-0.70959">
        <ele>6</ele>
        <time>2012-09-18T14:49:40Z</time>
      </trkpt>
      <trkpt lat="46.28038" lon="-0.70965">
        <ele>6</ele>
        <time>2012-09-18T14:49:45Z</time>
      </trkpt>
      <trkpt lat="46.28041" lon="-0.70971">
        <ele>6</ele>
        <time>2012-09-18T14:49:50Z</time>
      </trkpt>
      <trkpt lat="46.28043" lon="-0.7098">
        <ele>5</ele>
        <time>2012-09-18T14:49:55Z</time>
      </trkpt>
      <trkpt lat="46.28048" lon="-0.70987">
        <ele>5</ele>
        <time>2012-09-18T14:50:00Z</time>
      </trkpt>
      <trkpt lat="46.28051" lon="-0.70993">
        <ele>5</ele>
        <time>2012-09-18T14:50:05Z</time>
      </trkpt>
      <trkpt lat="46.28054" lon="-0.70999">
        <ele>5</ele>
        <time>2012-09-18T14:50:10Z</time>
      </trkpt>
      <trkpt lat="46.28057" lon="-0.71008">
        <ele>5</ele>
        <time>2012-09-18T14:50:15Z</time>
      </trkpt>
      <trkpt lat="46.2806" lon="-0.71014">
        <ele>5</ele>
        <time>2012-09-18T14:50:20Z</time>
      </trkpt>
      <trkpt lat="46.28063" lon="-0.71021">
        <ele>5</ele>
        <time>2012-09-18T14:50:25Z</time>
      </trkpt>
      <trkpt lat="46.28066" lon="-0.71026">
        <ele>5</ele>
        <time>2012-09-18T14:50:30Z</time>
      </trkpt>
      <trkpt lat="46.2807" lon="-0.71033">
        <ele>5</ele>
        <time>2012-09-18T14:50:35Z</time>
      </trkpt>
      <trkpt lat="46.28072" lon="-0.71039">
        <ele>5</ele>
        <time>2012-09-18T14:50:40Z</time>
      </trkpt>
      <trkpt lat="46.28077" lon="-0.71045">
        <ele>6</ele>
        <time>2012-09-18T14:50:45Z</time>
      </trkpt>
      <trkpt lat="46.2808" lon="-0.71051">
        <ele>6</ele>
        <time>2012-09-18T14:50:50Z</time>
      </trkpt>
      <trkpt lat="46.28084" lon="-0.71054">
        <ele>6</ele>
        <time>2012-09-18T14:50:55Z</time>
      </trkpt>
      <trkpt lat="46.2809" lon="-0.71056">
        <ele>6</ele>
        <time>2012-09-18T14:51:00Z</time>
      </trkpt>
      <trkpt lat="46.28095" lon="-0.71061">
        <ele>6</ele>
        <time>2012-09-18T14:51:05Z</time>
      </trkpt>
      <trkpt lat="46.28099" lon="-0.71064">
        <ele>6</ele>
        <time>2012-09-18T14:51:10Z</time>
      </trkpt>
      <trkpt lat="46.28104" lon="-0.71071">
        <ele>6</ele>
        <time>2012-09-18T14:51:15Z</time>
      </trkpt>
      <trkpt lat="46.28108" lon="-0.71078">
        <ele>6</ele>
        <time>2012-09-18T14:51:20Z</time>
      </trkpt>
      <trkpt lat="46.28111" lon="-0.71084">
        <ele>6</ele>
        <time>2012-09-18T14:51:25Z</time>
      </trkpt>
      <trkpt lat="46.28114" lon="-0.71091">
        <ele>6</ele>
        <time>2012-09-18T14:51:30Z</time>
      </trkpt>
      <trkpt lat="46.28115" lon="-0.71098">
        <ele>6</ele>
        <time>2012-09-18T14:51:35Z</time>
      </trkpt>
      <trkpt lat="46.28119" lon="-0.71104">
        <ele>6</ele>
        <time>2012-09-18T14:51:40Z</time>
      </trkpt>
      <trkpt lat="46.28122" lon="-0.71111">
        <ele>6</ele>
        <time>2012-09-18T14:51:45Z</time>
      </trkpt>
      <trkpt lat="46.28126" lon="-0.71115">
        <ele>3</ele>
        <time>2012-09-18T14:51:50Z</time>
      </trkpt>
      <trkpt lat="46.28128" lon="-0.71121">
        <ele>3</ele>
        <time>2012-09-18T14:51:55Z</time>
      </trkpt>
      <trkpt lat="46.28131" lon="-0.71128">
        <ele>3</ele>
        <time>2012-09-18T14:52:00Z</time>
      </trkpt>
      <trkpt lat="46.28134" lon="-0.71136">
        <ele>3</ele>
        <time>2012-09-18T14:52:05Z</time>
      </trkpt>
      <trkpt lat="46.28137" lon="-0.71142">
        <ele>3</ele>
        <time>2012-09-18T14:52:10Z</time>
      </trkpt>
      <trkpt lat="46.2814" lon="-0.71149">
        <ele>3</ele>
        <time>2012-09-18T14:52:15Z</time>
      </trkpt>
      <trkpt lat="46.28143" lon="-0.71156">
        <ele>3</ele>
        <time>2012-09-18T14:52:20Z</time>
      </trkpt>
      <trkpt lat="46.28146" lon="-0.71162">
        <ele>3</ele>
        <time>2012-09-18T14:52:25Z</time>
      </trkpt>
      <trkpt lat="46.28148" lon="-0.7117">
        <ele>3</ele>
        <time>2012-09-18T14:52:30Z</time>
      </trkpt>
      <trkpt lat="46.28152" lon="-0.71177">
        <ele>3</ele>
        <time>2012-09-18T14:52:35Z</time>
      </trkpt>
      <trkpt lat="46.28152" lon="-0.71186">
        <ele>3</ele>
        <time>2012-09-18T14:52:40Z</time>
      </trkpt>
      <trkpt lat="46.28153" lon="-0.71194">
        <ele>3</ele>
        <time>2012-09-18T14:52:45Z</time>
      </trkpt>
      <trkpt lat="46.28154" lon="-0.71202">
        <ele>3</ele>
        <time>2012-09-18T14:52:50Z</time>
      </trkpt>
      <trkpt lat="46.28155" lon="-0.71209">
        <ele>3</ele>
        <time>2012-09-18T14:52:55Z</time>
      </trkpt>
      <trkpt lat="46.28159" lon="-0.71218">
        <ele>3</ele>
        <time>2012-09-18T14:53:00Z</time>
      </trkpt>
      <trkpt lat="46.2816" lon="-0.71226">
        <ele>3</ele>
        <time>2012-09-18T14:53:05Z</time>
      </trkpt>
      <trkpt lat="46.28165" lon="-0.71231">
        <ele>3</ele>
        <time>2012-09-18T14:53:10Z</time>
      </trkpt>
      <trkpt lat="46.28167" lon="-0.71239">
        <ele>3</ele>
        <time>2012-09-18T14:53:15Z</time>
      </trkpt>
      <trkpt lat="46.28169" lon="-0.71247">
        <ele>3</ele>
        <time>2012-09-18T14:53:20Z</time>
      </trkpt>
      <trkpt lat="46.28171" lon="-0.71252">
        <ele>3</ele>
        <time>2012-09-18T14:53:25Z</time>
      </trkpt>
      <trkpt lat="46.28174" lon="-0.71256">
        <ele>3</ele>
        <time>2012-09-18T14:53:30Z</time>
      </trkpt>
      <trkpt lat="46.28176" lon="-0.71262">
        <ele>3</ele>
        <time>2012-09-18T14:53:35Z</time>
      </trkpt>
      <trkpt lat="46.2818" lon="-0.71266">
        <ele>3</ele>
        <time>2012-09-18T14:53:40Z</time>
      </trkpt>
      <trkpt lat="46.28183" lon="-0.71272">
        <ele>3</ele>
        <time>2012-09-18T14:53:45Z</time>
      </trkpt>
      <trkpt lat="46.28185" lon="-0.71276">
        <ele>3</ele>
        <time>2012-09-18T14:53:50Z</time>
      </trkpt>
      <trkpt lat="46.28189" lon="-0.71282">
        <ele>3</ele>
        <time>2012-09-18T14:53:55Z</time>
      </trkpt>
      <trkpt lat="46.28192" lon="-0.71287">
        <ele>3</ele>
        <time>2012-09-18T14:54:00Z</time>
      </trkpt>
      <trkpt lat="46.28193" lon="-0.71292">
        <ele>3</ele>
        <time>2012-09-18T14:54:05Z</time>
      </trkpt>
      <trkpt lat="46.28195" lon="-0.71296">
        <ele>3</ele>
        <time>2012-09-18T14:54:10Z</time>
      </trkpt>
      <trkpt lat="46.28197" lon="-0.713">
        <ele>3</ele>
        <time>2012-09-18T14:54:15Z</time>
      </trkpt>
      <trkpt lat="46.28198" lon="-0.71305">
        <ele>3</ele>
        <time>2012-09-18T14:54:20Z</time>
      </trkpt>
      <trkpt lat="46.28201" lon="-0.7131">
        <ele>3</ele>
        <time>2012-09-18T14:54:25Z</time>
      </trkpt>
      <trkpt lat="46.28203" lon="-0.71315">
        <ele>3</ele>
        <time>2012-09-18T14:59:50Z</time>
      </trkpt>
      <trkpt lat="46.28205" lon="-0.71322">
        <ele>3</ele>
        <time>2012-09-18T14:59:55Z</time>
      </trkpt>
      <trkpt lat="46.28209" lon="-0.71328">
        <ele>4</ele>
        <time>2012-09-18T15:00:00Z</time>
      </trkpt>
      <trkpt lat="46.28212" lon="-0.71334">
        <ele>4</ele>
        <time>2012-09-18T15:00:05Z</time>
      </trkpt>
      <trkpt lat="46.28215" lon="-0.7134">
        <ele>4</ele>
        <time>2012-09-18T15:00:10Z</time>
      </trkpt>
      <trkpt lat="46.28218" lon="-0.71345">
        <ele>4</ele>
        <time>2012-09-18T15:00:15Z</time>
      </trkpt>
      <trkpt lat="46.28219" lon="-0.71352">
        <ele>4</ele>
        <time>2012-09-18T15:00:20Z</time>
      </trkpt>
      <trkpt lat="46.28221" lon="-0.71357">
        <ele>4</ele>
        <time>2012-09-18T15:00:25Z</time>
      </trkpt>
      <trkpt lat="46.28223" lon="-0.71363">
        <ele>4</ele>
        <time>2012-09-18T15:00:30Z</time>
      </trkpt>
      <trkpt lat="46.28226" lon="-0.7137">
        <ele>4</ele>
        <time>2012-09-18T15:00:35Z</time>
      </trkpt>
      <trkpt lat="46.28227" lon="-0.71375">
        <ele>3</ele>
        <time>2012-09-18T15:00:40Z</time>
      </trkpt>
      <trkpt lat="46.28229" lon="-0.71383">
        <ele>3</ele>
        <time>2012-09-18T15:00:45Z</time>
      </trkpt>
      <trkpt lat="46.28232" lon="-0.71389">
        <ele>3</ele>
        <time>2012-09-18T15:00:50Z</time>
      </trkpt>
      <trkpt lat="46.28235" lon="-0.71394">
        <ele>3</ele>
        <time>2012-09-18T15:00:55Z</time>
      </trkpt>
      <trkpt lat="46.28239" lon="-0.71401">
        <ele>3</ele>
        <time>2012-09-18T15:01:00Z</time>
      </trkpt>
      <trkpt lat="46.28244" lon="-0.71408">
        <ele>3</ele>
        <time>2012-09-18T15:01:05Z</time>
      </trkpt>
      <trkpt lat="46.28247" lon="-0.71418">
        <ele>3</ele>
        <time>2012-09-18T15:01:10Z</time>
      </trkpt>
      <trkpt lat="46.28249" lon="-0.71423">
        <ele>3</ele>
        <time>2012-09-18T15:01:15Z</time>
      </trkpt>
      <trkpt lat="46.2825" lon="-0.7143">
        <ele>3</ele>
        <time>2012-09-18T15:01:20Z</time>
      </trkpt>
      <trkpt lat="46.28254" lon="-0.71438">
        <ele>3</ele>
        <time>2012-09-18T15:01:25Z</time>
      </trkpt>
      <trkpt lat="46.28255" lon="-0.71445">
        <ele>3</ele>
        <time>2012-09-18T15:01:30Z</time>
      </trkpt>
      <trkpt lat="46.28257" lon="-0.71452">
        <ele>3</ele>
        <time>2012-09-18T15:01:35Z</time>
      </trkpt>
      <trkpt lat="46.2826" lon="-0.71458">
        <ele>3</ele>
        <time>2012-09-18T15:01:40Z</time>
      </trkpt>
      <trkpt lat="46.28266" lon="-0.71466">
        <ele>5</ele>
        <time>2012-09-18T15:01:45Z</time>
      </trkpt>
      <trkpt lat="46.28269" lon="-0.7147">
        <ele>5</ele>
        <time>2012-09-18T15:01:50Z</time>
      </trkpt>
      <trkpt lat="46.28272" lon="-0.71476">
        <ele>5</ele>
        <time>2012-09-18T15:01:55Z</time>
      </trkpt>
      <trkpt lat="46.28276" lon="-0.71482">
        <ele>5</ele>
        <time>2012-09-18T15:02:00Z</time>
      </trkpt>
      <trkpt lat="46.28285" lon="-0.71492">
        <ele>5</ele>
        <time>2012-09-18T15:02:10Z</time>
      </trkpt>
      <trkpt lat="46.2829" lon="-0.71497">
        <ele>5</ele>
        <time>2012-09-18T15:02:15Z</time>
      </trkpt>
      <trkpt lat="46.28295" lon="-0.71504">
        <ele>4</ele>
        <time>2012-09-18T15:02:20Z</time>
      </trkpt>
      <trkpt lat="46.283" lon="-0.7151">
        <ele>4</ele>
        <time>2012-09-18T15:02:25Z</time>
      </trkpt>
      <trkpt lat="46.28303" lon="-0.71513">
        <ele>4</ele>
        <time>2012-09-18T15:02:30Z</time>
      </trkpt>
      <trkpt lat="46.28301" lon="-0.71515">
        <ele>4</ele>
        <time>2012-09-18T15:02:35Z</time>
      </trkpt>
      <trkpt lat="46.28302" lon="-0.71519">
        <ele>4</ele>
        <time>2012-09-18T15:02:40Z</time>
      </trkpt>
      <trkpt lat="46.28306" lon="-0.71528">
        <ele>4</ele>
        <time>2012-09-18T15:02:45Z</time>
      </trkpt>
      <trkpt lat="46.2831" lon="-0.71534">
        <ele>4</ele>
        <time>2012-09-18T15:02:50Z</time>
      </trkpt>
      <trkpt lat="46.28314" lon="-0.7154">
        <ele>4</ele>
        <time>2012-09-18T15:02:55Z</time>
      </trkpt>
      <trkpt lat="46.28316" lon="-0.71548">
        <ele>6</ele>
        <time>2012-09-18T15:03:00Z</time>
      </trkpt>
      <trkpt lat="46.28318" lon="-0.71554">
        <ele>6</ele>
        <time>2012-09-18T15:03:05Z</time>
      </trkpt>
      <trkpt lat="46.28324" lon="-0.71558">
        <ele>6</ele>
        <time>2012-09-18T15:03:10Z</time>
      </trkpt>
      <trkpt lat="46.28327" lon="-0.71561">
        <ele>6</ele>
        <time>2012-09-18T15:03:15Z</time>
      </trkpt>
      <trkpt lat="46.28331" lon="-0.71563">
        <ele>6</ele>
        <time>2012-09-18T15:03:20Z</time>
      </trkpt>
      <trkpt lat="46.28336" lon="-0.71568">
        <ele>6</ele>
        <time>2012-09-18T15:03:25Z</time>
      </trkpt>
      <trkpt lat="46.2834" lon="-0.71574">
        <ele>6</ele>
        <time>2012-09-18T15:03:30Z</time>
      </trkpt>
      <trkpt lat="46.28343" lon="-0.7158">
        <ele>6</ele>
        <time>2012-09-18T15:03:35Z</time>
      </trkpt>
      <trkpt lat="46.28346" lon="-0.71584">
        <ele>6</ele>
        <time>2012-09-18T15:03:40Z</time>
      </trkpt>
      <trkpt lat="46.28351" lon="-0.7159">
        <ele>6</ele>
        <time>2012-09-18T15:03:45Z</time>
      </trkpt>
      <trkpt lat="46.28356" lon="-0.71596">
        <ele>6</ele>
        <time>2012-09-18T15:03:50Z</time>
      </trkpt>
      <trkpt lat="46.28358" lon="-0.71601">
        <ele>6</ele>
        <time>2012-09-18T15:03:55Z</time>
      </trkpt>
      <trkpt lat="46.28363" lon="-0.71606">
        <ele>6</ele>
        <time>2012-09-18T15:04:00Z</time>
      </trkpt>
      <trkpt lat="46.28366" lon="-0.71613">
        <ele>6</ele>
        <time>2012-09-18T15:04:05Z</time>
      </trkpt>
      <trkpt lat="46.28369" lon="-0.71619">
        <ele>6</ele>
        <time>2012-09-18T15:04:10Z</time>
      </trkpt>
      <trkpt lat="46.28374" lon="-0.71623">
        <ele>6</ele>
        <time>2012-09-18T15:04:15Z</time>
      </trkpt>
      <trkpt lat="46.2838" lon="-0.71628">
        <ele>6</ele>
        <time>2012-09-18T15:04:20Z</time>
      </trkpt>
      <trkpt lat="46.28383" lon="-0.71635">
        <ele>6</ele>
        <time>2012-09-18T15:04:25Z</time>
      </trkpt>
      <trkpt lat="46.28384" lon="-0.7164">
        <ele>6</ele>
        <time>2012-09-18T15:04:30Z</time>
      </trkpt>
      <trkpt lat="46.28387" lon="-0.71647">
        <ele>6</ele>
        <time>2012-09-18T15:04:35Z</time>
      </trkpt>
      <trkpt lat="46.28389" lon="-0.71651">
        <ele>6</ele>
        <time>2012-09-18T15:04:40Z</time>
      </trkpt>
      <trkpt lat="46.28393" lon="-0.71655">
        <ele>6</ele>
        <time>2012-09-18T15:04:45Z</time>
      </trkpt>
      <trkpt lat="46.28396" lon="-0.7166">
        <ele>6</ele>
        <time>2012-09-18T15:04:50Z</time>
      </trkpt>
      <trkpt lat="46.284" lon="-0.71666">
        <ele>6</ele>
        <time>2012-09-18T15:04:55Z</time>
      </trkpt>
      <trkpt lat="46.28404" lon="-0.71672">
        <ele>6</ele>
        <time>2012-09-18T15:05:00Z</time>
      </trkpt>
      <trkpt lat="46.28406" lon="-0.71676">
        <ele>6</ele>
        <time>2012-09-18T15:05:05Z</time>
      </trkpt>
      <trkpt lat="46.28406" lon="-0.7168">
        <ele>6</ele>
        <time>2012-09-18T15:05:10Z</time>
      </trkpt>
      <trkpt lat="46.28409" lon="-0.71687">
        <ele>6</ele>
        <time>2012-09-18T15:05:15Z</time>
      </trkpt>
      <trkpt lat="46.28414" lon="-0.71693">
        <ele>6</ele>
        <time>2012-09-18T15:05:20Z</time>
      </trkpt>
      <trkpt lat="46.28416" lon="-0.71697">
        <ele>6</ele>
        <time>2012-09-18T15:05:25Z</time>
      </trkpt>
      <trkpt lat="46.2842" lon="-0.71701">
        <ele>6</ele>
        <time>2012-09-18T15:05:30Z</time>
      </trkpt>
      <trkpt lat="46.28424" lon="-0.71706">
        <ele>6</ele>
        <time>2012-09-18T15:05:35Z</time>
      </trkpt>
      <trkpt lat="46.28427" lon="-0.71712">
        <ele>6</ele>
        <time>2012-09-18T15:05:40Z</time>
      </trkpt>
      <trkpt lat="46.28433" lon="-0.71717">
        <ele>6</ele>
        <time>2012-09-18T15:05:45Z</time>
      </trkpt>
      <trkpt lat="46.28437" lon="-0.71722">
        <ele>6</ele>
        <time>2012-09-18T15:05:50Z</time>
      </trkpt>
      <trkpt lat="46.28442" lon="-0.71728">
        <ele>6</ele>
        <time>2012-09-18T15:05:55Z</time>
      </trkpt>
      <trkpt lat="46.28445" lon="-0.71734">
        <ele>6</ele>
        <time>2012-09-18T15:06:00Z</time>
      </trkpt>
      <trkpt lat="46.2845" lon="-0.7174">
        <ele>6</ele>
        <time>2012-09-18T15:06:05Z</time>
      </trkpt>
      <trkpt lat="46.28453" lon="-0.71741">
        <ele>6</ele>
        <time>2012-09-18T15:06:10Z</time>
      </trkpt>
      <trkpt lat="46.28458" lon="-0.71744">
        <ele>6</ele>
        <time>2012-09-18T15:06:15Z</time>
      </trkpt>
      <trkpt lat="46.28462" lon="-0.71755">
        <ele>5</ele>
        <time>2012-09-18T15:06:20Z</time>
      </trkpt>
      <trkpt lat="46.28463" lon="-0.71762">
        <ele>5</ele>
        <time>2012-09-18T15:06:25Z</time>
      </trkpt>
      <trkpt lat="46.28466" lon="-0.71767">
        <ele>5</ele>
        <time>2012-09-18T15:06:30Z</time>
      </trkpt>
      <trkpt lat="46.28472" lon="-0.71773">
        <ele>5</ele>
        <time>2012-09-18T15:06:35Z</time>
      </trkpt>
      <trkpt lat="46.28477" lon="-0.71776">
        <ele>5</ele>
        <time>2012-09-18T15:06:40Z</time>
      </trkpt>
      <trkpt lat="46.28482" lon="-0.7178">
        <ele>5</ele>
        <time>2012-09-18T15:06:45Z</time>
      </trkpt>
      <trkpt lat="46.28486" lon="-0.71783">
        <ele>5</ele>
        <time>2012-09-18T15:06:50Z</time>
      </trkpt>
      <trkpt lat="46.2849" lon="-0.7179">
        <ele>5</ele>
        <time>2012-09-18T15:06:55Z</time>
      </trkpt>
      <trkpt lat="46.28494" lon="-0.71795">
        <ele>5</ele>
        <time>2012-09-18T15:07:00Z</time>
      </trkpt>
      <trkpt lat="46.28499" lon="-0.71798">
        <ele>5</ele>
        <time>2012-09-18T15:07:05Z</time>
      </trkpt>
      <trkpt lat="46.28502" lon="-0.71803">
        <ele>5</ele>
        <time>2012-09-18T15:07:10Z</time>
      </trkpt>
      <trkpt lat="46.28505" lon="-0.71806">
        <ele>5</ele>
        <time>2012-09-18T15:07:15Z</time>
      </trkpt>
      <trkpt lat="46.28507" lon="-0.71811">
        <ele>5</ele>
        <time>2012-09-18T15:07:20Z</time>
      </trkpt>
      <trkpt lat="46.28511" lon="-0.71817">
        <ele>5</ele>
        <time>2012-09-18T15:07:25Z</time>
      </trkpt>
      <trkpt lat="46.28518" lon="-0.71822">
        <ele>5</ele>
        <time>2012-09-18T15:07:30Z</time>
      </trkpt>
      <trkpt lat="46.28526" lon="-0.71826">
        <ele>5</ele>
        <time>2012-09-18T15:07:35Z</time>
      </trkpt>
      <trkpt lat="46.28529" lon="-0.7183">
        <ele>5</ele>
        <time>2012-09-18T15:07:40Z</time>
      </trkpt>
      <trkpt lat="46.28534" lon="-0.71832">
        <ele>5</ele>
        <time>2012-09-18T15:07:45Z</time>
      </trkpt>
      <trkpt lat="46.28537" lon="-0.71832">
        <ele>5</ele>
        <time>2012-09-18T15:07:50Z</time>
      </trkpt>
      <trkpt lat="46.28541" lon="-0.71832">
        <ele>5</ele>
        <time>2012-09-18T15:07:55Z</time>
      </trkpt>
      <trkpt lat="46.28545" lon="-0.71832">
        <ele>3</ele>
        <time>2012-09-18T15:08:00Z</time>
      </trkpt>
      <trkpt lat="46.28551" lon="-0.71829">
        <ele>3</ele>
        <time>2012-09-18T15:08:05Z</time>
      </trkpt>
      <trkpt lat="46.28557" lon="-0.71826">
        <ele>3</ele>
        <time>2012-09-18T15:08:10Z</time>
      </trkpt>
      <trkpt lat="46.28561" lon="-0.71823">
        <ele>3</ele>
        <time>2012-09-18T15:08:15Z</time>
      </trkpt>
      <trkpt lat="46.28567" lon="-0.71826">
        <ele>3</ele>
        <time>2012-09-18T15:08:20Z</time>
      </trkpt>
      <trkpt lat="46.28574" lon="-0.71828">
        <ele>3</ele>
        <time>2012-09-18T15:08:25Z</time>
      </trkpt>
      <trkpt lat="46.2858" lon="-0.7183">
        <ele>3</ele>
        <time>2012-09-18T15:08:30Z</time>
      </trkpt>
      <trkpt lat="46.28586" lon="-0.7183">
        <ele>3</ele>
        <time>2012-09-18T15:08:35Z</time>
      </trkpt>
      <trkpt lat="46.28591" lon="-0.71831">
        <ele>3</ele>
        <time>2012-09-18T15:08:40Z</time>
      </trkpt>
      <trkpt lat="46.28595" lon="-0.71829">
        <ele>3</ele>
        <time>2012-09-18T15:08:45Z</time>
      </trkpt>
      <trkpt lat="46.28599" lon="-0.71827">
        <ele>3</ele>
        <time>2012-09-18T15:08:50Z</time>
      </trkpt>
      <trkpt lat="46.28601" lon="-0.71828">
        <ele>3</ele>
        <time>2012-09-18T15:08:55Z</time>
      </trkpt>
      <trkpt lat="46.28607" lon="-0.71828">
        <ele>3</ele>
        <time>2012-09-18T15:09:00Z</time>
      </trkpt>
      <trkpt lat="46.28613" lon="-0.71832">
        <ele>3</ele>
        <time>2012-09-18T15:09:05Z</time>
      </trkpt>
      <trkpt lat="46.28618" lon="-0.71837">
        <ele>3</ele>
        <time>2012-09-18T15:09:10Z</time>
      </trkpt>
      <trkpt lat="46.28621" lon="-0.71846">
        <ele>3</ele>
        <time>2012-09-18T15:09:15Z</time>
      </trkpt>
      <trkpt lat="46.28625" lon="-0.7185">
        <ele>3</ele>
        <time>2012-09-18T15:09:20Z</time>
      </trkpt>
      <trkpt lat="46.28626" lon="-0.71853">
        <ele>5</ele>
        <time>2012-09-18T15:09:25Z</time>
      </trkpt>
      <trkpt lat="46.28629" lon="-0.71855">
        <ele>5</ele>
        <time>2012-09-18T15:09:30Z</time>
      </trkpt>
      <trkpt lat="46.2863" lon="-0.71855">
        <ele>5</ele>
        <time>2012-09-18T15:09:35Z</time>
      </trkpt>
      <trkpt lat="46.28631" lon="-0.71856">
        <ele>5</ele>
        <time>2012-09-18T15:09:40Z</time>
      </trkpt>
      <trkpt lat="46.28632" lon="-0.71858">
        <ele>5</ele>
        <time>2012-09-18T15:09:45Z</time>
      </trkpt>
      <trkpt lat="46.28633" lon="-0.71859">
        <ele>5</ele>
        <time>2012-09-18T15:09:50Z</time>
      </trkpt>
      <trkpt lat="46.28634" lon="-0.71861">
        <ele>5</ele>
        <time>2012-09-18T15:09:55Z</time>
      </trkpt>
      <trkpt lat="46.28635" lon="-0.71862">
        <ele>5</ele>
        <time>2012-09-18T15:10:00Z</time>
      </trkpt>
      <trkpt lat="46.28634" lon="-0.71861">
        <ele>5</ele>
        <time>2012-09-18T15:10:05Z</time>
      </trkpt>
      <trkpt lat="46.28637" lon="-0.71864">
        <ele>5</ele>
        <time>2012-09-18T15:10:10Z</time>
      </trkpt>
      <trkpt lat="46.28638" lon="-0.71864">
        <ele>5</ele>
        <time>2012-09-18T15:10:15Z</time>
      </trkpt>
      <trkpt lat="46.28639" lon="-0.71865">
        <ele>5</ele>
        <time>2012-09-18T15:10:20Z</time>
      </trkpt>
      <trkpt lat="46.28641" lon="-0.71868">
        <ele>5</ele>
        <time>2012-09-18T15:10:25Z</time>
      </trkpt>
      <trkpt lat="46.28641" lon="-0.71868">
        <ele>5</ele>
        <time>2012-09-18T15:10:30Z</time>
      </trkpt>
      <trkpt lat="46.28641" lon="-0.71868">
        <ele>5</ele>
        <time>2012-09-18T15:10:35Z</time>
      </trkpt>
      <trkpt lat="46.28646" lon="-0.71876">
        <ele>5</ele>
        <time>2012-09-18T15:10:40Z</time>
      </trkpt>
      <trkpt lat="46.28652" lon="-0.71887">
        <ele>5</ele>
        <time>2012-09-18T15:10:45Z</time>
      </trkpt>
      <trkpt lat="46.28656" lon="-0.7189">
        <ele>5</ele>
        <time>2012-09-18T15:10:50Z</time>
      </trkpt>
      <trkpt lat="46.28655" lon="-0.7189">
        <ele>5</ele>
        <time>2012-09-18T15:10:55Z</time>
      </trkpt>
      <trkpt lat="46.28656" lon="-0.7189">
        <ele>5</ele>
        <time>2012-09-18T15:11:05Z</time>
      </trkpt>
      <trkpt lat="46.28655" lon="-0.71889">
        <ele>5</ele>
        <time>2012-09-18T15:11:10Z</time>
      </trkpt>
      <trkpt lat="46.28659" lon="-0.71896">
        <ele>5</ele>
        <time>2012-09-18T15:11:15Z</time>
      </trkpt>
      <trkpt lat="46.28665" lon="-0.71897">
        <ele>5</ele>
        <time>2012-09-18T15:11:20Z</time>
      </trkpt>
      <trkpt lat="46.28668" lon="-0.71905">
        <ele>5</ele>
        <time>2012-09-18T15:11:25Z</time>
      </trkpt>
      <trkpt lat="46.2867" lon="-0.71914">
        <ele>5</ele>
        <time>2012-09-18T15:11:30Z</time>
      </trkpt>
      <trkpt lat="46.28672" lon="-0.71921">
        <ele>5</ele>
        <time>2012-09-18T15:11:35Z</time>
      </trkpt>
      <trkpt lat="46.28676" lon="-0.71927">
        <ele>5</ele>
        <time>2012-09-18T15:11:40Z</time>
      </trkpt>
      <trkpt lat="46.28678" lon="-0.71932">
        <ele>5</ele>
        <time>2012-09-18T15:11:45Z</time>
      </trkpt>
      <trkpt lat="46.28682" lon="-0.71937">
        <ele>5</ele>
        <time>2012-09-18T15:11:50Z</time>
      </trkpt>
      <trkpt lat="46.28685" lon="-0.71943">
        <ele>5</ele>
        <time>2012-09-18T15:11:55Z</time>
      </trkpt>
      <trkpt lat="46.28686" lon="-0.7195">
        <ele>5</ele>
        <time>2012-09-18T15:12:00Z</time>
      </trkpt>
      <trkpt lat="46.28686" lon="-0.71956">
        <ele>5</ele>
        <time>2012-09-18T15:12:05Z</time>
      </trkpt>
      <trkpt lat="46.2869" lon="-0.71961">
        <ele>5</ele>
        <time>2012-09-18T15:12:10Z</time>
      </trkpt>
      <trkpt lat="46.28693" lon="-0.71967">
        <ele>5</ele>
        <time>2012-09-18T15:12:15Z</time>
      </trkpt>
      <trkpt lat="46.28697" lon="-0.71974">
        <ele>5</ele>
        <time>2012-09-18T15:12:20Z</time>
      </trkpt>
      <trkpt lat="46.28702" lon="-0.71979">
        <ele>5</ele>
        <time>2012-09-18T15:12:25Z</time>
      </trkpt>
      <trkpt lat="46.28706" lon="-0.71981">
        <ele>5</ele>
        <time>2012-09-18T15:12:30Z</time>
      </trkpt>
      <trkpt lat="46.28711" lon="-0.71987">
        <ele>3</ele>
        <time>2012-09-18T15:12:35Z</time>
      </trkpt>
      <trkpt lat="46.28715" lon="-0.71995">
        <ele>3</ele>
        <time>2012-09-18T15:12:40Z</time>
      </trkpt>
      <trkpt lat="46.2872" lon="-0.72002">
        <ele>3</ele>
        <time>2012-09-18T15:12:45Z</time>
      </trkpt>
      <trkpt lat="46.28724" lon="-0.72008">
        <ele>3</ele>
        <time>2012-09-18T15:12:50Z</time>
      </trkpt>
      <trkpt lat="46.28727" lon="-0.72012">
        <ele>3</ele>
        <time>2012-09-18T15:12:55Z</time>
      </trkpt>
      <trkpt lat="46.2873" lon="-0.72023">
        <ele>3</ele>
        <time>2012-09-18T15:13:00Z</time>
      </trkpt>
      <trkpt lat="46.28732" lon="-0.72037">
        <ele>3</ele>
        <time>2012-09-18T15:13:05Z</time>
      </trkpt>
      <trkpt lat="46.28733" lon="-0.72046">
        <ele>3</ele>
        <time>2012-09-18T15:13:10Z</time>
      </trkpt>
      <trkpt lat="46.28736" lon="-0.72051">
        <ele>3</ele>
        <time>2012-09-18T15:13:15Z</time>
      </trkpt>
      <trkpt lat="46.28741" lon="-0.72058">
        <ele>3</ele>
        <time>2012-09-18T15:13:20Z</time>
      </trkpt>
      <trkpt lat="46.28748" lon="-0.72061">
        <ele>3</ele>
        <time>2012-09-18T15:13:25Z</time>
      </trkpt>
      <trkpt lat="46.2875" lon="-0.7207">
        <ele>3</ele>
        <time>2012-09-18T15:13:30Z</time>
      </trkpt>
      <trkpt lat="46.28752" lon="-0.72078">
        <ele>3</ele>
        <time>2012-09-18T15:13:35Z</time>
      </trkpt>
      <trkpt lat="46.28756" lon="-0.72082">
        <ele>3</ele>
        <time>2012-09-18T15:13:40Z</time>
      </trkpt>
      <trkpt lat="46.28762" lon="-0.72087">
        <ele>3</ele>
        <time>2012-09-18T15:13:45Z</time>
      </trkpt>
      <trkpt lat="46.28766" lon="-0.72093">
        <ele>3</ele>
        <time>2012-09-18T15:13:50Z</time>
      </trkpt>
      <trkpt lat="46.28767" lon="-0.721">
        <ele>3</ele>
        <time>2012-09-18T15:13:55Z</time>
      </trkpt>
      <trkpt lat="46.28769" lon="-0.72109">
        <ele>3</ele>
        <time>2012-09-18T15:14:00Z</time>
      </trkpt>
      <trkpt lat="46.28774" lon="-0.72114">
        <ele>3</ele>
        <time>2012-09-18T15:14:05Z</time>
      </trkpt>
      <trkpt lat="46.28778" lon="-0.7212">
        <ele>3</ele>
        <time>2012-09-18T15:14:10Z</time>
      </trkpt>
      <trkpt lat="46.2878" lon="-0.72125">
        <ele>3</ele>
        <time>2012-09-18T15:14:15Z</time>
      </trkpt>
      <trkpt lat="46.28783" lon="-0.72131">
        <ele>4</ele>
        <time>2012-09-18T15:14:20Z</time>
      </trkpt>
      <trkpt lat="46.28788" lon="-0.72134">
        <ele>4</ele>
        <time>2012-09-18T15:14:25Z</time>
      </trkpt>
      <trkpt lat="46.28791" lon="-0.72142">
        <ele>4</ele>
        <time>2012-09-18T15:14:30Z</time>
      </trkpt>
      <trkpt lat="46.28796" lon="-0.7214">
        <ele>6</ele>
        <time>2012-09-18T15:14:35Z</time>
      </trkpt>
      <trkpt lat="46.28801" lon="-0.72139">
        <ele>6</ele>
        <time>2012-09-18T15:14:40Z</time>
      </trkpt>
      <trkpt lat="46.28807" lon="-0.72136">
        <ele>6</ele>
        <time>2012-09-18T15:14:45Z</time>
      </trkpt>
      <trkpt lat="46.28811" lon="-0.72133">
        <ele>6</ele>
        <time>2012-09-18T15:14:50Z</time>
      </trkpt>
      <trkpt lat="46.28817" lon="-0.72128">
        <ele>6</ele>
        <time>2012-09-18T15:14:55Z</time>
      </trkpt>
      <trkpt lat="46.28822" lon="-0.72124">
        <ele>5</ele>
        <time>2012-09-18T15:15:00Z</time>
      </trkpt>
      <trkpt lat="46.28829" lon="-0.7212">
        <ele>5</ele>
        <time>2012-09-18T15:15:05Z</time>
      </trkpt>
      <trkpt lat="46.28831" lon="-0.72117">
        <ele>5</ele>
        <time>2012-09-18T15:15:10Z</time>
      </trkpt>
      <trkpt lat="46.28832" lon="-0.72111">
        <ele>5</ele>
        <time>2012-09-18T15:15:15Z</time>
      </trkpt>
      <trkpt lat="46.28835" lon="-0.72106">
        <ele>5</ele>
        <time>2012-09-18T15:15:20Z</time>
      </trkpt>
      <trkpt lat="46.28838" lon="-0.72102">
        <ele>5</ele>
        <time>2012-09-18T15:15:25Z</time>
      </trkpt>
      <trkpt lat="46.28841" lon="-0.72101">
        <ele>5</ele>
        <time>2012-09-18T15:15:30Z</time>
      </trkpt>
      <trkpt lat="46.28847" lon="-0.72093">
        <ele>5</ele>
        <time>2012-09-18T15:15:35Z</time>
      </trkpt>
      <trkpt lat="46.28854" lon="-0.72087">
        <ele>5</ele>
        <time>2012-09-18T15:15:40Z</time>
      </trkpt>
      <trkpt lat="46.28855" lon="-0.72083">
        <ele>5</ele>
        <time>2012-09-18T15:15:45Z</time>
      </trkpt>
      <trkpt lat="46.28863" lon="-0.72079">
        <ele>5</ele>
        <time>2012-09-18T15:15:50Z</time>
      </trkpt>
      <trkpt lat="46.28866" lon="-0.72074">
        <ele>5</ele>
        <time>2012-09-18T15:15:55Z</time>
      </trkpt>
      <trkpt lat="46.28868" lon="-0.72073">
        <ele>5</ele>
        <time>2012-09-18T15:16:00Z</time>
      </trkpt>
      <trkpt lat="46.28874" lon="-0.72064">
        <ele>5</ele>
        <time>2012-09-18T15:16:05Z</time>
      </trkpt>
      <trkpt lat="46.28878" lon="-0.72059">
        <ele>7</ele>
        <time>2012-09-18T15:16:10Z</time>
      </trkpt>
      <trkpt lat="46.28884" lon="-0.72052">
        <ele>7</ele>
        <time>2012-09-18T15:16:15Z</time>
      </trkpt>
      <trkpt lat="46.28886" lon="-0.72048">
        <ele>7</ele>
        <time>2012-09-18T15:16:20Z</time>
      </trkpt>
      <trkpt lat="46.28887" lon="-0.72047">
        <ele>7</ele>
        <time>2012-09-18T15:16:25Z</time>
      </trkpt>
      <trkpt lat="46.28889" lon="-0.72044">
        <ele>7</ele>
        <time>2012-09-18T15:16:30Z</time>
      </trkpt>
      <trkpt lat="46.28894" lon="-0.72036">
        <ele>5</ele>
        <time>2012-09-18T15:16:35Z</time>
      </trkpt>
      <trkpt lat="46.28898" lon="-0.72025">
        <ele>5</ele>
        <time>2012-09-18T15:16:40Z</time>
      </trkpt>
      <trkpt lat="46.28905" lon="-0.72011">
        <ele>5</ele>
        <time>2012-09-18T15:16:45Z</time>
      </trkpt>
      <trkpt lat="46.28909" lon="-0.72005">
        <ele>5</ele>
        <time>2012-09-18T15:16:50Z</time>
      </trkpt>
      <trkpt lat="46.28911" lon="-0.72001">
        <ele>5</ele>
        <time>2012-09-18T15:16:55Z</time>
      </trkpt>
      <trkpt lat="46.28918" lon="-0.71994">
        <ele>5</ele>
        <time>2012-09-18T15:17:00Z</time>
      </trkpt>
      <trkpt lat="46.2892" lon="-0.71988">
        <ele>5</ele>
        <time>2012-09-18T15:17:05Z</time>
      </trkpt>
      <trkpt lat="46.28926" lon="-0.71986">
        <ele>5</ele>
        <time>2012-09-18T15:17:10Z</time>
      </trkpt>
      <trkpt lat="46.2893" lon="-0.71986">
        <ele>5</ele>
        <time>2012-09-18T15:17:15Z</time>
      </trkpt>
      <trkpt lat="46.28937" lon="-0.71992">
        <ele>5</ele>
        <time>2012-09-18T15:17:20Z</time>
      </trkpt>
      <trkpt lat="46.28942" lon="-0.71997">
        <ele>5</ele>
        <time>2012-09-18T15:17:25Z</time>
      </trkpt>
      <trkpt lat="46.28946" lon="-0.72004">
        <ele>5</ele>
        <time>2012-09-18T15:17:30Z</time>
      </trkpt>
      <trkpt lat="46.2895" lon="-0.72012">
        <ele>5</ele>
        <time>2012-09-18T15:17:35Z</time>
      </trkpt>
      <trkpt lat="46.28954" lon="-0.72018">
        <ele>5</ele>
        <time>2012-09-18T15:17:40Z</time>
      </trkpt>
      <trkpt lat="46.28958" lon="-0.72022">
        <ele>6</ele>
        <time>2012-09-18T15:17:45Z</time>
      </trkpt>
      <trkpt lat="46.28961" lon="-0.72029">
        <ele>6</ele>
        <time>2012-09-18T15:17:50Z</time>
      </trkpt>
      <trkpt lat="46.28966" lon="-0.72034">
        <ele>6</ele>
        <time>2012-09-18T15:17:55Z</time>
      </trkpt>
      <trkpt lat="46.28971" lon="-0.72036">
        <ele>6</ele>
        <time>2012-09-18T15:18:00Z</time>
      </trkpt>
      <trkpt lat="46.28972" lon="-0.72041">
        <ele>6</ele>
        <time>2012-09-18T15:18:05Z</time>
      </trkpt>
      <trkpt lat="46.28977" lon="-0.72047">
        <ele>7</ele>
        <time>2012-09-18T15:18:10Z</time>
      </trkpt>
      <trkpt lat="46.2898" lon="-0.72056">
        <ele>7</ele>
        <time>2012-09-18T15:18:15Z</time>
      </trkpt>
      <trkpt lat="46.28984" lon="-0.72063">
        <ele>7</ele>
        <time>2012-09-18T15:18:20Z</time>
      </trkpt>
      <trkpt lat="46.28989" lon="-0.72071">
        <ele>7</ele>
        <time>2012-09-18T15:18:25Z</time>
      </trkpt>
      <trkpt lat="46.28992" lon="-0.72079">
        <ele>7</ele>
        <time>2012-09-18T15:18:30Z</time>
      </trkpt>
      <trkpt lat="46.28996" lon="-0.72087">
        <ele>7</ele>
        <time>2012-09-18T15:18:35Z</time>
      </trkpt>
      <trkpt lat="46.28998" lon="-0.72095">
        <ele>7</ele>
        <time>2012-09-18T15:18:40Z</time>
      </trkpt>
      <trkpt lat="46.28999" lon="-0.72103">
        <ele>7</ele>
        <time>2012-09-18T15:18:45Z</time>
      </trkpt>
      <trkpt lat="46.29002" lon="-0.72107">
        <ele>7</ele>
        <time>2012-09-18T15:18:50Z</time>
      </trkpt>
      <trkpt lat="46.29005" lon="-0.72117">
        <ele>7</ele>
        <time>2012-09-18T15:18:55Z</time>
      </trkpt>
      <trkpt lat="46.29008" lon="-0.72128">
        <ele>6</ele>
        <time>2012-09-18T15:19:00Z</time>
      </trkpt>
      <trkpt lat="46.29015" lon="-0.72134">
        <ele>6</ele>
        <time>2012-09-18T15:19:05Z</time>
      </trkpt>
      <trkpt lat="46.2902" lon="-0.7214">
        <ele>6</ele>
        <time>2012-09-18T15:19:10Z</time>
      </trkpt>
      <trkpt lat="46.29023" lon="-0.72142">
        <ele>6</ele>
        <time>2012-09-18T15:19:15Z</time>
      </trkpt>
      <trkpt lat="46.29026" lon="-0.72141">
        <ele>6</ele>
        <time>2012-09-18T15:19:20Z</time>
      </trkpt>
      <trkpt lat="46.29029" lon="-0.72145">
        <ele>6</ele>
        <time>2012-09-18T15:19:25Z</time>
      </trkpt>
      <trkpt lat="46.29034" lon="-0.72149">
        <ele>6</ele>
        <time>2012-09-18T15:19:30Z</time>
      </trkpt>
      <trkpt lat="46.29037" lon="-0.72157">
        <ele>6</ele>
        <time>2012-09-18T15:19:35Z</time>
      </trkpt>
      <trkpt lat="46.29042" lon="-0.72165">
        <ele>5</ele>
        <time>2012-09-18T15:19:40Z</time>
      </trkpt>
      <trkpt lat="46.29047" lon="-0.7217">
        <ele>5</ele>
        <time>2012-09-18T15:19:45Z</time>
      </trkpt>
      <trkpt lat="46.29048" lon="-0.72171">
        <ele>5</ele>
        <time>2012-09-18T15:19:50Z</time>
      </trkpt>
      <trkpt lat="46.29048" lon="-0.72171">
        <ele>5</ele>
        <time>2012-09-18T15:19:55Z</time>
      </trkpt>
      <trkpt lat="46.29049" lon="-0.72172">
        <ele>5</ele>
        <time>2012-09-18T15:20:00Z</time>
      </trkpt>
      <trkpt lat="46.29058" lon="-0.72177">
        <ele>5</ele>
        <time>2012-09-18T15:20:05Z</time>
      </trkpt>
      <trkpt lat="46.29063" lon="-0.72184">
        <ele>5</ele>
        <time>2012-09-18T15:20:10Z</time>
      </trkpt>
      <trkpt lat="46.29065" lon="-0.72187">
        <ele>5</ele>
        <time>2012-09-18T15:20:15Z</time>
      </trkpt>
      <trkpt lat="46.29066" lon="-0.72191">
        <ele>5</ele>
        <time>2012-09-18T15:20:20Z</time>
      </trkpt>
      <trkpt lat="46.29065" lon="-0.72196">
        <ele>5</ele>
        <time>2012-09-18T15:20:25Z</time>
      </trkpt>
      <trkpt lat="46.29067" lon="-0.72207">
        <ele>5</ele>
        <time>2012-09-18T15:20:30Z</time>
      </trkpt>
      <trkpt lat="46.29068" lon="-0.72218">
        <ele>6</ele>
        <time>2012-09-18T15:20:35Z</time>
      </trkpt>
      <trkpt lat="46.29073" lon="-0.72221">
        <ele>6</ele>
        <time>2012-09-18T15:20:40Z</time>
      </trkpt>
      <trkpt lat="46.29075" lon="-0.72229">
        <ele>6</ele>
        <time>2012-09-18T15:20:45Z</time>
      </trkpt>
      <trkpt lat="46.29074" lon="-0.7223">
        <ele>6</ele>
        <time>2012-09-18T15:20:50Z</time>
      </trkpt>
      <trkpt lat="46.29074" lon="-0.72232">
        <ele>6</ele>
        <time>2012-09-18T15:20:55Z</time>
      </trkpt>
      <trkpt lat="46.29078" lon="-0.72235">
        <ele>6</ele>
        <time>2012-09-18T15:21:00Z</time>
      </trkpt>
      <trkpt lat="46.29078" lon="-0.72243">
        <ele>6</ele>
        <time>2012-09-18T15:21:05Z</time>
      </trkpt>
      <trkpt lat="46.2908" lon="-0.72249">
        <ele>6</ele>
        <time>2012-09-18T15:21:10Z</time>
      </trkpt>
      <trkpt lat="46.29083" lon="-0.72253">
        <ele>6</ele>
        <time>2012-09-18T15:21:15Z</time>
      </trkpt>
      <trkpt lat="46.29085" lon="-0.7226">
        <ele>6</ele>
        <time>2012-09-18T15:21:20Z</time>
      </trkpt>
      <trkpt lat="46.29088" lon="-0.72265">
        <ele>6</ele>
        <time>2012-09-18T15:21:25Z</time>
      </trkpt>
      <trkpt lat="46.29091" lon="-0.72268">
        <ele>6</ele>
        <time>2012-09-18T15:21:30Z</time>
      </trkpt>
      <trkpt lat="46.29095" lon="-0.72274">
        <ele>6</ele>
        <time>2012-09-18T15:21:35Z</time>
      </trkpt>
      <trkpt lat="46.29098" lon="-0.7228">
        <ele>6</ele>
        <time>2012-09-18T15:21:40Z</time>
      </trkpt>
      <trkpt lat="46.29104" lon="-0.72285">
        <ele>6</ele>
        <time>2012-09-18T15:21:45Z</time>
      </trkpt>
      <trkpt lat="46.29104" lon="-0.7229">
        <ele>6</ele>
        <time>2012-09-18T15:21:50Z</time>
      </trkpt>
      <trkpt lat="46.29108" lon="-0.72296">
        <ele>6</ele>
        <time>2012-09-18T15:21:55Z</time>
      </trkpt>
      <trkpt lat="46.29113" lon="-0.72299">
        <ele>6</ele>
        <time>2012-09-18T15:22:00Z</time>
      </trkpt>
      <trkpt lat="46.29119" lon="-0.72301">
        <ele>6</ele>
        <time>2012-09-18T15:22:05Z</time>
      </trkpt>
      <trkpt lat="46.29122" lon="-0.72311">
        <ele>6</ele>
        <time>2012-09-18T15:22:10Z</time>
      </trkpt>
      <trkpt lat="46.29122" lon="-0.72321">
        <ele>6</ele>
        <time>2012-09-18T15:22:15Z</time>
      </trkpt>
      <trkpt lat="46.29126" lon="-0.72323">
        <ele>6</ele>
        <time>2012-09-18T15:22:20Z</time>
      </trkpt>
      <trkpt lat="46.29129" lon="-0.72328">
        <ele>6</ele>
        <time>2012-09-18T15:22:25Z</time>
      </trkpt>
      <trkpt lat="46.29131" lon="-0.7233">
        <ele>6</ele>
        <time>2012-09-18T15:22:30Z</time>
      </trkpt>
      <trkpt lat="46.29138" lon="-0.72337">
        <ele>6</ele>
        <time>2012-09-18T15:22:35Z</time>
      </trkpt>
      <trkpt lat="46.2914" lon="-0.72341">
        <ele>6</ele>
        <time>2012-09-18T15:22:40Z</time>
      </trkpt>
      <trkpt lat="46.29142" lon="-0.72346">
        <ele>6</ele>
        <time>2012-09-18T15:22:45Z</time>
      </trkpt>
      <trkpt lat="46.29145" lon="-0.7235">
        <ele>6</ele>
        <time>2012-09-18T15:22:50Z</time>
      </trkpt>
      <trkpt lat="46.29146" lon="-0.72356">
        <ele>6</ele>
        <time>2012-09-18T15:22:55Z</time>
      </trkpt>
      <trkpt lat="46.29148" lon="-0.72363">
        <ele>6</ele>
        <time>2012-09-18T15:23:00Z</time>
      </trkpt>
      <trkpt lat="46.29148" lon="-0.72368">
        <ele>6</ele>
        <time>2012-09-18T15:23:05Z</time>
      </trkpt>
      <trkpt lat="46.29148" lon="-0.72374">
        <ele>6</ele>
        <time>2012-09-18T15:23:10Z</time>
      </trkpt>
      <trkpt lat="46.2915" lon="-0.72378">
        <ele>6</ele>
        <time>2012-09-18T15:23:15Z</time>
      </trkpt>
      <trkpt lat="46.29152" lon="-0.72384">
        <ele>6</ele>
        <time>2012-09-18T15:23:20Z</time>
      </trkpt>
      <trkpt lat="46.29155" lon="-0.72391">
        <ele>6</ele>
        <time>2012-09-18T15:23:25Z</time>
      </trkpt>
      <trkpt lat="46.29156" lon="-0.72396">
        <ele>6</ele>
        <time>2012-09-18T15:23:30Z</time>
      </trkpt>
      <trkpt lat="46.29161" lon="-0.724">
        <ele>6</ele>
        <time>2012-09-18T15:23:35Z</time>
      </trkpt>
      <trkpt lat="46.29166" lon="-0.72408">
        <ele>6</ele>
        <time>2012-09-18T15:23:40Z</time>
      </trkpt>
      <trkpt lat="46.29169" lon="-0.72417">
        <ele>6</ele>
        <time>2012-09-18T15:23:45Z</time>
      </trkpt>
      <trkpt lat="46.29169" lon="-0.72425">
        <ele>6</ele>
        <time>2012-09-18T15:23:50Z</time>
      </trkpt>
      <trkpt lat="46.29173" lon="-0.72434">
        <ele>6</ele>
        <time>2012-09-18T15:23:55Z</time>
      </trkpt>
      <trkpt lat="46.29175" lon="-0.72442">
        <ele>6</ele>
        <time>2012-09-18T15:24:00Z</time>
      </trkpt>
      <trkpt lat="46.29175" lon="-0.72449">
        <ele>6</ele>
        <time>2012-09-18T15:24:05Z</time>
      </trkpt>
      <trkpt lat="46.29184" lon="-0.72451">
        <ele>6</ele>
        <time>2012-09-18T15:24:10Z</time>
      </trkpt>
      <trkpt lat="46.29189" lon="-0.72458">
        <ele>6</ele>
        <time>2012-09-18T15:24:15Z</time>
      </trkpt>
      <trkpt lat="46.29194" lon="-0.72464">
        <ele>4</ele>
        <time>2012-09-18T15:24:20Z</time>
      </trkpt>
      <trkpt lat="46.29198" lon="-0.72469">
        <ele>4</ele>
        <time>2012-09-18T15:24:25Z</time>
      </trkpt>
      <trkpt lat="46.29207" lon="-0.72474">
        <ele>4</ele>
        <time>2012-09-18T15:24:30Z</time>
      </trkpt>
      <trkpt lat="46.29213" lon="-0.72479">
        <ele>2</ele>
        <time>2012-09-18T15:24:35Z</time>
      </trkpt>
      <trkpt lat="46.29216" lon="-0.72484">
        <ele>2</ele>
        <time>2012-09-18T15:24:40Z</time>
      </trkpt>
      <trkpt lat="46.29222" lon="-0.7249">
        <ele>2</ele>
        <time>2012-09-18T15:24:45Z</time>
      </trkpt>
      <trkpt lat="46.29227" lon="-0.72496">
        <ele>2</ele>
        <time>2012-09-18T15:24:50Z</time>
      </trkpt>
      <trkpt lat="46.29231" lon="-0.72501">
        <ele>2</ele>
        <time>2012-09-18T15:24:55Z</time>
      </trkpt>
      <trkpt lat="46.29237" lon="-0.72509">
        <ele>2</ele>
        <time>2012-09-18T15:25:00Z</time>
      </trkpt>
      <trkpt lat="46.29244" lon="-0.72514">
        <ele>2</ele>
        <time>2012-09-18T15:25:05Z</time>
      </trkpt>
      <trkpt lat="46.29247" lon="-0.72521">
        <ele>2</ele>
        <time>2012-09-18T15:25:10Z</time>
      </trkpt>
      <trkpt lat="46.29251" lon="-0.72528">
        <ele>2</ele>
        <time>2012-09-18T15:25:15Z</time>
      </trkpt>
      <trkpt lat="46.29257" lon="-0.72534">
        <ele>2</ele>
        <time>2012-09-18T15:25:20Z</time>
      </trkpt>
      <trkpt lat="46.29262" lon="-0.72541">
        <ele>2</ele>
        <time>2012-09-18T15:25:25Z</time>
      </trkpt>
      <trkpt lat="46.29265" lon="-0.72549">
        <ele>4</ele>
        <time>2012-09-18T15:25:30Z</time>
      </trkpt>
      <trkpt lat="46.2927" lon="-0.72556">
        <ele>4</ele>
        <time>2012-09-18T15:25:35Z</time>
      </trkpt>
      <trkpt lat="46.29273" lon="-0.72563">
        <ele>4</ele>
        <time>2012-09-18T15:25:40Z</time>
      </trkpt>
      <trkpt lat="46.29275" lon="-0.72571">
        <ele>4</ele>
        <time>2012-09-18T15:25:45Z</time>
      </trkpt>
      <trkpt lat="46.29276" lon="-0.72578">
        <ele>4</ele>
        <time>2012-09-18T15:25:50Z</time>
      </trkpt>
      <trkpt lat="46.29278" lon="-0.72584">
        <ele>4</ele>
        <time>2012-09-18T15:25:55Z</time>
      </trkpt>
      <trkpt lat="46.29293" lon="-0.72599">
        <ele>7</ele>
        <time>2012-09-18T15:26:10Z</time>
      </trkpt>
      <trkpt lat="46.29333" lon="-0.72648">
        <ele>5</ele>
        <time>2012-09-18T15:27:00Z</time>
      </trkpt>
      <trkpt lat="46.29379" lon="-0.72707">
        <ele>3</ele>
        <time>2012-09-18T15:27:45Z</time>
      </trkpt>
      <trkpt lat="46.294" lon="-0.72733">
        <ele>4</ele>
        <time>2012-09-18T15:28:10Z</time>
      </trkpt>
      <trkpt lat="46.29415" lon="-0.72737">
        <ele>4</ele>
        <time>2012-09-18T15:28:15Z</time>
      </trkpt>
      <trkpt lat="46.29423" lon="-0.7273">
        <ele>4</ele>
        <time>2012-09-18T15:28:20Z</time>
      </trkpt>
      <trkpt lat="46.29427" lon="-0.72722">
        <ele>4</ele>
        <time>2012-09-18T15:28:25Z</time>
      </trkpt>
      <trkpt lat="46.29433" lon="-0.72715">
        <ele>4</ele>
        <time>2012-09-18T15:28:30Z</time>
      </trkpt>
      <trkpt lat="46.29438" lon="-0.7271">
        <ele>4</ele>
        <time>2012-09-18T15:28:35Z</time>
      </trkpt>
      <trkpt lat="46.29442" lon="-0.72706">
        <ele>3</ele>
        <time>2012-09-18T15:28:40Z</time>
      </trkpt>
      <trkpt lat="46.29443" lon="-0.72702">
        <ele>3</ele>
        <time>2012-09-18T15:28:45Z</time>
      </trkpt>
      <trkpt lat="46.29443" lon="-0.72703">
        <ele>3</ele>
        <time>2012-09-18T15:28:50Z</time>
      </trkpt>
      <trkpt lat="46.29448" lon="-0.72699">
        <ele>3</ele>
        <time>2012-09-18T15:28:55Z</time>
      </trkpt>
      <trkpt lat="46.2945" lon="-0.72695">
        <ele>3</ele>
        <time>2012-09-18T15:29:00Z</time>
      </trkpt>
      <trkpt lat="46.29451" lon="-0.72694">
        <ele>3</ele>
        <time>2012-09-18T15:29:05Z</time>
      </trkpt>
      <trkpt lat="46.2945" lon="-0.72693">
        <ele>3</ele>
        <time>2012-09-18T15:29:10Z</time>
      </trkpt>
      <trkpt lat="46.29452" lon="-0.72688">
        <ele>3</ele>
        <time>2012-09-18T15:29:15Z</time>
      </trkpt>
      <trkpt lat="46.29455" lon="-0.72687">
        <ele>3</ele>
        <time>2012-09-18T15:29:20Z</time>
      </trkpt>
      <trkpt lat="46.29466" lon="-0.72675">
        <ele>3</ele>
        <time>2012-09-18T15:29:25Z</time>
      </trkpt>
      <trkpt lat="46.29472" lon="-0.72672">
        <ele>3</ele>
        <time>2012-09-18T15:29:30Z</time>
      </trkpt>
      <trkpt lat="46.29488" lon="-0.72656">
        <ele>3</ele>
        <time>2012-09-18T15:29:40Z</time>
      </trkpt>
      <trkpt lat="46.29499" lon="-0.72655">
        <ele>3</ele>
        <time>2012-09-18T15:29:50Z</time>
      </trkpt>
      <trkpt lat="46.29499" lon="-0.72656">
        <ele>3</ele>
        <time>2012-09-18T15:29:55Z</time>
      </trkpt>
      <trkpt lat="46.29499" lon="-0.72656">
        <ele>3</ele>
        <time>2012-09-18T15:30:00Z</time>
      </trkpt>
      <trkpt lat="46.29499" lon="-0.72657">
        <ele>3</ele>
        <time>2012-09-18T15:30:05Z</time>
      </trkpt>
      <trkpt lat="46.29512" lon="-0.72671">
        <ele>3</ele>
        <time>2012-09-18T15:30:35Z</time>
      </trkpt>
      <trkpt lat="46.29523" lon="-0.72682">
        <ele>3</ele>
        <time>2012-09-18T15:30:40Z</time>
      </trkpt>
      <trkpt lat="46.29542" lon="-0.72697">
        <ele>3</ele>
        <time>2012-09-18T15:31:00Z</time>
      </trkpt>
      <trkpt lat="46.29556" lon="-0.72708">
        <ele>2</ele>
        <time>2012-09-18T15:31:15Z</time>
      </trkpt>
      <trkpt lat="46.29563" lon="-0.72711">
        <ele>5</ele>
        <time>2012-09-18T15:31:20Z</time>
      </trkpt>
      <trkpt lat="46.29566" lon="-0.72714">
        <ele>5</ele>
        <time>2012-09-18T15:31:25Z</time>
      </trkpt>
      <trkpt lat="46.29573" lon="-0.72717">
        <ele>5</ele>
        <time>2012-09-18T15:31:30Z</time>
      </trkpt>
      <trkpt lat="46.29595" lon="-0.72733">
        <ele>5</ele>
        <time>2012-09-18T15:31:50Z</time>
      </trkpt>
      <trkpt lat="46.29603" lon="-0.72736">
        <ele>5</ele>
        <time>2012-09-18T15:31:55Z</time>
      </trkpt>
      <trkpt lat="46.29605" lon="-0.72742">
        <ele>5</ele>
        <time>2012-09-18T15:32:00Z</time>
      </trkpt>
      <trkpt lat="46.29609" lon="-0.72748">
        <ele>5</ele>
        <time>2012-09-18T15:32:05Z</time>
      </trkpt>
      <trkpt lat="46.29611" lon="-0.72748">
        <ele>5</ele>
        <time>2012-09-18T15:32:10Z</time>
      </trkpt>
      <trkpt lat="46.29616" lon="-0.72744">
        <ele>5</ele>
        <time>2012-09-18T15:32:15Z</time>
      </trkpt>
      <trkpt lat="46.2962" lon="-0.72739">
        <ele>5</ele>
        <time>2012-09-18T15:32:20Z</time>
      </trkpt>
      <trkpt lat="46.29626" lon="-0.72735">
        <ele>5</ele>
        <time>2012-09-18T15:32:25Z</time>
      </trkpt>
      <trkpt lat="46.29628" lon="-0.72733">
        <ele>5</ele>
        <time>2012-09-18T15:32:30Z</time>
      </trkpt>
      <trkpt lat="46.29628" lon="-0.72733">
        <ele>5</ele>
        <time>2012-09-18T15:32:35Z</time>
      </trkpt>
      <trkpt lat="46.29628" lon="-0.72732">
        <ele>5</ele>
        <time>2012-09-18T15:32:55Z</time>
      </trkpt>
      <trkpt lat="46.2963" lon="-0.7273">
        <ele>5</ele>
        <time>2012-09-18T15:33:20Z</time>
      </trkpt>
      <trkpt lat="46.29631" lon="-0.72728">
        <ele>5</ele>
        <time>2012-09-18T15:33:25Z</time>
      </trkpt>
      <trkpt lat="46.29632" lon="-0.72727">
        <ele>5</ele>
        <time>2012-09-18T15:33:40Z</time>
      </trkpt>
      <trkpt lat="46.29631" lon="-0.72724">
        <ele>5</ele>
        <time>2012-09-18T15:33:50Z</time>
      </trkpt>
      <trkpt lat="46.29632" lon="-0.72722">
        <ele>5</ele>
        <time>2012-09-18T15:33:55Z</time>
      </trkpt>
      <trkpt lat="46.29633" lon="-0.7272">
        <ele>5</ele>
        <time>2012-09-18T15:34:00Z</time>
      </trkpt>
      <trkpt lat="46.29638" lon="-0.72718">
        <ele>5</ele>
        <time>2012-09-18T15:34:05Z</time>
      </trkpt>
      <trkpt lat="46.29642" lon="-0.72717">
        <ele>5</ele>
        <time>2012-09-18T15:34:10Z</time>
      </trkpt>
      <trkpt lat="46.29647" lon="-0.72713">
        <ele>5</ele>
        <time>2012-09-18T15:34:15Z</time>
      </trkpt>
      <trkpt lat="46.29649" lon="-0.72711">
        <ele>5</ele>
        <time>2012-09-18T15:34:20Z</time>
      </trkpt>
      <trkpt lat="46.29652" lon="-0.72707">
        <ele>5</ele>
        <time>2012-09-18T15:34:25Z</time>
      </trkpt>
      <trkpt lat="46.2966" lon="-0.72702">
        <ele>5</ele>
        <time>2012-09-18T15:34:30Z</time>
      </trkpt>
      <trkpt lat="46.29662" lon="-0.72697">
        <ele>5</ele>
        <time>2012-09-18T15:34:35Z</time>
      </trkpt>
      <trkpt lat="46.29668" lon="-0.72694">
        <ele>5</ele>
        <time>2012-09-18T15:34:40Z</time>
      </trkpt>
      <trkpt lat="46.29673" lon="-0.7269">
        <ele>5</ele>
        <time>2012-09-18T15:34:45Z</time>
      </trkpt>
      <trkpt lat="46.29676" lon="-0.72686">
        <ele>5</ele>
        <time>2012-09-18T15:34:50Z</time>
      </trkpt>
      <trkpt lat="46.29683" lon="-0.72681">
        <ele>5</ele>
        <time>2012-09-18T15:34:55Z</time>
      </trkpt>
      <trkpt lat="46.29688" lon="-0.72676">
        <ele>5</ele>
        <time>2012-09-18T15:35:00Z</time>
      </trkpt>
      <trkpt lat="46.29693" lon="-0.7267">
        <ele>5</ele>
        <time>2012-09-18T15:35:05Z</time>
      </trkpt>
      <trkpt lat="46.29696" lon="-0.72669">
        <ele>5</ele>
        <time>2012-09-18T15:35:10Z</time>
      </trkpt>
      <trkpt lat="46.29699" lon="-0.72665">
        <ele>5</ele>
        <time>2012-09-18T15:35:15Z</time>
      </trkpt>
      <trkpt lat="46.29705" lon="-0.72659">
        <ele>5</ele>
        <time>2012-09-18T15:35:20Z</time>
      </trkpt>
      <trkpt lat="46.29709" lon="-0.72655">
        <ele>5</ele>
        <time>2012-09-18T15:35:25Z</time>
      </trkpt>
      <trkpt lat="46.29711" lon="-0.72651">
        <ele>5</ele>
        <time>2012-09-18T15:35:30Z</time>
      </trkpt>
      <trkpt lat="46.29715" lon="-0.72645">
        <ele>5</ele>
        <time>2012-09-18T15:35:35Z</time>
      </trkpt>
      <trkpt lat="46.2972" lon="-0.72639">
        <ele>5</ele>
        <time>2012-09-18T15:35:40Z</time>
      </trkpt>
      <trkpt lat="46.2973" lon="-0.72639">
        <ele>5</ele>
        <time>2012-09-18T15:35:45Z</time>
      </trkpt>
      <trkpt lat="46.29737" lon="-0.72636">
        <ele>5</ele>
        <time>2012-09-18T15:35:50Z</time>
      </trkpt>
      <trkpt lat="46.29741" lon="-0.72631">
        <ele>5</ele>
        <time>2012-09-18T15:35:55Z</time>
      </trkpt>
      <trkpt lat="46.29742" lon="-0.7263">
        <ele>5</ele>
        <time>2012-09-18T15:36:00Z</time>
      </trkpt>
      <trkpt lat="46.29743" lon="-0.7263">
        <ele>5</ele>
        <time>2012-09-18T15:36:05Z</time>
      </trkpt>
      <trkpt lat="46.29744" lon="-0.7263">
        <ele>5</ele>
        <time>2012-09-18T15:36:15Z</time>
      </trkpt>
      <trkpt lat="46.29751" lon="-0.72622">
        <ele>5</ele>
        <time>2012-09-18T15:36:20Z</time>
      </trkpt>
      <trkpt lat="46.29749" lon="-0.72616">
        <ele>5</ele>
        <time>2012-09-18T15:36:25Z</time>
      </trkpt>
      <trkpt lat="46.29745" lon="-0.72611">
        <ele>5</ele>
        <time>2012-09-18T15:36:30Z</time>
      </trkpt>
      <trkpt lat="46.29742" lon="-0.72609">
        <ele>5</ele>
        <time>2012-09-18T15:36:35Z</time>
      </trkpt>
      <trkpt lat="46.29743" lon="-0.72598">
        <ele>5</ele>
        <time>2012-09-18T15:36:40Z</time>
      </trkpt>
      <trkpt lat="46.29742" lon="-0.72591">
        <ele>5</ele>
        <time>2012-09-18T15:36:45Z</time>
      </trkpt>
      <trkpt lat="46.29742" lon="-0.72581">
        <ele>5</ele>
        <time>2012-09-18T15:36:50Z</time>
      </trkpt>
      <trkpt lat="46.29743" lon="-0.72571">
        <ele>5</ele>
        <time>2012-09-18T15:36:55Z</time>
      </trkpt>
      <trkpt lat="46.29741" lon="-0.72562">
        <ele>5</ele>
        <time>2012-09-18T15:37:00Z</time>
      </trkpt>
      <trkpt lat="46.29738" lon="-0.72554">
        <ele>5</ele>
        <time>2012-09-18T15:37:05Z</time>
      </trkpt>
      <trkpt lat="46.29735" lon="-0.72546">
        <ele>5</ele>
        <time>2012-09-18T15:37:10Z</time>
      </trkpt>
      <trkpt lat="46.29731" lon="-0.72538">
        <ele>4</ele>
        <time>2012-09-18T15:37:15Z</time>
      </trkpt>
      <trkpt lat="46.29729" lon="-0.72531">
        <ele>4</ele>
        <time>2012-09-18T15:37:20Z</time>
      </trkpt>
      <trkpt lat="46.29727" lon="-0.72521">
        <ele>4</ele>
        <time>2012-09-18T15:37:25Z</time>
      </trkpt>
      <trkpt lat="46.29725" lon="-0.72512">
        <ele>4</ele>
        <time>2012-09-18T15:37:30Z</time>
      </trkpt>
      <trkpt lat="46.29724" lon="-0.72505">
        <ele>4</ele>
        <time>2012-09-18T15:37:35Z</time>
      </trkpt>
      <trkpt lat="46.29722" lon="-0.72497">
        <ele>4</ele>
        <time>2012-09-18T15:37:40Z</time>
      </trkpt>
      <trkpt lat="46.29721" lon="-0.72489">
        <ele>4</ele>
        <time>2012-09-18T15:37:45Z</time>
      </trkpt>
      <trkpt lat="46.29721" lon="-0.72484">
        <ele>4</ele>
        <time>2012-09-18T15:37:50Z</time>
      </trkpt>
      <trkpt lat="46.29719" lon="-0.72478">
        <ele>4</ele>
        <time>2012-09-18T15:37:55Z</time>
      </trkpt>
      <trkpt lat="46.29716" lon="-0.7247">
        <ele>4</ele>
        <time>2012-09-18T15:38:00Z</time>
      </trkpt>
      <trkpt lat="46.29714" lon="-0.72462">
        <ele>4</ele>
        <time>2012-09-18T15:38:05Z</time>
      </trkpt>
      <trkpt lat="46.29711" lon="-0.72455">
        <ele>4</ele>
        <time>2012-09-18T15:38:10Z</time>
      </trkpt>
      <trkpt lat="46.29709" lon="-0.72449">
        <ele>4</ele>
        <time>2012-09-18T15:38:15Z</time>
      </trkpt>
      <trkpt lat="46.29706" lon="-0.72444">
        <ele>4</ele>
        <time>2012-09-18T15:38:20Z</time>
      </trkpt>
      <trkpt lat="46.29703" lon="-0.72439">
        <ele>4</ele>
        <time>2012-09-18T15:38:25Z</time>
      </trkpt>
      <trkpt lat="46.29699" lon="-0.72434">
        <ele>4</ele>
        <time>2012-09-18T15:38:30Z</time>
      </trkpt>
      <trkpt lat="46.29696" lon="-0.72427">
        <ele>4</ele>
        <time>2012-09-18T15:38:35Z</time>
      </trkpt>
      <trkpt lat="46.29694" lon="-0.72421">
        <ele>4</ele>
        <time>2012-09-18T15:38:40Z</time>
      </trkpt>
      <trkpt lat="46.29691" lon="-0.72417">
        <ele>4</ele>
        <time>2012-09-18T15:38:45Z</time>
      </trkpt>
      <trkpt lat="46.29688" lon="-0.72409">
        <ele>4</ele>
        <time>2012-09-18T15:38:50Z</time>
      </trkpt>
      <trkpt lat="46.29684" lon="-0.72404">
        <ele>4</ele>
        <time>2012-09-18T15:38:55Z</time>
      </trkpt>
      <trkpt lat="46.29682" lon="-0.72397">
        <ele>4</ele>
        <time>2012-09-18T15:39:00Z</time>
      </trkpt>
      <trkpt lat="46.2968" lon="-0.72387">
        <ele>4</ele>
        <time>2012-09-18T15:39:05Z</time>
      </trkpt>
      <trkpt lat="46.29677" lon="-0.7238">
        <ele>4</ele>
        <time>2012-09-18T15:39:10Z</time>
      </trkpt>
      <trkpt lat="46.29676" lon="-0.72373">
        <ele>5</ele>
        <time>2012-09-18T15:39:15Z</time>
      </trkpt>
      <trkpt lat="46.29674" lon="-0.72365">
        <ele>5</ele>
        <time>2012-09-18T15:39:20Z</time>
      </trkpt>
      <trkpt lat="46.29672" lon="-0.72357">
        <ele>5</ele>
        <time>2012-09-18T15:39:25Z</time>
      </trkpt>
      <trkpt lat="46.29669" lon="-0.72349">
        <ele>5</ele>
        <time>2012-09-18T15:39:30Z</time>
      </trkpt>
      <trkpt lat="46.29668" lon="-0.72344">
        <ele>5</ele>
        <time>2012-09-18T15:39:35Z</time>
      </trkpt>
      <trkpt lat="46.29667" lon="-0.72334">
        <ele>5</ele>
        <time>2012-09-18T15:39:40Z</time>
      </trkpt>
      <trkpt lat="46.29662" lon="-0.7233">
        <ele>5</ele>
        <time>2012-09-18T15:39:45Z</time>
      </trkpt>
      <trkpt lat="46.2966" lon="-0.72325">
        <ele>5</ele>
        <time>2012-09-18T15:39:50Z</time>
      </trkpt>
      <trkpt lat="46.29656" lon="-0.72321">
        <ele>5</ele>
        <time>2012-09-18T15:39:55Z</time>
      </trkpt>
      <trkpt lat="46.29657" lon="-0.72322">
        <ele>5</ele>
        <time>2012-09-18T15:40:00Z</time>
      </trkpt>
      <trkpt lat="46.29656" lon="-0.72322">
        <ele>5</ele>
        <time>2012-09-18T15:40:05Z</time>
      </trkpt>
      <trkpt lat="46.29653" lon="-0.72321">
        <ele>5</ele>
        <time>2012-09-18T15:40:10Z</time>
      </trkpt>
      <trkpt lat="46.29642" lon="-0.72314">
        <ele>5</ele>
        <time>2012-09-18T15:40:15Z</time>
      </trkpt>
      <trkpt lat="46.29638" lon="-0.72306">
        <ele>5</ele>
        <time>2012-09-18T15:40:20Z</time>
      </trkpt>
      <trkpt lat="46.29638" lon="-0.72298">
        <ele>5</ele>
        <time>2012-09-18T15:40:25Z</time>
      </trkpt>
      <trkpt lat="46.29634" lon="-0.72291">
        <ele>5</ele>
        <time>2012-09-18T15:40:30Z</time>
      </trkpt>
      <trkpt lat="46.2963" lon="-0.72287">
        <ele>5</ele>
        <time>2012-09-18T15:40:35Z</time>
      </trkpt>
      <trkpt lat="46.29627" lon="-0.72284">
        <ele>5</ele>
        <time>2012-09-18T15:40:40Z</time>
      </trkpt>
      <trkpt lat="46.29624" lon="-0.72278">
        <ele>4</ele>
        <time>2012-09-18T15:40:45Z</time>
      </trkpt>
      <trkpt lat="46.2962" lon="-0.72271">
        <ele>4</ele>
        <time>2012-09-18T15:40:50Z</time>
      </trkpt>
      <trkpt lat="46.29618" lon="-0.72262">
        <ele>4</ele>
        <time>2012-09-18T15:40:55Z</time>
      </trkpt>
      <trkpt lat="46.29615" lon="-0.72255">
        <ele>4</ele>
        <time>2012-09-18T15:41:00Z</time>
      </trkpt>
      <trkpt lat="46.29612" lon="-0.72251">
        <ele>4</ele>
        <time>2012-09-18T15:41:05Z</time>
      </trkpt>
      <trkpt lat="46.29611" lon="-0.72244">
        <ele>4</ele>
        <time>2012-09-18T15:41:10Z</time>
      </trkpt>
      <trkpt lat="46.29608" lon="-0.72239">
        <ele>4</ele>
        <time>2012-09-18T15:41:15Z</time>
      </trkpt>
      <trkpt lat="46.29601" lon="-0.72231">
        <ele>4</ele>
        <time>2012-09-18T15:41:20Z</time>
      </trkpt>
      <trkpt lat="46.29597" lon="-0.72225">
        <ele>4</ele>
        <time>2012-09-18T15:41:25Z</time>
      </trkpt>
      <trkpt lat="46.29596" lon="-0.72222">
        <ele>4</ele>
        <time>2012-09-18T15:41:30Z</time>
      </trkpt>
      <trkpt lat="46.29597" lon="-0.72223">
        <ele>4</ele>
        <time>2012-09-18T15:41:35Z</time>
      </trkpt>
      <trkpt lat="46.29596" lon="-0.72222">
        <ele>4</ele>
        <time>2012-09-18T15:41:40Z</time>
      </trkpt>
      <trkpt lat="46.29593" lon="-0.72218">
        <ele>4</ele>
        <time>2012-09-18T15:41:45Z</time>
      </trkpt>
      <trkpt lat="46.29589" lon="-0.72212">
        <ele>4</ele>
        <time>2012-09-18T15:41:50Z</time>
      </trkpt>
      <trkpt lat="46.29584" lon="-0.72205">
        <ele>4</ele>
        <time>2012-09-18T15:41:55Z</time>
      </trkpt>
      <trkpt lat="46.29581" lon="-0.722">
        <ele>4</ele>
        <time>2012-09-18T15:42:00Z</time>
      </trkpt>
      <trkpt lat="46.2958" lon="-0.72192">
        <ele>4</ele>
        <time>2012-09-18T15:42:05Z</time>
      </trkpt>
      <trkpt lat="46.29575" lon="-0.72184">
        <ele>4</ele>
        <time>2012-09-18T15:42:10Z</time>
      </trkpt>
      <trkpt lat="46.29572" lon="-0.72176">
        <ele>4</ele>
        <time>2012-09-18T15:42:15Z</time>
      </trkpt>
      <trkpt lat="46.29567" lon="-0.72171">
        <ele>4</ele>
        <time>2012-09-18T15:42:20Z</time>
      </trkpt>
      <trkpt lat="46.29565" lon="-0.72166">
        <ele>4</ele>
        <time>2012-09-18T15:42:25Z</time>
      </trkpt>
      <trkpt lat="46.29562" lon="-0.72161">
        <ele>4</ele>
        <time>2012-09-18T15:42:30Z</time>
      </trkpt>
      <trkpt lat="46.29559" lon="-0.72156">
        <ele>4</ele>
        <time>2012-09-18T15:42:35Z</time>
      </trkpt>
      <trkpt lat="46.29554" lon="-0.72151">
        <ele>4</ele>
        <time>2012-09-18T15:42:40Z</time>
      </trkpt>
      <trkpt lat="46.29551" lon="-0.72147">
        <ele>4</ele>
        <time>2012-09-18T15:42:45Z</time>
      </trkpt>
      <trkpt lat="46.29547" lon="-0.72141">
        <ele>4</ele>
        <time>2012-09-18T15:42:50Z</time>
      </trkpt>
      <trkpt lat="46.29544" lon="-0.72136">
        <ele>4</ele>
        <time>2012-09-18T15:42:55Z</time>
      </trkpt>
      <trkpt lat="46.2954" lon="-0.72132">
        <ele>6</ele>
        <time>2012-09-18T15:43:00Z</time>
      </trkpt>
      <trkpt lat="46.29536" lon="-0.72127">
        <ele>6</ele>
        <time>2012-09-18T15:43:05Z</time>
      </trkpt>
      <trkpt lat="46.29531" lon="-0.72119">
        <ele>6</ele>
        <time>2012-09-18T15:43:10Z</time>
      </trkpt>
      <trkpt lat="46.29525" lon="-0.72117">
        <ele>6</ele>
        <time>2012-09-18T15:43:15Z</time>
      </trkpt>
      <trkpt lat="46.29522" lon="-0.7211">
        <ele>6</ele>
        <time>2012-09-18T15:43:20Z</time>
      </trkpt>
      <trkpt lat="46.29522" lon="-0.72103">
        <ele>6</ele>
        <time>2012-09-18T15:43:25Z</time>
      </trkpt>
      <trkpt lat="46.29515" lon="-0.72099">
        <ele>6</ele>
        <time>2012-09-18T15:43:30Z</time>
      </trkpt>
      <trkpt lat="46.29514" lon="-0.72093">
        <ele>6</ele>
        <time>2012-09-18T15:43:35Z</time>
      </trkpt>
      <trkpt lat="46.29513" lon="-0.72096">
        <ele>6</ele>
        <time>2012-09-18T15:43:45Z</time>
      </trkpt>
      <trkpt lat="46.29507" lon="-0.7209">
        <ele>6</ele>
        <time>2012-09-18T15:43:55Z</time>
      </trkpt>
      <trkpt lat="46.29503" lon="-0.72085">
        <ele>6</ele>
        <time>2012-09-18T15:44:00Z</time>
      </trkpt>
      <trkpt lat="46.295" lon="-0.72079">
        <ele>6</ele>
        <time>2012-09-18T15:44:05Z</time>
      </trkpt>
      <trkpt lat="46.29494" lon="-0.72074">
        <ele>6</ele>
        <time>2012-09-18T15:44:10Z</time>
      </trkpt>
      <trkpt lat="46.29492" lon="-0.72068">
        <ele>6</ele>
        <time>2012-09-18T15:44:15Z</time>
      </trkpt>
      <trkpt lat="46.29488" lon="-0.72062">
        <ele>6</ele>
        <time>2012-09-18T15:44:20Z</time>
      </trkpt>
      <trkpt lat="46.29486" lon="-0.7206">
        <ele>6</ele>
        <time>2012-09-18T15:44:25Z</time>
      </trkpt>
      <trkpt lat="46.29485" lon="-0.72051">
        <ele>6</ele>
        <time>2012-09-18T15:44:30Z</time>
      </trkpt>
      <trkpt lat="46.29481" lon="-0.72044">
        <ele>6</ele>
        <time>2012-09-18T15:44:35Z</time>
      </trkpt>
      <trkpt lat="46.2948" lon="-0.72037">
        <ele>7</ele>
        <time>2012-09-18T15:44:40Z</time>
      </trkpt>
      <trkpt lat="46.29477" lon="-0.72031">
        <ele>7</ele>
        <time>2012-09-18T15:44:45Z</time>
      </trkpt>
      <trkpt lat="46.29468" lon="-0.72025">
        <ele>7</ele>
        <time>2012-09-18T15:44:50Z</time>
      </trkpt>
      <trkpt lat="46.29463" lon="-0.72017">
        <ele>7</ele>
        <time>2012-09-18T15:44:55Z</time>
      </trkpt>
      <trkpt lat="46.29456" lon="-0.72009">
        <ele>6</ele>
        <time>2012-09-18T15:45:00Z</time>
      </trkpt>
      <trkpt lat="46.29449" lon="-0.72001">
        <ele>6</ele>
        <time>2012-09-18T15:45:05Z</time>
      </trkpt>
      <trkpt lat="46.29443" lon="-0.71995">
        <ele>6</ele>
        <time>2012-09-18T15:45:10Z</time>
      </trkpt>
      <trkpt lat="46.29437" lon="-0.71988">
        <ele>6</ele>
        <time>2012-09-18T15:45:15Z</time>
      </trkpt>
      <trkpt lat="46.2943" lon="-0.71983">
        <ele>6</ele>
        <time>2012-09-18T15:45:20Z</time>
      </trkpt>
      <trkpt lat="46.29426" lon="-0.71978">
        <ele>6</ele>
        <time>2012-09-18T15:45:25Z</time>
      </trkpt>
      <trkpt lat="46.29422" lon="-0.71972">
        <ele>6</ele>
        <time>2012-09-18T15:45:30Z</time>
      </trkpt>
      <trkpt lat="46.29419" lon="-0.71966">
        <ele>6</ele>
        <time>2012-09-18T15:45:35Z</time>
      </trkpt>
      <trkpt lat="46.29416" lon="-0.71961">
        <ele>6</ele>
        <time>2012-09-18T15:45:40Z</time>
      </trkpt>
      <trkpt lat="46.29411" lon="-0.71956">
        <ele>5</ele>
        <time>2012-09-18T15:45:45Z</time>
      </trkpt>
      <trkpt lat="46.29405" lon="-0.71952">
        <ele>5</ele>
        <time>2012-09-18T15:45:50Z</time>
      </trkpt>
      <trkpt lat="46.29398" lon="-0.71948">
        <ele>5</ele>
        <time>2012-09-18T15:45:55Z</time>
      </trkpt>
      <trkpt lat="46.29396" lon="-0.71944">
        <ele>5</ele>
        <time>2012-09-18T15:46:00Z</time>
      </trkpt>
      <trkpt lat="46.29395" lon="-0.71938">
        <ele>5</ele>
        <time>2012-09-18T15:46:05Z</time>
      </trkpt>
      <trkpt lat="46.29394" lon="-0.7193">
        <ele>5</ele>
        <time>2012-09-18T15:46:10Z</time>
      </trkpt>
      <trkpt lat="46.2939" lon="-0.71923">
        <ele>5</ele>
        <time>2012-09-18T15:46:15Z</time>
      </trkpt>
      <trkpt lat="46.29384" lon="-0.7192">
        <ele>5</ele>
        <time>2012-09-18T15:46:20Z</time>
      </trkpt>
      <trkpt lat="46.2938" lon="-0.71916">
        <ele>5</ele>
        <time>2012-09-18T15:46:25Z</time>
      </trkpt>
      <trkpt lat="46.29377" lon="-0.7191">
        <ele>5</ele>
        <time>2012-09-18T15:46:30Z</time>
      </trkpt>
      <trkpt lat="46.29375" lon="-0.71903">
        <ele>5</ele>
        <time>2012-09-18T15:46:35Z</time>
      </trkpt>
      <trkpt lat="46.29374" lon="-0.71901">
        <ele>7</ele>
        <time>2012-09-18T15:46:40Z</time>
      </trkpt>
      <trkpt lat="46.29376" lon="-0.71902">
        <ele>5</ele>
        <time>2012-09-18T15:46:45Z</time>
      </trkpt>
      <trkpt lat="46.29381" lon="-0.719">
        <ele>5</ele>
        <time>2012-09-18T15:46:50Z</time>
      </trkpt>
      <trkpt lat="46.29387" lon="-0.71895">
        <ele>5</ele>
        <time>2012-09-18T15:46:55Z</time>
      </trkpt>
      <trkpt lat="46.29389" lon="-0.71891">
        <ele>5</ele>
        <time>2012-09-18T15:47:00Z</time>
      </trkpt>
      <trkpt lat="46.29391" lon="-0.71889">
        <ele>5</ele>
        <time>2012-09-18T15:47:05Z</time>
      </trkpt>
      <trkpt lat="46.29395" lon="-0.71886">
        <ele>5</ele>
        <time>2012-09-18T15:47:10Z</time>
      </trkpt>
      <trkpt lat="46.29394" lon="-0.71884">
        <ele>5</ele>
        <time>2012-09-18T15:47:15Z</time>
      </trkpt>
      <trkpt lat="46.29399" lon="-0.7188">
        <ele>5</ele>
        <time>2012-09-18T15:47:20Z</time>
      </trkpt>
      <trkpt lat="46.29405" lon="-0.71878">
        <ele>5</ele>
        <time>2012-09-18T15:47:25Z</time>
      </trkpt>
      <trkpt lat="46.29411" lon="-0.71872">
        <ele>4</ele>
        <time>2012-09-18T15:47:30Z</time>
      </trkpt>
      <trkpt lat="46.29419" lon="-0.71868">
        <ele>4</ele>
        <time>2012-09-18T15:47:35Z</time>
      </trkpt>
      <trkpt lat="46.29426" lon="-0.71861">
        <ele>4</ele>
        <time>2012-09-18T15:47:40Z</time>
      </trkpt>
      <trkpt lat="46.29433" lon="-0.71857">
        <ele>4</ele>
        <time>2012-09-18T15:47:45Z</time>
      </trkpt>
      <trkpt lat="46.29438" lon="-0.71856">
        <ele>4</ele>
        <time>2012-09-18T15:47:50Z</time>
      </trkpt>
      <trkpt lat="46.29438" lon="-0.71855">
        <ele>4</ele>
        <time>2012-09-18T15:47:55Z</time>
      </trkpt>
      <trkpt lat="46.29443" lon="-0.71853">
        <ele>4</ele>
        <time>2012-09-18T15:48:00Z</time>
      </trkpt>
      <trkpt lat="46.29443" lon="-0.71854">
        <ele>4</ele>
        <time>2012-09-18T15:48:05Z</time>
      </trkpt>
      <trkpt lat="46.29446" lon="-0.71848">
        <ele>4</ele>
        <time>2012-09-18T15:48:10Z</time>
      </trkpt>
      <trkpt lat="46.29451" lon="-0.71844">
        <ele>4</ele>
        <time>2012-09-18T15:48:15Z</time>
      </trkpt>
      <trkpt lat="46.29458" lon="-0.71835">
        <ele>4</ele>
        <time>2012-09-18T15:48:20Z</time>
      </trkpt>
      <trkpt lat="46.29462" lon="-0.7183">
        <ele>5</ele>
        <time>2012-09-18T15:48:25Z</time>
      </trkpt>
      <trkpt lat="46.29467" lon="-0.71824">
        <ele>5</ele>
        <time>2012-09-18T15:48:30Z</time>
      </trkpt>
      <trkpt lat="46.29476" lon="-0.71817">
        <ele>5</ele>
        <time>2012-09-18T15:48:35Z</time>
      </trkpt>
      <trkpt lat="46.29482" lon="-0.71813">
        <ele>5</ele>
        <time>2012-09-18T15:48:40Z</time>
      </trkpt>
      <trkpt lat="46.29487" lon="-0.7181">
        <ele>5</ele>
        <time>2012-09-18T15:48:45Z</time>
      </trkpt>
      <trkpt lat="46.2949" lon="-0.71807">
        <ele>5</ele>
        <time>2012-09-18T15:48:50Z</time>
      </trkpt>
      <trkpt lat="46.29495" lon="-0.71803">
        <ele>5</ele>
        <time>2012-09-18T15:48:55Z</time>
      </trkpt>
      <trkpt lat="46.29499" lon="-0.71794">
        <ele>5</ele>
        <time>2012-09-18T15:49:00Z</time>
      </trkpt>
      <trkpt lat="46.29503" lon="-0.7179">
        <ele>4</ele>
        <time>2012-09-18T15:49:05Z</time>
      </trkpt>
      <trkpt lat="46.29507" lon="-0.71784">
        <ele>4</ele>
        <time>2012-09-18T15:49:10Z</time>
      </trkpt>
      <trkpt lat="46.29514" lon="-0.71783">
        <ele>4</ele>
        <time>2012-09-18T15:49:15Z</time>
      </trkpt>
      <trkpt lat="46.29518" lon="-0.7178">
        <ele>4</ele>
        <time>2012-09-18T15:49:20Z</time>
      </trkpt>
      <trkpt lat="46.29524" lon="-0.71777">
        <ele>4</ele>
        <time>2012-09-18T15:49:25Z</time>
      </trkpt>
      <trkpt lat="46.2953" lon="-0.71774">
        <ele>4</ele>
        <time>2012-09-18T15:49:30Z</time>
      </trkpt>
      <trkpt lat="46.29535" lon="-0.71769">
        <ele>4</ele>
        <time>2012-09-18T15:49:35Z</time>
      </trkpt>
      <trkpt lat="46.29536" lon="-0.71765">
        <ele>4</ele>
        <time>2012-09-18T15:49:40Z</time>
      </trkpt>
      <trkpt lat="46.2954" lon="-0.71758">
        <ele>4</ele>
        <time>2012-09-18T15:49:45Z</time>
      </trkpt>
      <trkpt lat="46.29543" lon="-0.7175">
        <ele>4</ele>
        <time>2012-09-18T15:49:50Z</time>
      </trkpt>
      <trkpt lat="46.29546" lon="-0.71744">
        <ele>4</ele>
        <time>2012-09-18T15:49:55Z</time>
      </trkpt>
      <trkpt lat="46.29549" lon="-0.71738">
        <ele>4</ele>
        <time>2012-09-18T15:50:00Z</time>
      </trkpt>
      <trkpt lat="46.29553" lon="-0.71735">
        <ele>4</ele>
        <time>2012-09-18T15:50:05Z</time>
      </trkpt>
      <trkpt lat="46.29557" lon="-0.71736">
        <ele>4</ele>
        <time>2012-09-18T15:50:10Z</time>
      </trkpt>
      <trkpt lat="46.2956" lon="-0.71732">
        <ele>4</ele>
        <time>2012-09-18T15:50:15Z</time>
      </trkpt>
      <trkpt lat="46.29563" lon="-0.7173">
        <ele>4</ele>
        <time>2012-09-18T15:50:20Z</time>
      </trkpt>
      <trkpt lat="46.29567" lon="-0.7173">
        <ele>4</ele>
        <time>2012-09-18T15:50:25Z</time>
      </trkpt>
      <trkpt lat="46.29572" lon="-0.71724">
        <ele>4</ele>
        <time>2012-09-18T15:50:30Z</time>
      </trkpt>
      <trkpt lat="46.29575" lon="-0.71719">
        <ele>4</ele>
        <time>2012-09-18T15:50:35Z</time>
      </trkpt>
      <trkpt lat="46.29581" lon="-0.71714">
        <ele>4</ele>
        <time>2012-09-18T15:50:40Z</time>
      </trkpt>
      <trkpt lat="46.29589" lon="-0.71707">
        <ele>4</ele>
        <time>2012-09-18T15:50:45Z</time>
      </trkpt>
      <trkpt lat="46.29594" lon="-0.71703">
        <ele>4</ele>
        <time>2012-09-18T15:50:50Z</time>
      </trkpt>
      <trkpt lat="46.296" lon="-0.717">
        <ele>4</ele>
        <time>2012-09-18T15:50:55Z</time>
      </trkpt>
      <trkpt lat="46.29605" lon="-0.71694">
        <ele>4</ele>
        <time>2012-09-18T15:51:00Z</time>
      </trkpt>
      <trkpt lat="46.29609" lon="-0.71687">
        <ele>4</ele>
        <time>2012-09-18T15:51:05Z</time>
      </trkpt>
      <trkpt lat="46.29612" lon="-0.71679">
        <ele>4</ele>
        <time>2012-09-18T15:51:10Z</time>
      </trkpt>
      <trkpt lat="46.29618" lon="-0.71674">
        <ele>4</ele>
        <time>2012-09-18T15:51:15Z</time>
      </trkpt>
      <trkpt lat="46.29619" lon="-0.7167">
        <ele>4</ele>
        <time>2012-09-18T15:51:20Z</time>
      </trkpt>
      <trkpt lat="46.29625" lon="-0.71666">
        <ele>4</ele>
        <time>2012-09-18T15:51:25Z</time>
      </trkpt>
      <trkpt lat="46.29631" lon="-0.71659">
        <ele>5</ele>
        <time>2012-09-18T15:51:30Z</time>
      </trkpt>
      <trkpt lat="46.29635" lon="-0.71653">
        <ele>5</ele>
        <time>2012-09-18T15:51:35Z</time>
      </trkpt>
      <trkpt lat="46.29636" lon="-0.71645">
        <ele>5</ele>
        <time>2012-09-18T15:51:40Z</time>
      </trkpt>
      <trkpt lat="46.29639" lon="-0.71637">
        <ele>5</ele>
        <time>2012-09-18T15:51:45Z</time>
      </trkpt>
      <trkpt lat="46.29642" lon="-0.71631">
        <ele>5</ele>
        <time>2012-09-18T15:51:50Z</time>
      </trkpt>
      <trkpt lat="46.29642" lon="-0.71621">
        <ele>6</ele>
        <time>2012-09-18T15:51:55Z</time>
      </trkpt>
      <trkpt lat="46.2965" lon="-0.7162">
        <ele>6</ele>
        <time>2012-09-18T15:52:00Z</time>
      </trkpt>
      <trkpt lat="46.29656" lon="-0.71615">
        <ele>6</ele>
        <time>2012-09-18T15:52:05Z</time>
      </trkpt>
      <trkpt lat="46.29656" lon="-0.71611">
        <ele>6</ele>
        <time>2012-09-18T15:52:10Z</time>
      </trkpt>
      <trkpt lat="46.29654" lon="-0.71605">
        <ele>6</ele>
        <time>2012-09-18T15:52:15Z</time>
      </trkpt>
      <trkpt lat="46.29648" lon="-0.71598">
        <ele>6</ele>
        <time>2012-09-18T15:52:20Z</time>
      </trkpt>
      <trkpt lat="46.29647" lon="-0.71597">
        <ele>6</ele>
        <time>2012-09-18T15:52:25Z</time>
      </trkpt>
      <trkpt lat="46.29647" lon="-0.71597">
        <ele>6</ele>
        <time>2012-09-18T15:52:30Z</time>
      </trkpt>
      <trkpt lat="46.2965" lon="-0.71592">
        <ele>6</ele>
        <time>2012-09-18T15:54:20Z</time>
      </trkpt>
      <trkpt lat="46.29653" lon="-0.71591">
        <ele>6</ele>
        <time>2012-09-18T15:54:25Z</time>
      </trkpt>
      <trkpt lat="46.29657" lon="-0.71587">
        <ele>6</ele>
        <time>2012-09-18T15:54:30Z</time>
      </trkpt>
      <trkpt lat="46.2966" lon="-0.71583">
        <ele>6</ele>
        <time>2012-09-18T15:54:35Z</time>
      </trkpt>
      <trkpt lat="46.29663" lon="-0.71576">
        <ele>6</ele>
        <time>2012-09-18T15:54:40Z</time>
      </trkpt>
      <trkpt lat="46.29665" lon="-0.71574">
        <ele>6</ele>
        <time>2012-09-18T15:54:45Z</time>
      </trkpt>
      <trkpt lat="46.29669" lon="-0.71568">
        <ele>6</ele>
        <time>2012-09-18T15:54:50Z</time>
      </trkpt>
      <trkpt lat="46.29672" lon="-0.71561">
        <ele>6</ele>
        <time>2012-09-18T15:54:55Z</time>
      </trkpt>
      <trkpt lat="46.29677" lon="-0.71556">
        <ele>6</ele>
        <time>2012-09-18T15:55:00Z</time>
      </trkpt>
      <trkpt lat="46.2968" lon="-0.71552">
        <ele>6</ele>
        <time>2012-09-18T15:55:05Z</time>
      </trkpt>
      <trkpt lat="46.29682" lon="-0.71547">
        <ele>6</ele>
        <time>2012-09-18T15:55:10Z</time>
      </trkpt>
      <trkpt lat="46.29686" lon="-0.71539">
        <ele>4</ele>
        <time>2012-09-18T15:55:15Z</time>
      </trkpt>
      <trkpt lat="46.2969" lon="-0.71533">
        <ele>4</ele>
        <time>2012-09-18T15:55:20Z</time>
      </trkpt>
      <trkpt lat="46.29692" lon="-0.71528">
        <ele>4</ele>
        <time>2012-09-18T15:55:25Z</time>
      </trkpt>
      <trkpt lat="46.29696" lon="-0.71523">
        <ele>4</ele>
        <time>2012-09-18T15:55:30Z</time>
      </trkpt>
      <trkpt lat="46.297" lon="-0.71516">
        <ele>4</ele>
        <time>2012-09-18T15:55:35Z</time>
      </trkpt>
      <trkpt lat="46.29702" lon="-0.71511">
        <ele>4</ele>
        <time>2012-09-18T15:55:40Z</time>
      </trkpt>
      <trkpt lat="46.29703" lon="-0.71509">
        <ele>4</ele>
        <time>2012-09-18T15:55:45Z</time>
      </trkpt>
      <trkpt lat="46.29705" lon="-0.71506">
        <ele>4</ele>
        <time>2012-09-18T15:55:50Z</time>
      </trkpt>
      <trkpt lat="46.29712" lon="-0.71495">
        <ele>7</ele>
        <time>2012-09-18T15:55:55Z</time>
      </trkpt>
      <trkpt lat="46.29719" lon="-0.71487">
        <ele>7</ele>
        <time>2012-09-18T15:56:00Z</time>
      </trkpt>
      <trkpt lat="46.29721" lon="-0.71482">
        <ele>7</ele>
        <time>2012-09-18T15:56:05Z</time>
      </trkpt>
      <trkpt lat="46.29724" lon="-0.71478">
        <ele>7</ele>
        <time>2012-09-18T15:56:10Z</time>
      </trkpt>
      <trkpt lat="46.29726" lon="-0.71472">
        <ele>7</ele>
        <time>2012-09-18T15:56:15Z</time>
      </trkpt>
      <trkpt lat="46.29729" lon="-0.71467">
        <ele>7</ele>
        <time>2012-09-18T15:56:20Z</time>
      </trkpt>
      <trkpt lat="46.29732" lon="-0.71461">
        <ele>7</ele>
        <time>2012-09-18T15:56:25Z</time>
      </trkpt>
      <trkpt lat="46.29735" lon="-0.71456">
        <ele>7</ele>
        <time>2012-09-18T15:56:30Z</time>
      </trkpt>
      <trkpt lat="46.29738" lon="-0.71448">
        <ele>7</ele>
        <time>2012-09-18T15:56:35Z</time>
      </trkpt>
      <trkpt lat="46.2974" lon="-0.71442">
        <ele>7</ele>
        <time>2012-09-18T15:56:40Z</time>
      </trkpt>
      <trkpt lat="46.29744" lon="-0.71436">
        <ele>7</ele>
        <time>2012-09-18T15:56:45Z</time>
      </trkpt>
      <trkpt lat="46.2975" lon="-0.71427">
        <ele>7</ele>
        <time>2012-09-18T15:56:50Z</time>
      </trkpt>
      <trkpt lat="46.29755" lon="-0.71421">
        <ele>7</ele>
        <time>2012-09-18T15:56:55Z</time>
      </trkpt>
      <trkpt lat="46.29762" lon="-0.71412">
        <ele>7</ele>
        <time>2012-09-18T15:57:00Z</time>
      </trkpt>
      <trkpt lat="46.29767" lon="-0.71404">
        <ele>7</ele>
        <time>2012-09-18T15:57:05Z</time>
      </trkpt>
      <trkpt lat="46.29772" lon="-0.71398">
        <ele>7</ele>
        <time>2012-09-18T15:57:10Z</time>
      </trkpt>
      <trkpt lat="46.29779" lon="-0.71391">
        <ele>7</ele>
        <time>2012-09-18T15:57:15Z</time>
      </trkpt>
      <trkpt lat="46.29779" lon="-0.71383">
        <ele>7</ele>
        <time>2012-09-18T15:57:20Z</time>
      </trkpt>
      <trkpt lat="46.29778" lon="-0.71377">
        <ele>7</ele>
        <time>2012-09-18T15:57:25Z</time>
      </trkpt>
      <trkpt lat="46.29781" lon="-0.71377">
        <ele>7</ele>
        <time>2012-09-18T15:57:30Z</time>
      </trkpt>
      <trkpt lat="46.29786" lon="-0.71375">
        <ele>7</ele>
        <time>2012-09-18T15:57:35Z</time>
      </trkpt>
      <trkpt lat="46.29788" lon="-0.71376">
        <ele>7</ele>
        <time>2012-09-18T15:57:40Z</time>
      </trkpt>
      <trkpt lat="46.29787" lon="-0.71375">
        <ele>7</ele>
        <time>2012-09-18T15:57:45Z</time>
      </trkpt>
      <trkpt lat="46.29787" lon="-0.71375">
        <ele>7</ele>
        <time>2012-09-18T15:57:50Z</time>
      </trkpt>
      <trkpt lat="46.2979" lon="-0.71376">
        <ele>7</ele>
        <time>2012-09-18T15:57:55Z</time>
      </trkpt>
      <trkpt lat="46.29796" lon="-0.71374">
        <ele>8</ele>
        <time>2012-09-18T15:58:00Z</time>
      </trkpt>
      <trkpt lat="46.29803" lon="-0.71366">
        <ele>8</ele>
        <time>2012-09-18T15:58:05Z</time>
      </trkpt>
      <trkpt lat="46.29806" lon="-0.71361">
        <ele>8</ele>
        <time>2012-09-18T15:58:10Z</time>
      </trkpt>
      <trkpt lat="46.29811" lon="-0.71355">
        <ele>8</ele>
        <time>2012-09-18T15:58:15Z</time>
      </trkpt>
      <trkpt lat="46.29817" lon="-0.71351">
        <ele>8</ele>
        <time>2012-09-18T15:58:20Z</time>
      </trkpt>
      <trkpt lat="46.29823" lon="-0.71347">
        <ele>8</ele>
        <time>2012-09-18T15:58:25Z</time>
      </trkpt>
      <trkpt lat="46.29825" lon="-0.71342">
        <ele>8</ele>
        <time>2012-09-18T15:58:30Z</time>
      </trkpt>
      <trkpt lat="46.29827" lon="-0.71337">
        <ele>8</ele>
        <time>2012-09-18T15:58:35Z</time>
      </trkpt>
      <trkpt lat="46.29829" lon="-0.71332">
        <ele>8</ele>
        <time>2012-09-18T15:58:40Z</time>
      </trkpt>
      <trkpt lat="46.29832" lon="-0.71327">
        <ele>8</ele>
        <time>2012-09-18T15:58:45Z</time>
      </trkpt>
      <trkpt lat="46.29835" lon="-0.71322">
        <ele>8</ele>
        <time>2012-09-18T15:58:50Z</time>
      </trkpt>
      <trkpt lat="46.2984" lon="-0.71317">
        <ele>8</ele>
        <time>2012-09-18T15:58:55Z</time>
      </trkpt>
      <trkpt lat="46.29846" lon="-0.71313">
        <ele>8</ele>
        <time>2012-09-18T15:59:00Z</time>
      </trkpt>
      <trkpt lat="46.29849" lon="-0.71308">
        <ele>8</ele>
        <time>2012-09-18T15:59:05Z</time>
      </trkpt>
      <trkpt lat="46.29853" lon="-0.71303">
        <ele>8</ele>
        <time>2012-09-18T15:59:10Z</time>
      </trkpt>
      <trkpt lat="46.29857" lon="-0.71297">
        <ele>8</ele>
        <time>2012-09-18T15:59:15Z</time>
      </trkpt>
      <trkpt lat="46.29861" lon="-0.71294">
        <ele>8</ele>
        <time>2012-09-18T15:59:20Z</time>
      </trkpt>
      <trkpt lat="46.29866" lon="-0.71288">
        <ele>9</ele>
        <time>2012-09-18T15:59:25Z</time>
      </trkpt>
      <trkpt lat="46.2987" lon="-0.71282">
        <ele>9</ele>
        <time>2012-09-18T15:59:30Z</time>
      </trkpt>
      <trkpt lat="46.29874" lon="-0.71276">
        <ele>9</ele>
        <time>2012-09-18T15:59:35Z</time>
      </trkpt>
      <trkpt lat="46.29878" lon="-0.71271">
        <ele>10</ele>
        <time>2012-09-18T15:59:40Z</time>
      </trkpt>
      <trkpt lat="46.29882" lon="-0.71267">
        <ele>10</ele>
        <time>2012-09-18T15:59:45Z</time>
      </trkpt>
      <trkpt lat="46.29887" lon="-0.71263">
        <ele>10</ele>
        <time>2012-09-18T15:59:50Z</time>
      </trkpt>
      <trkpt lat="46.29892" lon="-0.71258">
        <ele>10</ele>
        <time>2012-09-18T15:59:55Z</time>
      </trkpt>
      <trkpt lat="46.29896" lon="-0.71253">
        <ele>10</ele>
        <time>2012-09-18T16:00:00Z</time>
      </trkpt>
      <trkpt lat="46.299" lon="-0.71247">
        <ele>10</ele>
        <time>2012-09-18T16:00:05Z</time>
      </trkpt>
      <trkpt lat="46.29905" lon="-0.71242">
        <ele>10</ele>
        <time>2012-09-18T16:00:10Z</time>
      </trkpt>
      <trkpt lat="46.29908" lon="-0.71239">
        <ele>10</ele>
        <time>2012-09-18T16:00:15Z</time>
      </trkpt>
      <trkpt lat="46.29913" lon="-0.71236">
        <ele>10</ele>
        <time>2012-09-18T16:00:25Z</time>
      </trkpt>
      <trkpt lat="46.29915" lon="-0.71233">
        <ele>10</ele>
        <time>2012-09-18T16:00:40Z</time>
      </trkpt>
      <trkpt lat="46.29916" lon="-0.71233">
        <ele>10</ele>
        <time>2012-09-18T16:00:45Z</time>
      </trkpt>
      <trkpt lat="46.29917" lon="-0.71225">
        <ele>10</ele>
        <time>2012-09-18T16:01:15Z</time>
      </trkpt>
      <trkpt lat="46.29917" lon="-0.71213">
        <ele>10</ele>
        <time>2012-09-18T16:01:20Z</time>
      </trkpt>
      <trkpt lat="46.29919" lon="-0.71205">
        <ele>9</ele>
        <time>2012-09-18T16:01:25Z</time>
      </trkpt>
      <trkpt lat="46.29922" lon="-0.71198">
        <ele>9</ele>
        <time>2012-09-18T16:01:30Z</time>
      </trkpt>
      <trkpt lat="46.29925" lon="-0.71189">
        <ele>9</ele>
        <time>2012-09-18T16:01:35Z</time>
      </trkpt>
      <trkpt lat="46.29925" lon="-0.7118">
        <ele>9</ele>
        <time>2012-09-18T16:01:40Z</time>
      </trkpt>
      <trkpt lat="46.29925" lon="-0.71173">
        <ele>9</ele>
        <time>2012-09-18T16:01:45Z</time>
      </trkpt>
      <trkpt lat="46.29928" lon="-0.71166">
        <ele>9</ele>
        <time>2012-09-18T16:01:50Z</time>
      </trkpt>
      <trkpt lat="46.29929" lon="-0.71158">
        <ele>9</ele>
        <time>2012-09-18T16:01:55Z</time>
      </trkpt>
      <trkpt lat="46.2993" lon="-0.71151">
        <ele>9</ele>
        <time>2012-09-18T16:02:00Z</time>
      </trkpt>
      <trkpt lat="46.2993" lon="-0.71143">
        <ele>9</ele>
        <time>2012-09-18T16:02:05Z</time>
      </trkpt>
      <trkpt lat="46.2993" lon="-0.71133">
        <ele>9</ele>
        <time>2012-09-18T16:02:10Z</time>
      </trkpt>
      <trkpt lat="46.29933" lon="-0.71124">
        <ele>7</ele>
        <time>2012-09-18T16:02:15Z</time>
      </trkpt>
      <trkpt lat="46.29935" lon="-0.71115">
        <ele>7</ele>
        <time>2012-09-18T16:02:20Z</time>
      </trkpt>
      <trkpt lat="46.29934" lon="-0.71109">
        <ele>7</ele>
        <time>2012-09-18T16:02:25Z</time>
      </trkpt>
      <trkpt lat="46.29935" lon="-0.71103">
        <ele>7</ele>
        <time>2012-09-18T16:02:30Z</time>
      </trkpt>
      <trkpt lat="46.29935" lon="-0.71094">
        <ele>7</ele>
        <time>2012-09-18T16:02:35Z</time>
      </trkpt>
      <trkpt lat="46.29936" lon="-0.71085">
        <ele>7</ele>
        <time>2012-09-18T16:02:40Z</time>
      </trkpt>
      <trkpt lat="46.29937" lon="-0.71077">
        <ele>7</ele>
        <time>2012-09-18T16:02:45Z</time>
      </trkpt>
      <trkpt lat="46.29939" lon="-0.7107">
        <ele>7</ele>
        <time>2012-09-18T16:02:50Z</time>
      </trkpt>
      <trkpt lat="46.29941" lon="-0.7106">
        <ele>7</ele>
        <time>2012-09-18T16:02:55Z</time>
      </trkpt>
      <trkpt lat="46.29942" lon="-0.71053">
        <ele>7</ele>
        <time>2012-09-18T16:03:00Z</time>
      </trkpt>
      <trkpt lat="46.29943" lon="-0.71046">
        <ele>7</ele>
        <time>2012-09-18T16:03:05Z</time>
      </trkpt>
      <trkpt lat="46.29943" lon="-0.71039">
        <ele>6</ele>
        <time>2012-09-18T16:03:10Z</time>
      </trkpt>
      <trkpt lat="46.29946" lon="-0.71032">
        <ele>6</ele>
        <time>2012-09-18T16:03:15Z</time>
      </trkpt>
      <trkpt lat="46.29943" lon="-0.71024">
        <ele>6</ele>
        <time>2012-09-18T16:03:20Z</time>
      </trkpt>
      <trkpt lat="46.29941" lon="-0.71014">
        <ele>6</ele>
        <time>2012-09-18T16:03:25Z</time>
      </trkpt>
      <trkpt lat="46.29939" lon="-0.71004">
        <ele>6</ele>
        <time>2012-09-18T16:03:30Z</time>
      </trkpt>
      <trkpt lat="46.29935" lon="-0.70996">
        <ele>6</ele>
        <time>2012-09-18T16:03:35Z</time>
      </trkpt>
      <trkpt lat="46.29933" lon="-0.70989">
        <ele>6</ele>
        <time>2012-09-18T16:03:40Z</time>
      </trkpt>
      <trkpt lat="46.29929" lon="-0.70984">
        <ele>6</ele>
        <time>2012-09-18T16:03:45Z</time>
      </trkpt>
      <trkpt lat="46.29932" lon="-0.70974">
        <ele>6</ele>
        <time>2012-09-18T16:03:50Z</time>
      </trkpt>
      <trkpt lat="46.2993" lon="-0.70964">
        <ele>6</ele>
        <time>2012-09-18T16:03:55Z</time>
      </trkpt>
      <trkpt lat="46.29927" lon="-0.70953">
        <ele>8</ele>
        <time>2012-09-18T16:04:00Z</time>
      </trkpt>
      <trkpt lat="46.29927" lon="-0.70944">
        <ele>8</ele>
        <time>2012-09-18T16:04:05Z</time>
      </trkpt>
      <trkpt lat="46.29927" lon="-0.70934">
        <ele>8</ele>
        <time>2012-09-18T16:04:10Z</time>
      </trkpt>
      <trkpt lat="46.29928" lon="-0.70926">
        <ele>8</ele>
        <time>2012-09-18T16:04:15Z</time>
      </trkpt>
      <trkpt lat="46.29927" lon="-0.70919">
        <ele>8</ele>
        <time>2012-09-18T16:04:20Z</time>
      </trkpt>
      <trkpt lat="46.29926" lon="-0.70909">
        <ele>8</ele>
        <time>2012-09-18T16:04:25Z</time>
      </trkpt>
      <trkpt lat="46.29928" lon="-0.709">
        <ele>8</ele>
        <time>2012-09-18T16:04:30Z</time>
      </trkpt>
      <trkpt lat="46.29924" lon="-0.70893">
        <ele>8</ele>
        <time>2012-09-18T16:04:35Z</time>
      </trkpt>
      <trkpt lat="46.29921" lon="-0.70888">
        <ele>8</ele>
        <time>2012-09-18T16:04:40Z</time>
      </trkpt>
      <trkpt lat="46.29918" lon="-0.7088">
        <ele>8</ele>
        <time>2012-09-18T16:04:45Z</time>
      </trkpt>
      <trkpt lat="46.29915" lon="-0.70872">
        <ele>8</ele>
        <time>2012-09-18T16:04:50Z</time>
      </trkpt>
      <trkpt lat="46.29913" lon="-0.70866">
        <ele>8</ele>
        <time>2012-09-18T16:04:55Z</time>
      </trkpt>
      <trkpt lat="46.2991" lon="-0.70859">
        <ele>8</ele>
        <time>2012-09-18T16:05:00Z</time>
      </trkpt>
      <trkpt lat="46.29907" lon="-0.70849">
        <ele>8</ele>
        <time>2012-09-18T16:05:05Z</time>
      </trkpt>
      <trkpt lat="46.29905" lon="-0.70843">
        <ele>8</ele>
        <time>2012-09-18T16:05:10Z</time>
      </trkpt>
      <trkpt lat="46.299" lon="-0.70836">
        <ele>8</ele>
        <time>2012-09-18T16:05:15Z</time>
      </trkpt>
      <trkpt lat="46.29896" lon="-0.70834">
        <ele>8</ele>
        <time>2012-09-18T16:05:20Z</time>
      </trkpt>
      <trkpt lat="46.29892" lon="-0.70825">
        <ele>8</ele>
        <time>2012-09-18T16:05:25Z</time>
      </trkpt>
      <trkpt lat="46.2989" lon="-0.70816">
        <ele>8</ele>
        <time>2012-09-18T16:05:30Z</time>
      </trkpt>
      <trkpt lat="46.29889" lon="-0.70809">
        <ele>8</ele>
        <time>2012-09-18T16:05:35Z</time>
      </trkpt>
      <trkpt lat="46.29887" lon="-0.70801">
        <ele>8</ele>
        <time>2012-09-18T16:05:40Z</time>
      </trkpt>
      <trkpt lat="46.29882" lon="-0.70793">
        <ele>8</ele>
        <time>2012-09-18T16:05:45Z</time>
      </trkpt>
      <trkpt lat="46.29879" lon="-0.70788">
        <ele>6</ele>
        <time>2012-09-18T16:05:50Z</time>
      </trkpt>
      <trkpt lat="46.29872" lon="-0.70784">
        <ele>4</ele>
        <time>2012-09-18T16:05:55Z</time>
      </trkpt>
      <trkpt lat="46.29871" lon="-0.70776">
        <ele>4</ele>
        <time>2012-09-18T16:06:00Z</time>
      </trkpt>
      <trkpt lat="46.2987" lon="-0.70767">
        <ele>4</ele>
        <time>2012-09-18T16:06:05Z</time>
      </trkpt>
      <trkpt lat="46.29866" lon="-0.7076">
        <ele>4</ele>
        <time>2012-09-18T16:06:10Z</time>
      </trkpt>
      <trkpt lat="46.29864" lon="-0.70752">
        <ele>4</ele>
        <time>2012-09-18T16:06:15Z</time>
      </trkpt>
      <trkpt lat="46.29866" lon="-0.70743">
        <ele>4</ele>
        <time>2012-09-18T16:06:20Z</time>
      </trkpt>
      <trkpt lat="46.29865" lon="-0.70736">
        <ele>4</ele>
        <time>2012-09-18T16:06:25Z</time>
      </trkpt>
      <trkpt lat="46.29863" lon="-0.70728">
        <ele>4</ele>
        <time>2012-09-18T16:06:30Z</time>
      </trkpt>
      <trkpt lat="46.29863" lon="-0.70721">
        <ele>4</ele>
        <time>2012-09-18T16:06:35Z</time>
      </trkpt>
      <trkpt lat="46.29866" lon="-0.70712">
        <ele>4</ele>
        <time>2012-09-18T16:06:40Z</time>
      </trkpt>
      <trkpt lat="46.29866" lon="-0.70706">
        <ele>5</ele>
        <time>2012-09-18T16:06:45Z</time>
      </trkpt>
      <trkpt lat="46.29867" lon="-0.70701">
        <ele>5</ele>
        <time>2012-09-18T16:06:50Z</time>
      </trkpt>
      <trkpt lat="46.29871" lon="-0.70698">
        <ele>5</ele>
        <time>2012-09-18T16:06:55Z</time>
      </trkpt>
      <trkpt lat="46.29873" lon="-0.70693">
        <ele>5</ele>
        <time>2012-09-18T16:07:00Z</time>
      </trkpt>
      <trkpt lat="46.29873" lon="-0.70691">
        <ele>5</ele>
        <time>2012-09-18T16:07:05Z</time>
      </trkpt>
      <trkpt lat="46.29874" lon="-0.7069">
        <ele>5</ele>
        <time>2012-09-18T16:07:10Z</time>
      </trkpt>
      <trkpt lat="46.29879" lon="-0.70685">
        <ele>7</ele>
        <time>2012-09-18T16:07:15Z</time>
      </trkpt>
      <trkpt lat="46.29882" lon="-0.70682">
        <ele>7</ele>
        <time>2012-09-18T16:07:20Z</time>
      </trkpt>
      <trkpt lat="46.29887" lon="-0.70682">
        <ele>7</ele>
        <time>2012-09-18T16:07:25Z</time>
      </trkpt>
      <trkpt lat="46.29889" lon="-0.70679">
        <ele>7</ele>
        <time>2012-09-18T16:07:30Z</time>
      </trkpt>
      <trkpt lat="46.29896" lon="-0.70673">
        <ele>7</ele>
        <time>2012-09-18T16:07:35Z</time>
      </trkpt>
      <trkpt lat="46.29904" lon="-0.70663">
        <ele>7</ele>
        <time>2012-09-18T16:07:40Z</time>
      </trkpt>
      <trkpt lat="46.29914" lon="-0.70652">
        <ele>7</ele>
        <time>2012-09-18T16:07:45Z</time>
      </trkpt>
      <trkpt lat="46.2992" lon="-0.70648">
        <ele>7</ele>
        <time>2012-09-18T16:07:50Z</time>
      </trkpt>
      <trkpt lat="46.29925" lon="-0.70643">
        <ele>7</ele>
        <time>2012-09-18T16:07:55Z</time>
      </trkpt>
      <trkpt lat="46.29929" lon="-0.70637">
        <ele>7</ele>
        <time>2012-09-18T16:08:00Z</time>
      </trkpt>
      <trkpt lat="46.29934" lon="-0.70632">
        <ele>7</ele>
        <time>2012-09-18T16:08:05Z</time>
      </trkpt>
      <trkpt lat="46.29939" lon="-0.70625">
        <ele>7</ele>
        <time>2012-09-18T16:08:10Z</time>
      </trkpt>
      <trkpt lat="46.29944" lon="-0.7062">
        <ele>7</ele>
        <time>2012-09-18T16:08:15Z</time>
      </trkpt>
      <trkpt lat="46.2995" lon="-0.70614">
        <ele>7</ele>
        <time>2012-09-18T16:08:20Z</time>
      </trkpt>
      <trkpt lat="46.29953" lon="-0.70609">
        <ele>7</ele>
        <time>2012-09-18T16:08:25Z</time>
      </trkpt>
      <trkpt lat="46.2996" lon="-0.70602">
        <ele>5</ele>
        <time>2012-09-18T16:08:30Z</time>
      </trkpt>
      <trkpt lat="46.29964" lon="-0.70595">
        <ele>5</ele>
        <time>2012-09-18T16:08:35Z</time>
      </trkpt>
      <trkpt lat="46.29967" lon="-0.7059">
        <ele>5</ele>
        <time>2012-09-18T16:08:40Z</time>
      </trkpt>
      <trkpt lat="46.29969" lon="-0.70582">
        <ele>5</ele>
        <time>2012-09-18T16:08:45Z</time>
      </trkpt>
      <trkpt lat="46.29969" lon="-0.70573">
        <ele>5</ele>
        <time>2012-09-18T16:08:50Z</time>
      </trkpt>
      <trkpt lat="46.29966" lon="-0.70565">
        <ele>5</ele>
        <time>2012-09-18T16:08:55Z</time>
      </trkpt>
      <trkpt lat="46.29964" lon="-0.70558">
        <ele>5</ele>
        <time>2012-09-18T16:09:00Z</time>
      </trkpt>
      <trkpt lat="46.29961" lon="-0.70551">
        <ele>5</ele>
        <time>2012-09-18T16:09:05Z</time>
      </trkpt>
      <trkpt lat="46.29957" lon="-0.70544">
        <ele>7</ele>
        <time>2012-09-18T16:09:10Z</time>
      </trkpt>
      <trkpt lat="46.29956" lon="-0.70533">
        <ele>7</ele>
        <time>2012-09-18T16:09:15Z</time>
      </trkpt>
      <trkpt lat="46.29955" lon="-0.70525">
        <ele>7</ele>
        <time>2012-09-18T16:09:20Z</time>
      </trkpt>
      <trkpt lat="46.29952" lon="-0.70517">
        <ele>7</ele>
        <time>2012-09-18T16:09:25Z</time>
      </trkpt>
      <trkpt lat="46.2995" lon="-0.70509">
        <ele>7</ele>
        <time>2012-09-18T16:09:30Z</time>
      </trkpt>
      <trkpt lat="46.29942" lon="-0.70503">
        <ele>7</ele>
        <time>2012-09-18T16:09:35Z</time>
      </trkpt>
      <trkpt lat="46.29936" lon="-0.70495">
        <ele>7</ele>
        <time>2012-09-18T16:09:40Z</time>
      </trkpt>
      <trkpt lat="46.29932" lon="-0.70489">
        <ele>7</ele>
        <time>2012-09-18T16:09:45Z</time>
      </trkpt>
      <trkpt lat="46.29928" lon="-0.70482">
        <ele>7</ele>
        <time>2012-09-18T16:09:50Z</time>
      </trkpt>
      <trkpt lat="46.29924" lon="-0.70475">
        <ele>7</ele>
        <time>2012-09-18T16:09:55Z</time>
      </trkpt>
      <trkpt lat="46.29919" lon="-0.70471">
        <ele>7</ele>
        <time>2012-09-18T16:10:00Z</time>
      </trkpt>
      <trkpt lat="46.29917" lon="-0.70464">
        <ele>7</ele>
        <time>2012-09-18T16:10:05Z</time>
      </trkpt>
      <trkpt lat="46.29913" lon="-0.7046">
        <ele>7</ele>
        <time>2012-09-18T16:10:10Z</time>
      </trkpt>
      <trkpt lat="46.29913" lon="-0.7045">
        <ele>8</ele>
        <time>2012-09-18T16:10:15Z</time>
      </trkpt>
      <trkpt lat="46.29911" lon="-0.70442">
        <ele>8</ele>
        <time>2012-09-18T16:10:20Z</time>
      </trkpt>
      <trkpt lat="46.2991" lon="-0.70433">
        <ele>8</ele>
        <time>2012-09-18T16:10:25Z</time>
      </trkpt>
      <trkpt lat="46.29906" lon="-0.70424">
        <ele>8</ele>
        <time>2012-09-18T16:10:30Z</time>
      </trkpt>
      <trkpt lat="46.29903" lon="-0.70418">
        <ele>8</ele>
        <time>2012-09-18T16:10:35Z</time>
      </trkpt>
      <trkpt lat="46.29905" lon="-0.7041">
        <ele>8</ele>
        <time>2012-09-18T16:10:40Z</time>
      </trkpt>
      <trkpt lat="46.29906" lon="-0.704">
        <ele>8</ele>
        <time>2012-09-18T16:10:45Z</time>
      </trkpt>
      <trkpt lat="46.29907" lon="-0.70392">
        <ele>8</ele>
        <time>2012-09-18T16:10:50Z</time>
      </trkpt>
      <trkpt lat="46.2991" lon="-0.70381">
        <ele>8</ele>
        <time>2012-09-18T16:10:55Z</time>
      </trkpt>
      <trkpt lat="46.2991" lon="-0.70376">
        <ele>8</ele>
        <time>2012-09-18T16:11:00Z</time>
      </trkpt>
      <trkpt lat="46.29911" lon="-0.7037">
        <ele>6</ele>
        <time>2012-09-18T16:11:05Z</time>
      </trkpt>
      <trkpt lat="46.29909" lon="-0.70365">
        <ele>6</ele>
        <time>2012-09-18T16:11:10Z</time>
      </trkpt>
      <trkpt lat="46.29909" lon="-0.70359">
        <ele>6</ele>
        <time>2012-09-18T16:11:15Z</time>
      </trkpt>
      <trkpt lat="46.29907" lon="-0.70353">
        <ele>6</ele>
        <time>2012-09-18T16:11:20Z</time>
      </trkpt>
      <trkpt lat="46.29907" lon="-0.70343">
        <ele>6</ele>
        <time>2012-09-18T16:11:25Z</time>
      </trkpt>
      <trkpt lat="46.29905" lon="-0.70338">
        <ele>6</ele>
        <time>2012-09-18T16:11:30Z</time>
      </trkpt>
      <trkpt lat="46.29905" lon="-0.7033">
        <ele>6</ele>
        <time>2012-09-18T16:11:35Z</time>
      </trkpt>
      <trkpt lat="46.29905" lon="-0.70325">
        <ele>6</ele>
        <time>2012-09-18T16:11:40Z</time>
      </trkpt>
      <trkpt lat="46.29904" lon="-0.70315">
        <ele>6</ele>
        <time>2012-09-18T16:11:45Z</time>
      </trkpt>
      <trkpt lat="46.29904" lon="-0.70303">
        <ele>6</ele>
        <time>2012-09-18T16:11:50Z</time>
      </trkpt>
      <trkpt lat="46.29902" lon="-0.70295">
        <ele>6</ele>
        <time>2012-09-18T16:11:55Z</time>
      </trkpt>
      <trkpt lat="46.29903" lon="-0.70284">
        <ele>6</ele>
        <time>2012-09-18T16:12:00Z</time>
      </trkpt>
      <trkpt lat="46.29905" lon="-0.7027">
        <ele>6</ele>
        <time>2012-09-18T16:12:05Z</time>
      </trkpt>
      <trkpt lat="46.29905" lon="-0.70262">
        <ele>6</ele>
        <time>2012-09-18T16:12:10Z</time>
      </trkpt>
      <trkpt lat="46.29905" lon="-0.70257">
        <ele>6</ele>
        <time>2012-09-18T16:12:15Z</time>
      </trkpt>
      <trkpt lat="46.29905" lon="-0.70249">
        <ele>6</ele>
        <time>2012-09-18T16:12:20Z</time>
      </trkpt>
      <trkpt lat="46.29904" lon="-0.70241">
        <ele>6</ele>
        <time>2012-09-18T16:12:25Z</time>
      </trkpt>
      <trkpt lat="46.29905" lon="-0.70232">
        <ele>6</ele>
        <time>2012-09-18T16:12:30Z</time>
      </trkpt>
      <trkpt lat="46.29906" lon="-0.70222">
        <ele>6</ele>
        <time>2012-09-18T16:12:35Z</time>
      </trkpt>
      <trkpt lat="46.29906" lon="-0.70213">
        <ele>6</ele>
        <time>2012-09-18T16:12:40Z</time>
      </trkpt>
      <trkpt lat="46.29911" lon="-0.70204">
        <ele>5</ele>
        <time>2012-09-18T16:12:45Z</time>
      </trkpt>
      <trkpt lat="46.29912" lon="-0.70197">
        <ele>5</ele>
        <time>2012-09-18T16:12:50Z</time>
      </trkpt>
      <trkpt lat="46.29913" lon="-0.70191">
        <ele>5</ele>
        <time>2012-09-18T16:12:55Z</time>
      </trkpt>
      <trkpt lat="46.29915" lon="-0.70185">
        <ele>5</ele>
        <time>2012-09-18T16:13:00Z</time>
      </trkpt>
      <trkpt lat="46.29914" lon="-0.70177">
        <ele>5</ele>
        <time>2012-09-18T16:13:05Z</time>
      </trkpt>
      <trkpt lat="46.29913" lon="-0.70171">
        <ele>5</ele>
        <time>2012-09-18T16:13:10Z</time>
      </trkpt>
      <trkpt lat="46.29912" lon="-0.70163">
        <ele>5</ele>
        <time>2012-09-18T16:13:15Z</time>
      </trkpt>
      <trkpt lat="46.2991" lon="-0.70157">
        <ele>5</ele>
        <time>2012-09-18T16:13:20Z</time>
      </trkpt>
      <trkpt lat="46.2991" lon="-0.70149">
        <ele>5</ele>
        <time>2012-09-18T16:13:25Z</time>
      </trkpt>
      <trkpt lat="46.29912" lon="-0.70141">
        <ele>5</ele>
        <time>2012-09-18T16:13:30Z</time>
      </trkpt>
      <trkpt lat="46.29913" lon="-0.70134">
        <ele>5</ele>
        <time>2012-09-18T16:13:35Z</time>
      </trkpt>
      <trkpt lat="46.29914" lon="-0.70126">
        <ele>5</ele>
        <time>2012-09-18T16:13:40Z</time>
      </trkpt>
      <trkpt lat="46.29917" lon="-0.70118">
        <ele>6</ele>
        <time>2012-09-18T16:13:45Z</time>
      </trkpt>
      <trkpt lat="46.29917" lon="-0.7011">
        <ele>6</ele>
        <time>2012-09-18T16:13:50Z</time>
      </trkpt>
      <trkpt lat="46.29919" lon="-0.70102">
        <ele>6</ele>
        <time>2012-09-18T16:13:55Z</time>
      </trkpt>
      <trkpt lat="46.2992" lon="-0.70094">
        <ele>6</ele>
        <time>2012-09-18T16:14:00Z</time>
      </trkpt>
      <trkpt lat="46.29921" lon="-0.70086">
        <ele>6</ele>
        <time>2012-09-18T16:14:05Z</time>
      </trkpt>
      <trkpt lat="46.29922" lon="-0.70079">
        <ele>6</ele>
        <time>2012-09-18T16:14:10Z</time>
      </trkpt>
      <trkpt lat="46.29925" lon="-0.70072">
        <ele>6</ele>
        <time>2012-09-18T16:14:15Z</time>
      </trkpt>
      <trkpt lat="46.29924" lon="-0.70065">
        <ele>6</ele>
        <time>2012-09-18T16:14:20Z</time>
      </trkpt>
      <trkpt lat="46.29926" lon="-0.70058">
        <ele>6</ele>
        <time>2012-09-18T16:14:25Z</time>
      </trkpt>
      <trkpt lat="46.29928" lon="-0.70051">
        <ele>6</ele>
        <time>2012-09-18T16:14:30Z</time>
      </trkpt>
      <trkpt lat="46.29933" lon="-0.70045">
        <ele>6</ele>
        <time>2012-09-18T16:14:35Z</time>
      </trkpt>
      <trkpt lat="46.29942" lon="-0.70038">
        <ele>4</ele>
        <time>2012-09-18T16:14:40Z</time>
      </trkpt>
      <trkpt lat="46.29945" lon="-0.70033">
        <ele>4</ele>
        <time>2012-09-18T16:14:45Z</time>
      </trkpt>
      <trkpt lat="46.29951" lon="-0.70026">
        <ele>4</ele>
        <time>2012-09-18T16:14:50Z</time>
      </trkpt>
      <trkpt lat="46.29954" lon="-0.70023">
        <ele>4</ele>
        <time>2012-09-18T16:14:55Z</time>
      </trkpt>
      <trkpt lat="46.29959" lon="-0.70016">
        <ele>3</ele>
        <time>2012-09-18T16:15:00Z</time>
      </trkpt>
      <trkpt lat="46.29964" lon="-0.70012">
        <ele>3</ele>
        <time>2012-09-18T16:15:05Z</time>
      </trkpt>
      <trkpt lat="46.29969" lon="-0.7001">
        <ele>3</ele>
        <time>2012-09-18T16:15:10Z</time>
      </trkpt>
      <trkpt lat="46.29974" lon="-0.70008">
        <ele>3</ele>
        <time>2012-09-18T16:15:15Z</time>
      </trkpt>
      <trkpt lat="46.2998" lon="-0.70003">
        <ele>3</ele>
        <time>2012-09-18T16:15:20Z</time>
      </trkpt>
      <trkpt lat="46.29983" lon="-0.69998">
        <ele>3</ele>
        <time>2012-09-18T16:15:25Z</time>
      </trkpt>
      <trkpt lat="46.29987" lon="-0.69992">
        <ele>3</ele>
        <time>2012-09-18T16:15:30Z</time>
      </trkpt>
      <trkpt lat="46.29992" lon="-0.69985">
        <ele>3</ele>
        <time>2012-09-18T16:15:35Z</time>
      </trkpt>
      <trkpt lat="46.29998" lon="-0.6998">
        <ele>3</ele>
        <time>2012-09-18T16:15:40Z</time>
      </trkpt>
      <trkpt lat="46.30002" lon="-0.69976">
        <ele>3</ele>
        <time>2012-09-18T16:15:45Z</time>
      </trkpt>
      <trkpt lat="46.30006" lon="-0.69971">
        <ele>3</ele>
        <time>2012-09-18T16:15:50Z</time>
      </trkpt>
      <trkpt lat="46.30011" lon="-0.69967">
        <ele>3</ele>
        <time>2012-09-18T16:15:55Z</time>
      </trkpt>
      <trkpt lat="46.30016" lon="-0.69964">
        <ele>3</ele>
        <time>2012-09-18T16:16:00Z</time>
      </trkpt>
      <trkpt lat="46.30021" lon="-0.6996">
        <ele>3</ele>
        <time>2012-09-18T16:16:05Z</time>
      </trkpt>
      <trkpt lat="46.30024" lon="-0.69955">
        <ele>3</ele>
        <time>2012-09-18T16:16:10Z</time>
      </trkpt>
      <trkpt lat="46.30026" lon="-0.69954">
        <ele>3</ele>
        <time>2012-09-18T16:16:15Z</time>
      </trkpt>
      <trkpt lat="46.30032" lon="-0.69948">
        <ele>3</ele>
        <time>2012-09-18T16:16:20Z</time>
      </trkpt>
      <trkpt lat="46.30041" lon="-0.69945">
        <ele>3</ele>
        <time>2012-09-18T16:16:25Z</time>
      </trkpt>
      <trkpt lat="46.30045" lon="-0.69941">
        <ele>4</ele>
        <time>2012-09-18T16:16:30Z</time>
      </trkpt>
      <trkpt lat="46.3005" lon="-0.69936">
        <ele>4</ele>
        <time>2012-09-18T16:16:35Z</time>
      </trkpt>
      <trkpt lat="46.30055" lon="-0.69934">
        <ele>4</ele>
        <time>2012-09-18T16:16:40Z</time>
      </trkpt>
      <trkpt lat="46.3006" lon="-0.6993">
        <ele>4</ele>
        <time>2012-09-18T16:16:45Z</time>
      </trkpt>
      <trkpt lat="46.30064" lon="-0.69925">
        <ele>4</ele>
        <time>2012-09-18T16:16:50Z</time>
      </trkpt>
      <trkpt lat="46.30066" lon="-0.69918">
        <ele>4</ele>
        <time>2012-09-18T16:16:55Z</time>
      </trkpt>
      <trkpt lat="46.30071" lon="-0.69914">
        <ele>4</ele>
        <time>2012-09-18T16:17:00Z</time>
      </trkpt>
      <trkpt lat="46.30076" lon="-0.69908">
        <ele>4</ele>
        <time>2012-09-18T16:17:05Z</time>
      </trkpt>
      <trkpt lat="46.30079" lon="-0.69906">
        <ele>4</ele>
        <time>2012-09-18T16:17:10Z</time>
      </trkpt>
      <trkpt lat="46.30083" lon="-0.699">
        <ele>4</ele>
        <time>2012-09-18T16:17:15Z</time>
      </trkpt>
      <trkpt lat="46.30087" lon="-0.69897">
        <ele>4</ele>
        <time>2012-09-18T16:17:20Z</time>
      </trkpt>
      <trkpt lat="46.30093" lon="-0.69892">
        <ele>4</ele>
        <time>2012-09-18T16:17:25Z</time>
      </trkpt>
      <trkpt lat="46.30096" lon="-0.69887">
        <ele>4</ele>
        <time>2012-09-18T16:17:30Z</time>
      </trkpt>
      <trkpt lat="46.30099" lon="-0.69881">
        <ele>4</ele>
        <time>2012-09-18T16:17:35Z</time>
      </trkpt>
      <trkpt lat="46.30101" lon="-0.69875">
        <ele>5</ele>
        <time>2012-09-18T16:17:40Z</time>
      </trkpt>
      <trkpt lat="46.30097" lon="-0.6987">
        <ele>5</ele>
        <time>2012-09-18T16:17:45Z</time>
      </trkpt>
      <trkpt lat="46.30094" lon="-0.69864">
        <ele>5</ele>
        <time>2012-09-18T16:17:50Z</time>
      </trkpt>
      <trkpt lat="46.3009" lon="-0.69857">
        <ele>5</ele>
        <time>2012-09-18T16:17:55Z</time>
      </trkpt>
      <trkpt lat="46.30087" lon="-0.69851">
        <ele>5</ele>
        <time>2012-09-18T16:18:00Z</time>
      </trkpt>
      <trkpt lat="46.30083" lon="-0.69845">
        <ele>5</ele>
        <time>2012-09-18T16:18:05Z</time>
      </trkpt>
      <trkpt lat="46.30079" lon="-0.69839">
        <ele>5</ele>
        <time>2012-09-18T16:18:10Z</time>
      </trkpt>
      <trkpt lat="46.30075" lon="-0.69835">
        <ele>5</ele>
        <time>2012-09-18T16:18:15Z</time>
      </trkpt>
      <trkpt lat="46.30072" lon="-0.69829">
        <ele>5</ele>
        <time>2012-09-18T16:18:20Z</time>
      </trkpt>
      <trkpt lat="46.30068" lon="-0.69822">
        <ele>5</ele>
        <time>2012-09-18T16:18:25Z</time>
      </trkpt>
      <trkpt lat="46.30065" lon="-0.69816">
        <ele>5</ele>
        <time>2012-09-18T16:18:30Z</time>
      </trkpt>
      <trkpt lat="46.30061" lon="-0.6981">
        <ele>5</ele>
        <time>2012-09-18T16:18:35Z</time>
      </trkpt>
      <trkpt lat="46.30058" lon="-0.69803">
        <ele>5</ele>
        <time>2012-09-18T16:18:40Z</time>
      </trkpt>
      <trkpt lat="46.30054" lon="-0.69796">
        <ele>5</ele>
        <time>2012-09-18T16:18:45Z</time>
      </trkpt>
      <trkpt lat="46.30051" lon="-0.6979">
        <ele>6</ele>
        <time>2012-09-18T16:18:50Z</time>
      </trkpt>
      <trkpt lat="46.30047" lon="-0.69784">
        <ele>6</ele>
        <time>2012-09-18T16:18:55Z</time>
      </trkpt>
      <trkpt lat="46.30044" lon="-0.69778">
        <ele>6</ele>
        <time>2012-09-18T16:19:00Z</time>
      </trkpt>
      <trkpt lat="46.30039" lon="-0.69771">
        <ele>6</ele>
        <time>2012-09-18T16:19:05Z</time>
      </trkpt>
      <trkpt lat="46.30035" lon="-0.69765">
        <ele>6</ele>
        <time>2012-09-18T16:19:10Z</time>
      </trkpt>
      <trkpt lat="46.30031" lon="-0.69758">
        <ele>6</ele>
        <time>2012-09-18T16:19:15Z</time>
      </trkpt>
      <trkpt lat="46.30028" lon="-0.69752">
        <ele>6</ele>
        <time>2012-09-18T16:19:20Z</time>
      </trkpt>
      <trkpt lat="46.30024" lon="-0.69747">
        <ele>6</ele>
        <time>2012-09-18T16:19:25Z</time>
      </trkpt>
      <trkpt lat="46.30024" lon="-0.69736">
        <ele>6</ele>
        <time>2012-09-18T16:19:30Z</time>
      </trkpt>
      <trkpt lat="46.30021" lon="-0.69731">
        <ele>6</ele>
        <time>2012-09-18T16:19:35Z</time>
      </trkpt>
      <trkpt lat="46.30017" lon="-0.69725">
        <ele>6</ele>
        <time>2012-09-18T16:19:40Z</time>
      </trkpt>
      <trkpt lat="46.30013" lon="-0.69721">
        <ele>6</ele>
        <time>2012-09-18T16:19:45Z</time>
      </trkpt>
      <trkpt lat="46.3001" lon="-0.69713">
        <ele>6</ele>
        <time>2012-09-18T16:19:50Z</time>
      </trkpt>
      <trkpt lat="46.30005" lon="-0.69709">
        <ele>6</ele>
        <time>2012-09-18T16:19:55Z</time>
      </trkpt>
      <trkpt lat="46.29998" lon="-0.69705">
        <ele>6</ele>
        <time>2012-09-18T16:20:00Z</time>
      </trkpt>
      <trkpt lat="46.29994" lon="-0.697">
        <ele>6</ele>
        <time>2012-09-18T16:20:05Z</time>
      </trkpt>
      <trkpt lat="46.2999" lon="-0.69693">
        <ele>6</ele>
        <time>2012-09-18T16:20:10Z</time>
      </trkpt>
      <trkpt lat="46.29986" lon="-0.69689">
        <ele>6</ele>
        <time>2012-09-18T16:20:15Z</time>
      </trkpt>
      <trkpt lat="46.29983" lon="-0.69683">
        <ele>6</ele>
        <time>2012-09-18T16:20:20Z</time>
      </trkpt>
      <trkpt lat="46.29979" lon="-0.69674">
        <ele>6</ele>
        <time>2012-09-18T16:20:25Z</time>
      </trkpt>
      <trkpt lat="46.29976" lon="-0.69668">
        <ele>6</ele>
        <time>2012-09-18T16:20:30Z</time>
      </trkpt>
      <trkpt lat="46.29972" lon="-0.69657">
        <ele>6</ele>
        <time>2012-09-18T16:20:35Z</time>
      </trkpt>
      <trkpt lat="46.2997" lon="-0.69653">
        <ele>6</ele>
        <time>2012-09-18T16:20:40Z</time>
      </trkpt>
      <trkpt lat="46.29966" lon="-0.69648">
        <ele>6</ele>
        <time>2012-09-18T16:20:45Z</time>
      </trkpt>
      <trkpt lat="46.29963" lon="-0.69641">
        <ele>6</ele>
        <time>2012-09-18T16:20:50Z</time>
      </trkpt>
      <trkpt lat="46.29959" lon="-0.69635">
        <ele>6</ele>
        <time>2012-09-18T16:20:55Z</time>
      </trkpt>
      <trkpt lat="46.29955" lon="-0.6963">
        <ele>5</ele>
        <time>2012-09-18T16:21:00Z</time>
      </trkpt>
      <trkpt lat="46.29951" lon="-0.69624">
        <ele>4</ele>
        <time>2012-09-18T16:21:05Z</time>
      </trkpt>
      <trkpt lat="46.29948" lon="-0.69615">
        <ele>4</ele>
        <time>2012-09-18T16:21:10Z</time>
      </trkpt>
      <trkpt lat="46.29943" lon="-0.69609">
        <ele>4</ele>
        <time>2012-09-18T16:21:15Z</time>
      </trkpt>
      <trkpt lat="46.2994" lon="-0.69602">
        <ele>4</ele>
        <time>2012-09-18T16:21:20Z</time>
      </trkpt>
      <trkpt lat="46.29937" lon="-0.69595">
        <ele>4</ele>
        <time>2012-09-18T16:21:25Z</time>
      </trkpt>
      <trkpt lat="46.29934" lon="-0.69592">
        <ele>4</ele>
        <time>2012-09-18T16:21:30Z</time>
      </trkpt>
      <trkpt lat="46.2993" lon="-0.69587">
        <ele>4</ele>
        <time>2012-09-18T16:21:35Z</time>
      </trkpt>
      <trkpt lat="46.29927" lon="-0.69581">
        <ele>4</ele>
        <time>2012-09-18T16:21:40Z</time>
      </trkpt>
      <trkpt lat="46.29923" lon="-0.69575">
        <ele>4</ele>
        <time>2012-09-18T16:21:45Z</time>
      </trkpt>
      <trkpt lat="46.2992" lon="-0.69569">
        <ele>4</ele>
        <time>2012-09-18T16:21:50Z</time>
      </trkpt>
      <trkpt lat="46.29918" lon="-0.69561">
        <ele>4</ele>
        <time>2012-09-18T16:21:55Z</time>
      </trkpt>
      <trkpt lat="46.29915" lon="-0.69555">
        <ele>4</ele>
        <time>2012-09-18T16:22:00Z</time>
      </trkpt>
      <trkpt lat="46.29911" lon="-0.69555">
        <ele>4</ele>
        <time>2012-09-18T16:22:05Z</time>
      </trkpt>
      <trkpt lat="46.29905" lon="-0.69554">
        <ele>4</ele>
        <time>2012-09-18T16:22:10Z</time>
      </trkpt>
      <trkpt lat="46.299" lon="-0.69552">
        <ele>4</ele>
        <time>2012-09-18T16:22:15Z</time>
      </trkpt>
      <trkpt lat="46.29895" lon="-0.69549">
        <ele>4</ele>
        <time>2012-09-18T16:22:20Z</time>
      </trkpt>
      <trkpt lat="46.2989" lon="-0.69549">
        <ele>4</ele>
        <time>2012-09-18T16:22:25Z</time>
      </trkpt>
      <trkpt lat="46.29885" lon="-0.69547">
        <ele>4</ele>
        <time>2012-09-18T16:22:30Z</time>
      </trkpt>
      <trkpt lat="46.29881" lon="-0.69544">
        <ele>4</ele>
        <time>2012-09-18T16:22:35Z</time>
      </trkpt>
      <trkpt lat="46.29877" lon="-0.69542">
        <ele>5</ele>
        <time>2012-09-18T16:22:40Z</time>
      </trkpt>
      <trkpt lat="46.29873" lon="-0.69538">
        <ele>4</ele>
        <time>2012-09-18T16:22:45Z</time>
      </trkpt>
      <trkpt lat="46.29869" lon="-0.69534">
        <ele>4</ele>
        <time>2012-09-18T16:22:50Z</time>
      </trkpt>
      <trkpt lat="46.29869" lon="-0.69533">
        <ele>4</ele>
        <time>2012-09-18T16:22:55Z</time>
      </trkpt>
      <trkpt lat="46.29868" lon="-0.69534">
        <ele>4</ele>
        <time>2012-09-18T16:23:05Z</time>
      </trkpt>
    </trkseg>
  </trk>
</gpx>